Wetterdaten: Dienstag, 03.04.2018
Datum Zeit Temp. A. Feuchte A. Luftdruck Regen Wind Richtung Richtung Sonnenschein ET UV Solar Taupunkt Windchill Windböen
03.04.2018 00:00 4,7 °C 79 % 1006,6 hPa 0,0 mm 0,0 km/h (0 Bft) O-SO 107 ° 0 min 0,000 mm 0,0 UV-I 0 W/m² 1,4 °C 4,7 °C 0,0 km/h (0 Bft)
03.04.2018 00:01 4,9 °C 78 % 1006,6 hPa 0,0 mm 0,0 km/h (0 Bft) O-SO 107 ° 0 min 0,000 mm 0,0 UV-I 0 W/m² 1,4 °C 4,9 °C 0,0 km/h (0 Bft)
03.04.2018 00:02 4,9 °C 78 % 1006,6 hPa 0,0 mm 0,0 km/h (0 Bft) O-SO 107 ° 0 min 0,000 mm 0,0 UV-I 0 W/m² 1,4 °C 4,9 °C 0,0 km/h (0 Bft)
03.04.2018 00:03 4,9 °C 78 % 1006,6 hPa 0,0 mm 0,0 km/h (0 Bft) O-SO 107 ° 0 min 0,000 mm 0,0 UV-I 0 W/m² 1,4 °C 4,9 °C 0,0 km/h (0 Bft)
03.04.2018 00:04 4,9 °C 78 % 1006,7 hPa 0,0 mm 0,0 km/h (0 Bft) O-SO 107 ° 0 min 0,000 mm 0,0 UV-I 0 W/m² 1,4 °C 4,9 °C 0,0 km/h (0 Bft)
03.04.2018 00:05 4,8 °C 78 % 1006,7 hPa 0,0 mm 0,5 km/h (0 Bft) O-SO 107 ° 0 min 0,000 mm 0,0 UV-I 0 W/m² 1,3 °C 4,8 °C 3,2 km/h (1 Bft)
03.04.2018 00:06 4,8 °C 79 % 1006,7 hPa 0,0 mm 1,5 km/h (1 Bft) O-SO 107 ° 0 min 0,000 mm 0,0 UV-I 0 W/m² 1,5 °C 4,8 °C 3,2 km/h (1 Bft)
03.04.2018 00:07 4,7 °C 79 % 1006,7 hPa 0,0 mm 0,0 km/h (0 Bft) O-SO 107 ° 0 min 0,000 mm 0,0 UV-I 0 W/m² 1,4 °C 4,7 °C 0,0 km/h (0 Bft)
03.04.2018 00:08 4,7 °C 79 % 1006,6 hPa 0,0 mm 0,0 km/h (0 Bft) O-SO 107 ° 0 min 0,000 mm 0,0 UV-I 0 W/m² 1,4 °C 4,7 °C 0,0 km/h (0 Bft)
03.04.2018 00:09 4,7 °C 79 % 1006,7 hPa 0,0 mm 5,0 km/h (1 Bft) W-NW 287 ° 0 min 0,000 mm 0,0 UV-I 0 W/m² 1,4 °C 3,7 °C 9,7 km/h (2 Bft)
03.04.2018 00:10 4,7 °C 79 % 1006,7 hPa 0,0 mm 1,3 km/h (1 Bft) SO 138 ° 0 min 0,000 mm 0,0 UV-I 0 W/m² 1,4 °C 4,7 °C 4,8 km/h (1 Bft)
03.04.2018 00:11 4,8 °C 78 % 1006,6 hPa 0,0 mm 3,1 km/h (1 Bft) SO 132 ° 0 min 0,000 mm 0,0 UV-I 0 W/m² 1,3 °C 4,8 °C 4,8 km/h (1 Bft)
03.04.2018 00:12 5,0 °C 77 % 1006,7 hPa 0,0 mm 5,8 km/h (2 Bft) S 175 ° 0 min 0,000 mm 0,0 UV-I 0 W/m² 1,3 °C 3,8 °C 11,3 km/h (2 Bft)
03.04.2018 00:13 5,4 °C 74 % 1006,7 hPa 0,0 mm 3,1 km/h (1 Bft) SW 217 ° 0 min 0,000 mm 0,0 UV-I 0 W/m² 1,1 °C 5,4 °C 8,0 km/h (2 Bft)
03.04.2018 00:14 5,5 °C 75 % 1006,6 hPa 0,0 mm 1,5 km/h (1 Bft) SW 217 ° 0 min 0,000 mm 0,0 UV-I 0 W/m² 1,4 °C 5,5 °C 4,8 km/h (1 Bft)
03.04.2018 00:15 5,5 °C 75 % 1006,6 hPa 0,0 mm 1,6 km/h (1 Bft) S 190 ° 0 min 0,000 mm 0,0 UV-I 0 W/m² 1,4 °C 5,5 °C 4,8 km/h (1 Bft)
03.04.2018 00:16 5,4 °C 76 % 1006,6 hPa 0,0 mm 0,5 km/h (0 Bft) S 190 ° 0 min 0,000 mm 0,0 UV-I 0 W/m² 1,5 °C 5,4 °C 3,2 km/h (1 Bft)
03.04.2018 00:17 5,3 °C 77 % 1006,6 hPa 0,0 mm 3,1 km/h (1 Bft) S 189 ° 0 min 0,000 mm 0,0 UV-I 0 W/m² 1,6 °C 5,3 °C 3,2 km/h (1 Bft)
03.04.2018 00:18 5,3 °C 76 % 1006,7 hPa 0,0 mm 1,2 km/h (1 Bft) S 189 ° 0 min 0,000 mm 0,0 UV-I 0 W/m² 1,4 °C 5,3 °C 3,2 km/h (1 Bft)
03.04.2018 00:19 5,3 °C 75 % 1006,7 hPa 0,0 mm 0,0 km/h (0 Bft) S 189 ° 0 min 0,000 mm 0,0 UV-I 0 W/m² 1,2 °C 5,3 °C 0,0 km/h (0 Bft)
03.04.2018 00:20 5,4 °C 76 % 1006,6 hPa 0,0 mm 0,9 km/h (0 Bft) S 189 ° 0 min 0,000 mm 0,0 UV-I 0 W/m² 1,5 °C 5,4 °C 3,2 km/h (1 Bft)
03.04.2018 00:21 5,6 °C 75 % 1006,6 hPa 0,0 mm 2,9 km/h (1 Bft) S 170 ° 0 min 0,000 mm 0,0 UV-I 0 W/m² 1,5 °C 5,6 °C 4,8 km/h (1 Bft)
03.04.2018 00:22 5,7 °C 74 % 1006,6 hPa 0,0 mm 1,3 km/h (1 Bft) S 170 ° 0 min 0,000 mm 0,0 UV-I 0 W/m² 1,4 °C 5,7 °C 3,2 km/h (1 Bft)
03.04.2018 00:23 5,7 °C 74 % 1006,5 hPa 0,0 mm 0,4 km/h (0 Bft) S 170 ° 0 min 0,000 mm 0,0 UV-I 0 W/m² 1,4 °C 5,7 °C 3,2 km/h (1 Bft)
03.04.2018 00:24 5,8 °C 73 % 1006,5 hPa 0,0 mm 0,0 km/h (0 Bft) S 170 ° 0 min 0,000 mm 0,0 UV-I 0 W/m² 1,3 °C 5,8 °C 0,0 km/h (0 Bft)
03.04.2018 00:25 5,8 °C 74 % 1006,5 hPa 0,0 mm 0,0 km/h (0 Bft) S 170 ° 0 min 0,000 mm 0,0 UV-I 0 W/m² 1,5 °C 5,8 °C 0,0 km/h (0 Bft)
03.04.2018 00:26 5,8 °C 74 % 1006,5 hPa 0,0 mm 0,0 km/h (0 Bft) S 170 ° 0 min 0,000 mm 0,0 UV-I 0 W/m² 1,5 °C 5,8 °C 0,0 km/h (0 Bft)
03.04.2018 00:27 5,7 °C 73 % 1006,5 hPa 0,0 mm 0,0 km/h (0 Bft) S 170 ° 0 min 0,000 mm 0,0 UV-I 0 W/m² 1,2 °C 5,7 °C 0,0 km/h (0 Bft)
03.04.2018 00:28 5,6 °C 75 % 1006,5 hPa 0,0 mm 0,0 km/h (0 Bft) S 171 ° 0 min 0,000 mm 0,0 UV-I 0 W/m² 1,5 °C 5,6 °C 0,0 km/h (0 Bft)
03.04.2018 00:29 5,4 °C 75 % 1006,5 hPa 0,0 mm 0,0 km/h (0 Bft) S 171 ° 0 min 0,000 mm 0,0 UV-I 0 W/m² 1,3 °C 5,4 °C 0,0 km/h (0 Bft)
03.04.2018 00:30 5,3 °C 75 % 1006,5 hPa 0,0 mm 0,0 km/h (0 Bft) S 171 ° 0 min 0,000 mm 0,0 UV-I 0 W/m² 1,2 °C 5,3 °C 0,0 km/h (0 Bft)
03.04.2018 00:31 5,3 °C 74 % 1006,6 hPa 0,0 mm 0,0 km/h (0 Bft) S 171 ° 0 min 0,000 mm 0,0 UV-I 0 W/m² 1,0 °C 5,3 °C 0,0 km/h (0 Bft)
03.04.2018 00:32 5,2 °C 75 % 1006,5 hPa 0,0 mm 0,0 km/h (0 Bft) S 171 ° 0 min 0,000 mm 0,0 UV-I 0 W/m² 1,1 °C 5,2 °C 0,0 km/h (0 Bft)
03.04.2018 00:33 5,1 °C 75 % 1006,5 hPa 0,0 mm 0,0 km/h (0 Bft) S 171 ° 0 min 0,000 mm 0,0 UV-I 0 W/m² 1,0 °C 5,1 °C 0,0 km/h (0 Bft)
03.04.2018 00:34 4,9 °C 76 % 1006,5 hPa 0,0 mm 0,0 km/h (0 Bft) S 171 ° 0 min 0,000 mm 0,0 UV-I 0 W/m² 1,0 °C 4,9 °C 0,0 km/h (0 Bft)
03.04.2018 00:35 4,9 °C 77 % 1006,6 hPa 0,0 mm 0,0 km/h (0 Bft) S 171 ° 0 min 0,000 mm 0,0 UV-I 0 W/m² 1,2 °C 4,9 °C 0,0 km/h (0 Bft)
03.04.2018 00:36 4,9 °C 77 % 1006,6 hPa 0,0 mm 0,0 km/h (0 Bft) S 171 ° 0 min 0,000 mm 0,0 UV-I 0 W/m² 1,2 °C 4,9 °C 0,0 km/h (0 Bft)
03.04.2018 00:37 4,8 °C 77 % 1006,6 hPa 0,0 mm 0,0 km/h (0 Bft) S 171 ° 0 min 0,000 mm 0,0 UV-I 0 W/m² 1,1 °C 4,8 °C 0,0 km/h (0 Bft)
03.04.2018 00:38 4,8 °C 78 % 1006,6 hPa 0,0 mm 0,0 km/h (0 Bft) S 171 ° 0 min 0,000 mm 0,0 UV-I 0 W/m² 1,3 °C 4,8 °C 0,0 km/h (0 Bft)
03.04.2018 00:39 4,7 °C 78 % 1006,6 hPa 0,0 mm 0,0 km/h (0 Bft) S 171 ° 0 min 0,000 mm 0,0 UV-I 0 W/m² 1,2 °C 4,7 °C 0,0 km/h (0 Bft)
03.04.2018 00:40 4,7 °C 77 % 1006,5 hPa 0,0 mm 0,0 km/h (0 Bft) S 171 ° 0 min 0,000 mm 0,0 UV-I 0 W/m² 1,0 °C 4,7 °C 0,0 km/h (0 Bft)
03.04.2018 00:41 4,8 °C 77 % 1006,5 hPa 0,0 mm 0,0 km/h (0 Bft) S 171 ° 0 min 0,000 mm 0,0 UV-I 0 W/m² 1,1 °C 4,8 °C 0,0 km/h (0 Bft)
03.04.2018 00:42 4,9 °C 78 % 1006,5 hPa 0,0 mm 0,0 km/h (0 Bft) S 171 ° 0 min 0,000 mm 0,0 UV-I 0 W/m² 1,4 °C 4,9 °C 0,0 km/h (0 Bft)
03.04.2018 00:43 4,9 °C 77 % 1006,5 hPa 0,0 mm 0,0 km/h (0 Bft) S 171 ° 0 min 0,000 mm 0,0 UV-I 0 W/m² 1,2 °C 4,9 °C 0,0 km/h (0 Bft)
03.04.2018 00:44 5,1 °C 76 % 1006,5 hPa 0,0 mm 0,0 km/h (0 Bft) S 171 ° 0 min 0,000 mm 0,0 UV-I 0 W/m² 1,2 °C 5,1 °C 0,0 km/h (0 Bft)
03.04.2018 00:45 5,2 °C 76 % 1006,5 hPa 0,0 mm 0,0 km/h (0 Bft) S 171 ° 0 min 0,000 mm 0,0 UV-I 0 W/m² 1,3 °C 5,2 °C 0,0 km/h (0 Bft)
03.04.2018 00:46 5,3 °C 75 % 1006,5 hPa 0,0 mm 0,0 km/h (0 Bft) S 171 ° 0 min 0,000 mm 0,0 UV-I 0 W/m² 1,2 °C 5,3 °C 0,0 km/h (0 Bft)
03.04.2018 00:47 5,5 °C 74 % 1006,5 hPa 0,0 mm 0,0 km/h (0 Bft) S 171 ° 0 min 0,000 mm 0,0 UV-I 0 W/m² 1,2 °C 5,5 °C 0,0 km/h (0 Bft)
03.04.2018 00:48 5,7 °C 74 % 1006,5 hPa 0,0 mm 0,0 km/h (0 Bft) S 171 ° 0 min 0,000 mm 0,0 UV-I 0 W/m² 1,4 °C 5,7 °C 0,0 km/h (0 Bft)
03.04.2018 00:49 5,9 °C 73 % 1006,5 hPa 0,0 mm 0,0 km/h (0 Bft) S 171 ° 0 min 0,000 mm 0,0 UV-I 0 W/m² 1,4 °C 5,9 °C 0,0 km/h (0 Bft)
03.04.2018 00:50 6,4 °C 70 % 1006,5 hPa 0,0 mm 0,0 km/h (0 Bft) S 171 ° 0 min 0,000 mm 0,0 UV-I 0 W/m² 1,3 °C 6,4 °C 0,0 km/h (0 Bft)
03.04.2018 00:51 6,8 °C 69 % 1006,5 hPa 0,0 mm 0,0 km/h (0 Bft) S 171 ° 0 min 0,000 mm 0,0 UV-I 0 W/m² 1,5 °C 6,8 °C 0,0 km/h (0 Bft)
03.04.2018 00:52 6,8 °C 70 % 1006,4 hPa 0,0 mm 0,0 km/h (0 Bft) S-SO 163 ° 0 min 0,000 mm 0,0 UV-I 0 W/m² 1,7 °C 6,8 °C 0,0 km/h (0 Bft)
03.04.2018 00:53 6,8 °C 71 % 1006,4 hPa 0,0 mm 3,5 km/h (1 Bft) S-SO 148 ° 0 min 0,000 mm 0,0 UV-I 0 W/m² 1,9 °C 6,8 °C 6,4 km/h (2 Bft)
03.04.2018 00:54 6,8 °C 69 % 1006,5 hPa 0,0 mm 2,8 km/h (1 Bft) S 186 ° 0 min 0,000 mm 0,0 UV-I 0 W/m² 1,5 °C 6,8 °C 6,4 km/h (2 Bft)
03.04.2018 00:55 6,9 °C 69 % 1006,5 hPa 0,0 mm 0,0 km/h (0 Bft) S 186 ° 0 min 0,000 mm 0,0 UV-I 0 W/m² 1,6 °C 6,9 °C 0,0 km/h (0 Bft)
03.04.2018 00:56 7,1 °C 69 % 1006,4 hPa 0,0 mm 0,0 km/h (0 Bft) S 186 ° 0 min 0,000 mm 0,0 UV-I 0 W/m² 1,8 °C 7,1 °C 0,0 km/h (0 Bft)
03.04.2018 00:57 7,2 °C 69 % 1006,4 hPa 0,0 mm 0,0 km/h (0 Bft) S 186 ° 0 min 0,000 mm 0,0 UV-I 0 W/m² 1,9 °C 7,2 °C 0,0 km/h (0 Bft)
03.04.2018 00:58 7,3 °C 68 % 1006,4 hPa 0,0 mm 0,0 km/h (0 Bft) S 186 ° 0 min 0,000 mm 0,0 UV-I 0 W/m² 1,8 °C 7,3 °C 0,0 km/h (0 Bft)
03.04.2018 00:59 7,4 °C 68 % 1006,4 hPa 0,0 mm 0,0 km/h (0 Bft) S 186 ° 0 min 0,000 mm 0,0 UV-I 0 W/m² 1,9 °C 7,4 °C 0,0 km/h (0 Bft)
03.04.2018 01:00 7,6 °C 65 % 1006,4 hPa 0,0 mm 0,1 km/h (0 Bft) S 186 ° 0 min 0,025 mm 0,0 UV-I 0 W/m² 1,5 °C 7,6 °C 1,6 km/h (1 Bft)
03.04.2018 01:01 7,8 °C 65 % 1006,3 hPa 0,0 mm 0,5 km/h (0 Bft) S 186 ° 0 min 0,000 mm 0,0 UV-I 0 W/m² 1,6 °C 7,8 °C 3,2 km/h (1 Bft)
03.04.2018 01:02 8,1 °C 64 % 1006,4 hPa 0,0 mm 1,8 km/h (1 Bft) S 186 ° 0 min 0,000 mm 0,0 UV-I 0 W/m² 1,7 °C 8,1 °C 4,8 km/h (1 Bft)
03.04.2018 01:03 8,3 °C 65 % 1006,4 hPa 0,0 mm 2,2 km/h (1 Bft) S 186 ° 0 min 0,000 mm 0,0 UV-I 0 W/m² 2,1 °C 8,3 °C 3,2 km/h (1 Bft)
03.04.2018 01:04 8,3 °C 64 % 1006,4 hPa 0,0 mm 0,7 km/h (0 Bft) S 186 ° 0 min 0,000 mm 0,0 UV-I 0 W/m² 1,9 °C 8,3 °C 1,6 km/h (1 Bft)
03.04.2018 01:05 8,3 °C 63 % 1006,4 hPa 0,0 mm 0,1 km/h (0 Bft) S 186 ° 0 min 0,000 mm 0,0 UV-I 0 W/m² 1,7 °C 8,3 °C 1,6 km/h (1 Bft)
03.04.2018 01:06 8,4 °C 63 % 1006,4 hPa 0,0 mm 0,0 km/h (0 Bft) S 186 ° 0 min 0,000 mm 0,0 UV-I 0 W/m² 1,8 °C 8,4 °C 0,0 km/h (0 Bft)
03.04.2018 01:07 8,4 °C 63 % 1006,4 hPa 0,0 mm 2,1 km/h (1 Bft) S 186 ° 0 min 0,000 mm 0,0 UV-I 0 W/m² 1,8 °C 8,4 °C 4,8 km/h (1 Bft)
03.04.2018 01:08 8,4 °C 62 % 1006,4 hPa 0,0 mm 0,0 km/h (0 Bft) S 186 ° 0 min 0,000 mm 0,0 UV-I 0 W/m² 1,6 °C 8,4 °C 0,0 km/h (0 Bft)
03.04.2018 01:09 8,4 °C 65 % 1006,4 hPa 0,0 mm 1,1 km/h (1 Bft) S 186 ° 0 min 0,000 mm 0,0 UV-I 0 W/m² 2,2 °C 8,4 °C 1,6 km/h (1 Bft)
03.04.2018 01:10 8,4 °C 63 % 1006,4 hPa 0,0 mm 0,0 km/h (0 Bft) S 186 ° 0 min 0,000 mm 0,0 UV-I 0 W/m² 1,8 °C 8,4 °C 0,0 km/h (0 Bft)
03.04.2018 01:11 8,4 °C 64 % 1006,4 hPa 0,0 mm 0,0 km/h (0 Bft) S 186 ° 0 min 0,000 mm 0,0 UV-I 0 W/m² 2,0 °C 8,4 °C 0,0 km/h (0 Bft)
03.04.2018 01:12 8,4 °C 64 % 1006,4 hPa 0,0 mm 0,0 km/h (0 Bft) S 186 ° 0 min 0,000 mm 0,0 UV-I 0 W/m² 2,0 °C 8,4 °C 0,0 km/h (0 Bft)
03.04.2018 01:13 8,3 °C 63 % 1006,4 hPa 0,0 mm 0,0 km/h (0 Bft) S 186 ° 0 min 0,000 mm 0,0 UV-I 0 W/m² 1,7 °C 8,3 °C 0,0 km/h (0 Bft)
03.04.2018 01:14 8,1 °C 67 % 1006,5 hPa 0,0 mm 0,3 km/h (0 Bft) S 186 ° 0 min 0,000 mm 0,0 UV-I 0 W/m² 2,3 °C 8,1 °C 1,6 km/h (1 Bft)
03.04.2018 01:15 7,8 °C 67 % 1006,4 hPa 0,0 mm 0,9 km/h (0 Bft) S 186 ° 0 min 0,000 mm 0,0 UV-I 0 W/m² 2,1 °C 7,8 °C 3,2 km/h (1 Bft)
03.04.2018 01:16 7,7 °C 68 % 1006,5 hPa 0,0 mm 1,9 km/h (1 Bft) S 186 ° 0 min 0,000 mm 0,0 UV-I 0 W/m² 2,2 °C 7,7 °C 3,2 km/h (1 Bft)
03.04.2018 01:17 7,5 °C 68 % 1006,5 hPa 0,0 mm 0,9 km/h (0 Bft) S 186 ° 0 min 0,000 mm 0,0 UV-I 0 W/m² 2,0 °C 7,5 °C 3,2 km/h (1 Bft)
03.04.2018 01:18 7,7 °C 66 % 1006,5 hPa 0,0 mm 0,8 km/h (0 Bft) S 186 ° 0 min 0,000 mm 0,0 UV-I 0 W/m² 1,8 °C 7,7 °C 3,2 km/h (1 Bft)
03.04.2018 01:19 7,8 °C 67 % 1006,5 hPa 0,0 mm 0,0 km/h (0 Bft) S 186 ° 0 min 0,000 mm 0,0 UV-I 0 W/m² 2,1 °C 7,8 °C 0,0 km/h (0 Bft)
03.04.2018 01:20 8,4 °C 60 % 1006,5 hPa 0,0 mm 4,2 km/h (1 Bft) S 180 ° 0 min 0,000 mm 0,0 UV-I 0 W/m² 1,1 °C 8,4 °C 11,3 km/h (2 Bft)
03.04.2018 01:21 8,6 °C 64 % 1006,6 hPa 0,0 mm 0,6 km/h (0 Bft) S 180 ° 0 min 0,000 mm 0,0 UV-I 0 W/m² 2,2 °C 8,6 °C 3,2 km/h (1 Bft)
03.04.2018 01:22 8,4 °C 65 % 1006,6 hPa 0,0 mm 0,0 km/h (0 Bft) S 180 ° 0 min 0,000 mm 0,0 UV-I 0 W/m² 2,2 °C 8,4 °C 0,0 km/h (0 Bft)
03.04.2018 01:23 8,3 °C 66 % 1006,6 hPa 0,0 mm 0,0 km/h (0 Bft) S 180 ° 0 min 0,000 mm 0,0 UV-I 0 W/m² 2,3 °C 8,3 °C 0,0 km/h (0 Bft)
03.04.2018 01:24 8,1 °C 68 % 1006,6 hPa 0,0 mm 0,0 km/h (0 Bft) S 180 ° 0 min 0,000 mm 0,0 UV-I 0 W/m² 2,6 °C 8,1 °C 0,0 km/h (0 Bft)
03.04.2018 01:25 7,9 °C 68 % 1006,5 hPa 0,0 mm 0,2 km/h (0 Bft) S 180 ° 0 min 0,000 mm 0,0 UV-I 0 W/m² 2,4 °C 7,9 °C 3,2 km/h (1 Bft)
03.04.2018 01:26 7,9 °C 67 % 1006,5 hPa 0,0 mm 2,3 km/h (1 Bft) S 180 ° 0 min 0,000 mm 0,0 UV-I 0 W/m² 2,2 °C 7,9 °C 3,2 km/h (1 Bft)
03.04.2018 01:27 7,9 °C 67 % 1006,6 hPa 0,0 mm 1,2 km/h (1 Bft) S 180 ° 0 min 0,000 mm 0,0 UV-I 0 W/m² 2,2 °C 7,9 °C 1,6 km/h (1 Bft)
03.04.2018 01:28 8,1 °C 65 % 1006,6 hPa 0,0 mm 0,7 km/h (0 Bft) S 180 ° 0 min 0,000 mm 0,0 UV-I 0 W/m² 1,9 °C 8,1 °C 1,6 km/h (1 Bft)
03.04.2018 01:29 8,2 °C 64 % 1006,5 hPa 0,0 mm 0,0 km/h (0 Bft) S 180 ° 0 min 0,000 mm 0,0 UV-I 0 W/m² 1,8 °C 8,2 °C 0,0 km/h (0 Bft)
03.04.2018 01:30 8,3 °C 64 % 1006,5 hPa 0,0 mm 0,0 km/h (0 Bft) S 180 ° 0 min 0,000 mm 0,0 UV-I 0 W/m² 1,9 °C 8,3 °C 0,0 km/h (0 Bft)
03.04.2018 01:31 8,4 °C 64 % 1006,5 hPa 0,0 mm 0,0 km/h (0 Bft) S 180 ° 0 min 0,000 mm 0,0 UV-I 0 W/m² 2,0 °C 8,4 °C 0,0 km/h (0 Bft)
03.04.2018 01:32 8,6 °C 65 % 1006,6 hPa 0,0 mm 3,5 km/h (1 Bft) S-SO 167 ° 0 min 0,000 mm 0,0 UV-I 0 W/m² 2,4 °C 8,6 °C 6,4 km/h (2 Bft)
03.04.2018 01:33 8,6 °C 64 % 1006,6 hPa 0,0 mm 0,2 km/h (0 Bft) S-SO 167 ° 0 min 0,000 mm 0,0 UV-I 0 W/m² 2,2 °C 8,6 °C 1,6 km/h (1 Bft)
03.04.2018 01:34 8,7 °C 61 % 1006,6 hPa 0,0 mm 0,0 km/h (0 Bft) S-SO 167 ° 0 min 0,000 mm 0,0 UV-I 0 W/m² 1,6 °C 8,7 °C 0,0 km/h (0 Bft)
03.04.2018 01:35 8,8 °C 62 % 1006,6 hPa 0,0 mm 0,0 km/h (0 Bft) S-SO 167 ° 0 min 0,000 mm 0,0 UV-I 0 W/m² 1,9 °C 8,8 °C 0,0 km/h (0 Bft)
03.04.2018 01:36 8,9 °C 63 % 1006,6 hPa 0,0 mm 0,0 km/h (0 Bft) S-SO 167 ° 0 min 0,000 mm 0,0 UV-I 0 W/m² 2,2 °C 8,9 °C 0,0 km/h (0 Bft)
03.04.2018 01:37 8,9 °C 63 % 1006,6 hPa 0,0 mm 0,0 km/h (0 Bft) S-SO 167 ° 0 min 0,000 mm 0,0 UV-I 0 W/m² 2,2 °C 8,9 °C 0,0 km/h (0 Bft)
03.04.2018 01:38 8,9 °C 63 % 1006,7 hPa 0,0 mm 2,4 km/h (1 Bft) W-NW 294 ° 0 min 0,000 mm 0,0 UV-I 0 W/m² 2,2 °C 8,9 °C 4,8 km/h (1 Bft)
03.04.2018 01:39 8,8 °C 66 % 1006,7 hPa 0,0 mm 3,2 km/h (1 Bft) W-NW 292 ° 0 min 0,000 mm 0,0 UV-I 0 W/m² 2,8 °C 8,8 °C 4,8 km/h (1 Bft)
03.04.2018 01:40 8,4 °C 67 % 1006,7 hPa 0,0 mm 0,3 km/h (0 Bft) W-NW 292 ° 0 min 0,000 mm 0,0 UV-I 0 W/m² 2,6 °C 8,4 °C 1,6 km/h (1 Bft)
03.04.2018 01:41 8,2 °C 67 % 1006,7 hPa 0,0 mm 0,0 km/h (0 Bft) W-NW 292 ° 0 min 0,000 mm 0,0 UV-I 0 W/m² 2,4 °C 8,2 °C 0,0 km/h (0 Bft)
03.04.2018 01:42 7,9 °C 67 % 1006,6 hPa 0,0 mm 0,0 km/h (0 Bft) W-NW 292 ° 0 min 0,000 mm 0,0 UV-I 0 W/m² 2,2 °C 7,9 °C 0,0 km/h (0 Bft)
03.04.2018 01:43 7,9 °C 67 % 1006,6 hPa 0,0 mm 1,7 km/h (1 Bft) SW 236 ° 0 min 0,000 mm 0,0 UV-I 0 W/m² 2,2 °C 7,9 °C 3,2 km/h (1 Bft)
03.04.2018 01:44 7,9 °C 67 % 1006,6 hPa 0,0 mm 1,5 km/h (1 Bft) S-SW 201 ° 0 min 0,000 mm 0,0 UV-I 0 W/m² 2,2 °C 7,9 °C 3,2 km/h (1 Bft)
03.04.2018 01:45 7,9 °C 69 % 1006,6 hPa 0,0 mm 1,3 km/h (1 Bft) S-SW 200 ° 0 min 0,000 mm 0,0 UV-I 0 W/m² 2,6 °C 7,9 °C 3,2 km/h (1 Bft)
03.04.2018 01:46 8,0 °C 65 % 1006,6 hPa 0,0 mm 1,9 km/h (1 Bft) NW 310 ° 0 min 0,000 mm 0,0 UV-I 0 W/m² 1,8 °C 8,0 °C 4,8 km/h (1 Bft)
03.04.2018 01:47 8,1 °C 65 % 1006,6 hPa 0,0 mm 1,8 km/h (1 Bft) NW 310 ° 0 min 0,000 mm 0,0 UV-I 0 W/m² 1,9 °C 8,1 °C 4,8 km/h (1 Bft)
03.04.2018 01:48 8,2 °C 65 % 1006,6 hPa 0,0 mm 3,4 km/h (1 Bft) W 277 ° 0 min 0,000 mm 0,0 UV-I 0 W/m² 2,0 °C 8,2 °C 6,4 km/h (2 Bft)
03.04.2018 01:49 8,3 °C 63 % 1006,6 hPa 0,0 mm 4,7 km/h (1 Bft) W-NW 288 ° 0 min 0,000 mm 0,0 UV-I 0 W/m² 1,7 °C 7,9 °C 6,4 km/h (2 Bft)
03.04.2018 01:50 8,3 °C 64 % 1006,6 hPa 0,0 mm 3,2 km/h (1 Bft) W-NW 288 ° 0 min 0,000 mm 0,0 UV-I 0 W/m² 1,9 °C 8,3 °C 4,8 km/h (1 Bft)
03.04.2018 01:51 8,3 °C 64 % 1006,6 hPa 0,0 mm 1,3 km/h (1 Bft) S 191 ° 0 min 0,000 mm 0,0 UV-I 0 W/m² 1,9 °C 8,3 °C 3,2 km/h (1 Bft)
03.04.2018 01:52 8,4 °C 64 % 1006,6 hPa 0,0 mm 1,5 km/h (1 Bft) W-SW 250 ° 0 min 0,000 mm 0,0 UV-I 0 W/m² 2,0 °C 8,4 °C 3,2 km/h (1 Bft)
03.04.2018 01:53 8,3 °C 65 % 1006,5 hPa 0,0 mm 4,3 km/h (1 Bft) NW 317 ° 0 min 0,000 mm 0,0 UV-I 0 W/m² 2,1 °C 8,3 °C 6,4 km/h (2 Bft)
03.04.2018 01:54 8,4 °C 64 % 1006,5 hPa 0,0 mm 3,9 km/h (1 Bft) SO 126 ° 0 min 0,000 mm 0,0 UV-I 0 W/m² 2,0 °C 8,4 °C 6,4 km/h (2 Bft)
03.04.2018 01:55 8,7 °C 59 % 1006,5 hPa 0,0 mm 2,3 km/h (1 Bft) SO 126 ° 0 min 0,000 mm 0,0 UV-I 0 W/m² 1,1 °C 8,7 °C 3,2 km/h (1 Bft)
03.04.2018 01:56 8,9 °C 61 % 1006,4 hPa 0,0 mm 1,5 km/h (1 Bft) S-SO 158 ° 0 min 0,000 mm 0,0 UV-I 0 W/m² 1,8 °C 8,9 °C 3,2 km/h (1 Bft)
03.04.2018 01:57 8,9 °C 62 % 1006,4 hPa 0,0 mm 2,1 km/h (1 Bft) SO 142 ° 0 min 0,000 mm 0,0 UV-I 0 W/m² 2,0 °C 8,9 °C 4,8 km/h (1 Bft)
03.04.2018 01:58 8,9 °C 60 % 1006,3 hPa 0,0 mm 0,8 km/h (0 Bft) SO 142 ° 0 min 0,000 mm 0,0 UV-I 0 W/m² 1,6 °C 8,9 °C 1,6 km/h (1 Bft)
03.04.2018 01:59 9,0 °C 60 % 1006,3 hPa 0,0 mm 0,0 km/h (0 Bft) SO 142 ° 0 min 0,000 mm 0,0 UV-I 0 W/m² 1,7 °C 9,0 °C 0,0 km/h (0 Bft)
03.04.2018 02:00 9,1 °C 57 % 1006,3 hPa 0,0 mm 1,7 km/h (1 Bft) SW 226 ° 0 min 0,026 mm 0,0 UV-I 0 W/m² 1,0 °C 9,1 °C 4,8 km/h (1 Bft)
03.04.2018 02:01 9,3 °C 58 % 1006,3 hPa 0,0 mm 2,3 km/h (1 Bft) SO 128 ° 0 min 0,000 mm 0,0 UV-I 0 W/m² 1,5 °C 9,3 °C 4,8 km/h (1 Bft)
03.04.2018 02:02 9,4 °C 57 % 1006,3 hPa 0,0 mm 2,9 km/h (1 Bft) NO 53 ° 0 min 0,000 mm 0,0 UV-I 0 W/m² 1,3 °C 9,4 °C 6,4 km/h (2 Bft)
03.04.2018 02:03 9,6 °C 56 % 1006,3 hPa 0,0 mm 0,1 km/h (0 Bft) NO 53 ° 0 min 0,000 mm 0,0 UV-I 0 W/m² 1,3 °C 9,6 °C 1,6 km/h (1 Bft)
03.04.2018 02:04 9,7 °C 54 % 1006,3 hPa 0,0 mm 0,0 km/h (0 Bft) NO 53 ° 0 min 0,000 mm 0,0 UV-I 0 W/m² 0,9 °C 9,7 °C 0,0 km/h (0 Bft)
03.04.2018 02:05 9,8 °C 54 % 1006,3 hPa 0,0 mm 0,0 km/h (0 Bft) NO 53 ° 0 min 0,000 mm 0,0 UV-I 0 W/m² 0,9 °C 9,8 °C 0,0 km/h (0 Bft)
03.04.2018 02:06 9,9 °C 57 % 1006,2 hPa 0,0 mm 0,6 km/h (0 Bft) O-SO 106 ° 0 min 0,000 mm 0,0 UV-I 0 W/m² 1,8 °C 9,9 °C 4,8 km/h (1 Bft)
03.04.2018 02:07 10,1 °C 53 % 1006,2 hPa 0,0 mm 2,2 km/h (1 Bft) O 100 ° 0 min 0,000 mm 0,0 UV-I 0 W/m² 1,0 °C 10,1 °C 4,8 km/h (1 Bft)
03.04.2018 02:08 10,2 °C 55 % 1006,2 hPa 0,0 mm 2,2 km/h (1 Bft) O 91 ° 0 min 0,000 mm 0,0 UV-I 0 W/m² 1,6 °C 10,2 °C 4,8 km/h (1 Bft)
03.04.2018 02:09 10,2 °C 55 % 1006,3 hPa 0,0 mm 3,2 km/h (1 Bft) S 186 ° 0 min 0,000 mm 0,0 UV-I 0 W/m² 1,6 °C 10,2 °C 6,4 km/h (2 Bft)
03.04.2018 02:10 10,3 °C 52 % 1006,3 hPa 0,0 mm 0,6 km/h (0 Bft) S 183 ° 0 min 0,000 mm 0,0 UV-I 0 W/m² 0,9 °C 10,3 °C 3,2 km/h (1 Bft)
03.04.2018 02:11 10,4 °C 52 % 1006,3 hPa 0,0 mm 0,0 km/h (0 Bft) S 183 ° 0 min 0,000 mm 0,0 UV-I 0 W/m² 1,0 °C 10,4 °C 0,0 km/h (0 Bft)
03.04.2018 02:12 10,6 °C 53 % 1006,3 hPa 0,0 mm 0,0 km/h (0 Bft) S 178 ° 0 min 0,000 mm 0,0 UV-I 0 W/m² 1,4 °C 10,6 °C 0,0 km/h (0 Bft)
03.04.2018 02:13 10,8 °C 48 % 1006,3 hPa 0,0 mm 0,0 km/h (0 Bft) S 178 ° 0 min 0,000 mm 0,0 UV-I 0 W/m² 0,2 °C 10,8 °C 0,0 km/h (0 Bft)
03.04.2018 02:14 11,0 °C 48 % 1006,3 hPa 0,0 mm 0,0 km/h (0 Bft) S 178 ° 0 min 0,000 mm 0,0 UV-I 0 W/m² 0,4 °C 11,0 °C 0,0 km/h (0 Bft)
03.04.2018 02:15 11,2 °C 46 % 1006,3 hPa 0,0 mm 0,0 km/h (0 Bft) S 178 ° 0 min 0,000 mm 0,0 UV-I 0 W/m² 0,0 °C 11,2 °C 0,0 km/h (0 Bft)
03.04.2018 02:16 11,3 °C 48 % 1006,3 hPa 0,0 mm 0,0 km/h (0 Bft) S 178 ° 0 min 0,000 mm 0,0 UV-I 0 W/m² 0,7 °C 11,3 °C 0,0 km/h (0 Bft)
03.04.2018 02:17 11,3 °C 52 % 1006,3 hPa 0,0 mm 0,8 km/h (0 Bft) SO 139 ° 0 min 0,000 mm 0,0 UV-I 0 W/m² 1,8 °C 11,3 °C 3,2 km/h (1 Bft)
03.04.2018 02:18 11,1 °C 53 % 1006,3 hPa 0,0 mm 3,0 km/h (1 Bft) SO 126 ° 0 min 0,000 mm 0,0 UV-I 0 W/m² 1,9 °C 11,1 °C 4,8 km/h (1 Bft)
03.04.2018 02:19 10,9 °C 53 % 1006,4 hPa 0,0 mm 0,3 km/h (0 Bft) SO 126 ° 0 min 0,000 mm 0,0 UV-I 0 W/m² 1,7 °C 10,9 °C 1,6 km/h (1 Bft)
03.04.2018 02:20 10,8 °C 54 % 1006,4 hPa 0,0 mm 1,6 km/h (1 Bft) SO 126 ° 0 min 0,000 mm 0,0 UV-I 0 W/m² 1,9 °C 10,8 °C 3,2 km/h (1 Bft)
03.04.2018 02:21 10,5 °C 57 % 1006,3 hPa 0,0 mm 1,5 km/h (1 Bft) SO 126 ° 0 min 0,000 mm 0,0 UV-I 0 W/m² 2,3 °C 10,5 °C 3,2 km/h (1 Bft)
03.04.2018 02:22 10,4 °C 54 % 1006,3 hPa 0,0 mm 0,0 km/h (0 Bft) SO 126 ° 0 min 0,000 mm 0,0 UV-I 0 W/m² 1,5 °C 10,4 °C 0,0 km/h (0 Bft)
03.04.2018 02:23 10,3 °C 56 % 1006,3 hPa 0,0 mm 0,0 km/h (0 Bft) SO 126 ° 0 min 0,000 mm 0,0 UV-I 0 W/m² 1,9 °C 10,3 °C 0,0 km/h (0 Bft)
03.04.2018 02:24 10,3 °C 55 % 1006,4 hPa 0,0 mm 1,7 km/h (1 Bft) SW 215 ° 0 min 0,000 mm 0,0 UV-I 0 W/m² 1,7 °C 10,3 °C 4,8 km/h (1 Bft)
03.04.2018 02:25 10,3 °C 55 % 1006,4 hPa 0,0 mm 2,6 km/h (1 Bft) SW 215 ° 0 min 0,000 mm 0,0 UV-I 0 W/m² 1,7 °C 10,3 °C 4,8 km/h (1 Bft)
03.04.2018 02:26 10,2 °C 53 % 1006,3 hPa 0,0 mm 0,2 km/h (0 Bft) SW 215 ° 0 min 0,000 mm 0,0 UV-I 0 W/m² 1,1 °C 10,2 °C 1,6 km/h (1 Bft)
03.04.2018 02:27 10,3 °C 52 % 1006,3 hPa 0,0 mm 1,2 km/h (1 Bft) SW 215 ° 0 min 0,000 mm 0,0 UV-I 0 W/m² 0,9 °C 10,3 °C 3,2 km/h (1 Bft)
03.04.2018 02:28 10,4 °C 52 % 1006,3 hPa 0,0 mm 1,8 km/h (1 Bft) SW 215 ° 0 min 0,000 mm 0,0 UV-I 0 W/m² 1,0 °C 10,4 °C 3,2 km/h (1 Bft)
03.04.2018 02:29 10,6 °C 49 % 1006,2 hPa 0,0 mm 1,2 km/h (1 Bft) SW 215 ° 0 min 0,000 mm 0,0 UV-I 0 W/m² 0,3 °C 10,6 °C 3,2 km/h (1 Bft)
03.04.2018 02:30 10,6 °C 51 % 1006,2 hPa 0,0 mm 0,5 km/h (0 Bft) SW 215 ° 0 min 0,000 mm 0,0 UV-I 0 W/m² 0,9 °C 10,6 °C 1,6 km/h (1 Bft)
03.04.2018 02:31 10,4 °C 57 % 1006,2 hPa 0,0 mm 1,6 km/h (1 Bft) SW 215 ° 0 min 0,000 mm 0,0 UV-I 0 W/m² 2,3 °C 10,4 °C 3,2 km/h (1 Bft)
03.04.2018 02:32 10,6 °C 50 % 1006,2 hPa 0,0 mm 1,1 km/h (1 Bft) SW 215 ° 0 min 0,000 mm 0,0 UV-I 0 W/m² 0,6 °C 10,6 °C 3,2 km/h (1 Bft)
03.04.2018 02:33 10,4 °C 54 % 1006,3 hPa 0,0 mm 0,1 km/h (0 Bft) SW 215 ° 0 min 0,000 mm 0,0 UV-I 0 W/m² 1,5 °C 10,4 °C 1,6 km/h (1 Bft)
03.04.2018 02:34 10,3 °C 53 % 1006,3 hPa 0,0 mm 0,0 km/h (0 Bft) SW 215 ° 0 min 0,000 mm 0,0 UV-I 0 W/m² 1,1 °C 10,3 °C 0,0 km/h (0 Bft)
03.04.2018 02:35 10,4 °C 52 % 1006,3 hPa 0,0 mm 0,3 km/h (0 Bft) SW 215 ° 0 min 0,000 mm 0,0 UV-I 0 W/m² 1,0 °C 10,4 °C 1,6 km/h (1 Bft)
03.04.2018 02:36 10,3 °C 53 % 1006,3 hPa 0,0 mm 0,3 km/h (0 Bft) SW 215 ° 0 min 0,000 mm 0,0 UV-I 0 W/m² 1,1 °C 10,3 °C 1,6 km/h (1 Bft)
03.04.2018 02:37 10,3 °C 55 % 1006,3 hPa 0,0 mm 0,5 km/h (0 Bft) SW 215 ° 0 min 0,000 mm 0,0 UV-I 0 W/m² 1,7 °C 10,3 °C 3,2 km/h (1 Bft)
03.04.2018 02:38 10,2 °C 53 % 1006,3 hPa 0,0 mm 0,0 km/h (0 Bft) SW 215 ° 0 min 0,000 mm 0,0 UV-I 0 W/m² 1,1 °C 10,2 °C 0,0 km/h (0 Bft)
03.04.2018 02:39 10,3 °C 50 % 1006,3 hPa 0,0 mm 0,0 km/h (0 Bft) SW 215 ° 0 min 0,000 mm 0,0 UV-I 0 W/m² 0,3 °C 10,3 °C 0,0 km/h (0 Bft)
03.04.2018 02:40 10,3 °C 54 % 1006,3 hPa 0,0 mm 0,0 km/h (0 Bft) SW 215 ° 0 min 0,000 mm 0,0 UV-I 0 W/m² 1,4 °C 10,3 °C 0,0 km/h (0 Bft)
03.04.2018 02:41 10,4 °C 49 % 1006,2 hPa 0,0 mm 0,3 km/h (0 Bft) SW 215 ° 0 min 0,000 mm 0,0 UV-I 0 W/m² 0,2 °C 10,4 °C 1,6 km/h (1 Bft)
03.04.2018 02:42 10,6 °C 52 % 1006,3 hPa 0,0 mm 0,4 km/h (0 Bft) SW 215 ° 0 min 0,000 mm 0,0 UV-I 0 W/m² 1,2 °C 10,6 °C 1,6 km/h (1 Bft)
03.04.2018 02:43 10,5 °C 55 % 1006,3 hPa 0,0 mm 0,3 km/h (0 Bft) SW 215 ° 0 min 0,000 mm 0,0 UV-I 0 W/m² 1,8 °C 10,5 °C 1,6 km/h (1 Bft)
03.04.2018 02:44 10,3 °C 54 % 1006,2 hPa 0,0 mm 0,6 km/h (0 Bft) SW 215 ° 0 min 0,000 mm 0,0 UV-I 0 W/m² 1,4 °C 10,3 °C 3,2 km/h (1 Bft)
03.04.2018 02:45 10,3 °C 54 % 1006,2 hPa 0,0 mm 0,0 km/h (0 Bft) SW 215 ° 0 min 0,000 mm 0,0 UV-I 0 W/m² 1,4 °C 10,3 °C 0,0 km/h (0 Bft)
03.04.2018 02:46 10,2 °C 56 % 1006,2 hPa 0,0 mm 0,3 km/h (0 Bft) SW 215 ° 0 min 0,000 mm 0,0 UV-I 0 W/m² 1,8 °C 10,2 °C 3,2 km/h (1 Bft)
03.04.2018 02:47 10,1 °C 54 % 1006,2 hPa 0,0 mm 0,6 km/h (0 Bft) SW 215 ° 0 min 0,000 mm 0,0 UV-I 0 W/m² 1,2 °C 10,1 °C 3,2 km/h (1 Bft)
03.04.2018 02:48 10,2 °C 53 % 1006,1 hPa 0,0 mm 0,7 km/h (0 Bft) SW 215 ° 0 min 0,000 mm 0,0 UV-I 0 W/m² 1,1 °C 10,2 °C 3,2 km/h (1 Bft)
03.04.2018 02:49 10,2 °C 54 % 1006,1 hPa 0,0 mm 0,1 km/h (0 Bft) SW 215 ° 0 min 0,000 mm 0,0 UV-I 0 W/m² 1,3 °C 10,2 °C 1,6 km/h (1 Bft)
03.04.2018 02:50 10,2 °C 53 % 1006,1 hPa 0,0 mm 1,3 km/h (1 Bft) S-SW 202 ° 0 min 0,000 mm 0,0 UV-I 0 W/m² 1,1 °C 10,2 °C 3,2 km/h (1 Bft)
03.04.2018 02:51 10,2 °C 55 % 1006,1 hPa 0,0 mm 1,2 km/h (1 Bft) S-SW 193 ° 0 min 0,000 mm 0,0 UV-I 0 W/m² 1,6 °C 10,2 °C 3,2 km/h (1 Bft)
03.04.2018 02:52 10,3 °C 52 % 1006,2 hPa 0,0 mm 0,3 km/h (0 Bft) S-SW 193 ° 0 min 0,000 mm 0,0 UV-I 0 W/m² 0,9 °C 10,3 °C 1,6 km/h (1 Bft)
03.04.2018 02:53 10,3 °C 51 % 1006,1 hPa 0,0 mm 0,0 km/h (0 Bft) S-SW 193 ° 0 min 0,000 mm 0,0 UV-I 0 W/m² 0,6 °C 10,3 °C 0,0 km/h (0 Bft)
03.04.2018 02:54 10,4 °C 52 % 1006,1 hPa 0,0 mm 0,0 km/h (0 Bft) S-SW 193 ° 0 min 0,000 mm 0,0 UV-I 0 W/m² 1,0 °C 10,4 °C 0,0 km/h (0 Bft)
03.04.2018 02:55 10,4 °C 52 % 1006,1 hPa 0,0 mm 0,5 km/h (0 Bft) S-SW 193 ° 0 min 0,000 mm 0,0 UV-I 0 W/m² 1,0 °C 10,4 °C 3,2 km/h (1 Bft)
03.04.2018 02:56 10,5 °C 55 % 1006,1 hPa 0,0 mm 0,8 km/h (0 Bft) S-SW 193 ° 0 min 0,000 mm 0,0 UV-I 0 W/m² 1,8 °C 10,5 °C 3,2 km/h (1 Bft)
03.04.2018 02:57 10,4 °C 52 % 1006,1 hPa 0,0 mm 0,0 km/h (0 Bft) S-SW 193 ° 0 min 0,000 mm 0,0 UV-I 0 W/m² 1,0 °C 10,4 °C 0,0 km/h (0 Bft)
03.04.2018 02:58 10,4 °C 57 % 1006,1 hPa 0,0 mm 0,1 km/h (0 Bft) S-SW 193 ° 0 min 0,000 mm 0,0 UV-I 0 W/m² 2,3 °C 10,4 °C 1,6 km/h (1 Bft)
03.04.2018 02:59 10,4 °C 53 % 1006,1 hPa 0,0 mm 1,9 km/h (1 Bft) S 191 ° 0 min 0,000 mm 0,0 UV-I 0 W/m² 1,2 °C 10,4 °C 3,2 km/h (1 Bft)
03.04.2018 03:00 10,6 °C 51 % 1006,1 hPa 0,0 mm 1,4 km/h (1 Bft) S 190 ° 0 min 0,025 mm 0,0 UV-I 0 W/m² 0,9 °C 10,6 °C 3,2 km/h (1 Bft)
03.04.2018 03:01 10,7 °C 50 % 1006,1 hPa 0,0 mm 1,3 km/h (1 Bft) S 190 ° 0 min 0,000 mm 0,0 UV-I 0 W/m² 0,7 °C 10,7 °C 3,2 km/h (1 Bft)
03.04.2018 03:02 10,8 °C 49 % 1006,1 hPa 0,0 mm 0,1 km/h (0 Bft) S 190 ° 0 min 0,000 mm 0,0 UV-I 0 W/m² 0,5 °C 10,8 °C 1,6 km/h (1 Bft)
03.04.2018 03:03 10,9 °C 50 % 1006,0 hPa 0,0 mm 0,0 km/h (0 Bft) S 190 ° 0 min 0,000 mm 0,0 UV-I 0 W/m² 0,9 °C 10,9 °C 0,0 km/h (0 Bft)
03.04.2018 03:04 10,8 °C 52 % 1006,0 hPa 0,0 mm 0,5 km/h (0 Bft) S 190 ° 0 min 0,000 mm 0,0 UV-I 0 W/m² 1,3 °C 10,8 °C 3,2 km/h (1 Bft)
03.04.2018 03:05 10,7 °C 54 % 1006,0 hPa 0,0 mm 0,5 km/h (0 Bft) S 190 ° 0 min 0,000 mm 0,0 UV-I 0 W/m² 1,8 °C 10,7 °C 1,6 km/h (1 Bft)
03.04.2018 03:06 10,6 °C 53 % 1006,0 hPa 0,0 mm 0,8 km/h (0 Bft) S 190 ° 0 min 0,000 mm 0,0 UV-I 0 W/m² 1,4 °C 10,6 °C 3,2 km/h (1 Bft)
03.04.2018 03:07 10,5 °C 53 % 1006,0 hPa 0,0 mm 0,0 km/h (0 Bft) S 190 ° 0 min 0,000 mm 0,0 UV-I 0 W/m² 1,3 °C 10,5 °C 0,0 km/h (0 Bft)
03.04.2018 03:08 10,4 °C 54 % 1006,0 hPa 0,0 mm 0,0 km/h (0 Bft) S 190 ° 0 min 0,000 mm 0,0 UV-I 0 W/m² 1,5 °C 10,4 °C 0,0 km/h (0 Bft)
03.04.2018 03:09 10,4 °C 51 % 1006,0 hPa 0,0 mm 1,3 km/h (1 Bft) S 185 ° 0 min 0,000 mm 0,0 UV-I 0 W/m² 0,7 °C 10,4 °C 3,2 km/h (1 Bft)
03.04.2018 03:10 10,4 °C 53 % 1006,1 hPa 0,0 mm 2,1 km/h (1 Bft) S 185 ° 0 min 0,000 mm 0,0 UV-I 0 W/m² 1,2 °C 10,4 °C 3,2 km/h (1 Bft)
03.04.2018 03:11 10,6 °C 53 % 1006,0 hPa 0,0 mm 1,8 km/h (1 Bft) SW 223 ° 0 min 0,000 mm 0,0 UV-I 0 W/m² 1,4 °C 10,6 °C 4,8 km/h (1 Bft)
03.04.2018 03:12 10,7 °C 50 % 1006,0 hPa 0,0 mm 2,7 km/h (1 Bft) W 275 ° 0 min 0,000 mm 0,0 UV-I 0 W/m² 0,7 °C 10,7 °C 6,4 km/h (2 Bft)
03.04.2018 03:13 10,9 °C 47 % 1006,1 hPa 0,0 mm 3,1 km/h (1 Bft) W 275 ° 0 min 0,000 mm 0,0 UV-I 0 W/m² 0,0 °C 10,9 °C 6,4 km/h (2 Bft)
03.04.2018 03:14 11,2 °C 47 % 1006,1 hPa 0,0 mm 0,4 km/h (0 Bft) W 275 ° 0 min 0,000 mm 0,0 UV-I 0 W/m² 0,3 °C 11,2 °C 1,6 km/h (1 Bft)
03.04.2018 03:15 11,3 °C 48 % 1006,1 hPa 0,0 mm 0,2 km/h (0 Bft) W 275 ° 0 min 0,000 mm 0,0 UV-I 0 W/m² 0,7 °C 11,3 °C 1,6 km/h (1 Bft)
03.04.2018 03:16 11,3 °C 49 % 1006,1 hPa 0,0 mm 0,0 km/h (0 Bft) W 275 ° 0 min 0,000 mm 0,0 UV-I 0 W/m² 1,0 °C 11,3 °C 0,0 km/h (0 Bft)
03.04.2018 03:17 11,2 °C 51 % 1006,2 hPa 0,0 mm 0,0 km/h (0 Bft) W 275 ° 0 min 0,000 mm 0,0 UV-I 0 W/m² 1,4 °C 11,2 °C 0,0 km/h (0 Bft)
03.04.2018 03:18 11,2 °C 50 % 1006,2 hPa 0,0 mm 2,1 km/h (1 Bft) W 275 ° 0 min 0,000 mm 0,0 UV-I 0 W/m² 1,2 °C 11,2 °C 4,8 km/h (1 Bft)
03.04.2018 03:19 11,1 °C 51 % 1006,2 hPa 0,0 mm 1,5 km/h (1 Bft) W 275 ° 0 min 0,000 mm 0,0 UV-I 0 W/m² 1,4 °C 11,1 °C 3,2 km/h (1 Bft)
03.04.2018 03:20 11,0 °C 51 % 1006,2 hPa 0,0 mm 0,9 km/h (0 Bft) W 275 ° 0 min 0,000 mm 0,0 UV-I 0 W/m² 1,3 °C 11,0 °C 3,2 km/h (1 Bft)
03.04.2018 03:21 11,0 °C 49 % 1006,3 hPa 0,0 mm 0,9 km/h (0 Bft) W 275 ° 0 min 0,000 mm 0,0 UV-I 0 W/m² 0,7 °C 11,0 °C 3,2 km/h (1 Bft)
03.04.2018 03:22 11,0 °C 50 % 1006,3 hPa 0,0 mm 1,2 km/h (1 Bft) W 275 ° 0 min 0,000 mm 0,0 UV-I 0 W/m² 1,0 °C 11,0 °C 3,2 km/h (1 Bft)
03.04.2018 03:23 10,9 °C 52 % 1006,4 hPa 0,0 mm 1,0 km/h (0 Bft) W 275 ° 0 min 0,000 mm 0,0 UV-I 0 W/m² 1,4 °C 10,9 °C 3,2 km/h (1 Bft)
03.04.2018 03:24 10,8 °C 53 % 1006,4 hPa 0,0 mm 1,7 km/h (1 Bft) W 275 ° 0 min 0,000 mm 0,0 UV-I 0 W/m² 1,6 °C 10,8 °C 3,2 km/h (1 Bft)
03.04.2018 03:25 10,7 °C 50 % 1006,4 hPa 0,0 mm 2,2 km/h (1 Bft) W 275 ° 0 min 0,000 mm 0,0 UV-I 0 W/m² 0,7 °C 10,7 °C 3,2 km/h (1 Bft)
03.04.2018 03:26 10,8 °C 48 % 1006,4 hPa 0,0 mm 2,1 km/h (1 Bft) W 275 ° 0 min 0,000 mm 0,0 UV-I 0 W/m² 0,2 °C 10,8 °C 3,2 km/h (1 Bft)
03.04.2018 03:27 10,9 °C 50 % 1006,4 hPa 0,0 mm 7,0 km/h (2 Bft) SW 221 ° 0 min 0,000 mm 0,0 UV-I 0 W/m² 0,9 °C 10,9 °C 14,5 km/h (3 Bft)
03.04.2018 03:28 11,1 °C 48 % 1006,4 hPa 0,0 mm 6,6 km/h (2 Bft) S-SO 166 ° 0 min 0,000 mm 0,0 UV-I 0 W/m² 0,5 °C 11,1 °C 9,7 km/h (2 Bft)
03.04.2018 03:29 11,1 °C 49 % 1006,5 hPa 0,0 mm 2,5 km/h (1 Bft) S-SO 166 ° 0 min 0,000 mm 0,0 UV-I 0 W/m² 0,8 °C 11,1 °C 6,4 km/h (2 Bft)
03.04.2018 03:30 11,1 °C 48 % 1006,6 hPa 0,0 mm 2,1 km/h (1 Bft) SW 225 ° 0 min 0,000 mm 0,0 UV-I 0 W/m² 0,5 °C 11,1 °C 6,4 km/h (2 Bft)
03.04.2018 03:31 11,3 °C 47 % 1006,7 hPa 0,0 mm 3,5 km/h (1 Bft) W-SW 257 ° 0 min 0,000 mm 0,0 UV-I 0 W/m² 0,4 °C 11,3 °C 8,0 km/h (2 Bft)
03.04.2018 03:32 11,3 °C 47 % 1006,8 hPa 0,0 mm 5,8 km/h (2 Bft) W-NW 298 ° 0 min 0,000 mm 0,0 UV-I 0 W/m² 0,4 °C 11,3 °C 9,7 km/h (2 Bft)
03.04.2018 03:33 11,4 °C 47 % 1006,9 hPa 0,0 mm 8,2 km/h (2 Bft) W 263 ° 0 min 0,000 mm 0,0 UV-I 0 W/m² 0,5 °C 11,4 °C 11,3 km/h (2 Bft)
03.04.2018 03:34 11,5 °C 47 % 1007,3 hPa 0,0 mm 9,5 km/h (2 Bft) W 280 ° 0 min 0,000 mm 0,0 UV-I 0 W/m² 0,6 °C 11,5 °C 14,5 km/h (3 Bft)
03.04.2018 03:35 11,5 °C 48 % 1007,3 hPa 0,0 mm 8,2 km/h (2 Bft) NW 305 ° 0 min 0,000 mm 0,0 UV-I 0 W/m² 0,9 °C 11,5 °C 12,9 km/h (3 Bft)
03.04.2018 03:36 11,4 °C 50 % 1007,5 hPa 0,0 mm 9,3 km/h (2 Bft) W 261 ° 0 min 0,000 mm 0,0 UV-I 0 W/m² 1,4 °C 11,4 °C 12,9 km/h (3 Bft)
03.04.2018 03:37 11,3 °C 51 % 1007,5 hPa 0,0 mm 6,8 km/h (2 Bft) W 279 ° 0 min 0,000 mm 0,0 UV-I 0 W/m² 1,5 °C 11,3 °C 9,7 km/h (2 Bft)
03.04.2018 03:38 11,1 °C 51 % 1007,6 hPa 0,0 mm 4,6 km/h (1 Bft) NW 311 ° 0 min 0,000 mm 0,0 UV-I 0 W/m² 1,4 °C 11,1 °C 11,3 km/h (2 Bft)
03.04.2018 03:39 10,9 °C 51 % 1007,5 hPa 0,0 mm 1,6 km/h (1 Bft) NW 311 ° 0 min 0,000 mm 0,0 UV-I 0 W/m² 1,2 °C 10,9 °C 3,2 km/h (1 Bft)
03.04.2018 03:40 10,9 °C 51 % 1007,6 hPa 0,0 mm 0,9 km/h (0 Bft) W-NW 287 ° 0 min 0,000 mm 0,0 UV-I 0 W/m² 1,2 °C 10,9 °C 4,8 km/h (1 Bft)
03.04.2018 03:41 10,8 °C 51 % 1007,6 hPa 0,0 mm 2,4 km/h (1 Bft) W-SW 256 ° 0 min 0,000 mm 0,0 UV-I 0 W/m² 1,1 °C 10,8 °C 4,8 km/h (1 Bft)
03.04.2018 03:42 10,7 °C 52 % 1007,7 hPa 0,0 mm 3,8 km/h (1 Bft) W 261 ° 0 min 0,000 mm 0,0 UV-I 0 W/m² 1,3 °C 10,7 °C 6,4 km/h (2 Bft)
03.04.2018 03:43 10,6 °C 53 % 1007,7 hPa 0,0 mm 2,5 km/h (1 Bft) W-SW 252 ° 0 min 0,000 mm 0,0 UV-I 0 W/m² 1,4 °C 10,6 °C 3,2 km/h (1 Bft)
03.04.2018 03:44 10,5 °C 52 % 1007,7 hPa 0,0 mm 11,8 km/h (2 Bft) W 266 ° 0 min 0,000 mm 0,0 UV-I 0 W/m² 1,1 °C 10,5 °C 17,7 km/h (3 Bft)
03.04.2018 03:45 10,6 °C 51 % 1007,7 hPa 0,0 mm 10,9 km/h (2 Bft) W-SW 255 ° 0 min 0,000 mm 0,0 UV-I 0 W/m² 0,9 °C 10,6 °C 14,5 km/h (3 Bft)
03.04.2018 03:46 10,5 °C 52 % 1007,8 hPa 0,0 mm 13,7 km/h (3 Bft) W-NW 298 ° 0 min 0,000 mm 0,0 UV-I 0 W/m² 1,1 °C 10,5 °C 20,9 km/h (4 Bft)
03.04.2018 03:47 10,6 °C 52 % 1007,8 hPa 0,0 mm 11,7 km/h (2 Bft) W-NW 293 ° 0 min 0,000 mm 0,0 UV-I 0 W/m² 1,2 °C 10,6 °C 14,5 km/h (3 Bft)
03.04.2018 03:48 10,5 °C 53 % 1007,8 hPa 0,0 mm 9,8 km/h (2 Bft) W 273 ° 0 min 0,000 mm 0,0 UV-I 0 W/m² 1,3 °C 10,5 °C 14,5 km/h (3 Bft)
03.04.2018 03:49 10,5 °C 53 % 1007,9 hPa 0,0 mm 12,8 km/h (3 Bft) W-NW 299 ° 0 min 0,000 mm 0,0 UV-I 0 W/m² 1,3 °C 10,5 °C 20,9 km/h (4 Bft)
03.04.2018 03:50 10,4 °C 54 % 1007,8 hPa 0,0 mm 11,0 km/h (2 Bft) W 280 ° 0 min 0,000 mm 0,0 UV-I 0 W/m² 1,5 °C 10,4 °C 19,3 km/h (3 Bft)
03.04.2018 03:51 10,4 °C 54 % 1007,8 hPa 0,0 mm 3,5 km/h (1 Bft) W 279 ° 0 min 0,000 mm 0,0 UV-I 0 W/m² 1,5 °C 10,4 °C 6,4 km/h (2 Bft)
03.04.2018 03:52 10,3 °C 54 % 1007,9 hPa 0,0 mm 10,4 km/h (2 Bft) W 259 ° 0 min 0,000 mm 0,0 UV-I 0 W/m² 1,4 °C 10,3 °C 14,5 km/h (3 Bft)
03.04.2018 03:53 10,3 °C 55 % 1007,9 hPa 0,0 mm 8,3 km/h (2 Bft) W 276 ° 0 min 0,000 mm 0,0 UV-I 0 W/m² 1,7 °C 10,3 °C 12,9 km/h (3 Bft)
03.04.2018 03:54 10,2 °C 55 % 1007,9 hPa 0,0 mm 9,5 km/h (2 Bft) NW 317 ° 0 min 0,000 mm 0,0 UV-I 0 W/m² 1,6 °C 10,2 °C 12,9 km/h (3 Bft)
03.04.2018 03:55 10,2 °C 56 % 1007,9 hPa 0,0 mm 8,0 km/h (2 Bft) W-SW 258 ° 0 min 0,000 mm 0,0 UV-I 0 W/m² 1,8 °C 10,2 °C 12,9 km/h (3 Bft)
03.04.2018 03:56 10,1 °C 56 % 1007,9 hPa 0,0 mm 8,0 km/h (2 Bft) W 278 ° 0 min 0,000 mm 0,0 UV-I 0 W/m² 1,7 °C 10,1 °C 12,9 km/h (3 Bft)
03.04.2018 03:57 10,0 °C 57 % 1007,9 hPa 0,0 mm 6,1 km/h (2 Bft) W-SW 250 ° 0 min 0,000 mm 0,0 UV-I 0 W/m² 1,9 °C 9,4 °C 11,3 km/h (2 Bft)
03.04.2018 03:58 9,9 °C 56 % 1007,9 hPa 0,0 mm 7,8 km/h (2 Bft) W-SW 240 ° 0 min 0,000 mm 0,0 UV-I 0 W/m² 1,5 °C 8,9 °C 12,9 km/h (3 Bft)
03.04.2018 03:59 9,9 °C 57 % 1007,9 hPa 0,0 mm 10,4 km/h (2 Bft) W-NW 282 ° 0 min 0,000 mm 0,0 UV-I 0 W/m² 1,8 °C 8,4 °C 14,5 km/h (3 Bft)
03.04.2018 04:00 9,8 °C 57 % 1008,0 hPa 0,0 mm 15,7 km/h (3 Bft) W-NW 284 ° 0 min 0,000 mm 0,0 UV-I 0 W/m² 1,7 °C 7,6 °C 24,1 km/h (4 Bft)
03.04.2018 04:01 9,8 °C 57 % 1007,9 hPa 0,0 mm 10,3 km/h (2 Bft) W 278 ° 0 min 0,051 mm 0,0 UV-I 0 W/m² 1,7 °C 8,3 °C 17,7 km/h (3 Bft)
03.04.2018 04:02 9,8 °C 58 % 1007,9 hPa 0,0 mm 10,9 km/h (2 Bft) W-SW 252 ° 0 min 0,000 mm 0,0 UV-I 0 W/m² 1,9 °C 8,2 °C 14,5 km/h (3 Bft)
03.04.2018 04:03 9,7 °C 58 % 1008,0 hPa 0,0 mm 8,2 km/h (2 Bft) W-SW 251 ° 0 min 0,000 mm 0,0 UV-I 0 W/m² 1,8 °C 8,6 °C 14,5 km/h (3 Bft)
03.04.2018 04:04 9,7 °C 58 % 1008,0 hPa 0,0 mm 7,2 km/h (2 Bft) W 259 ° 0 min 0,000 mm 0,0 UV-I 0 W/m² 1,8 °C 8,8 °C 11,3 km/h (2 Bft)
03.04.2018 04:05 9,6 °C 59 % 1008,0 hPa 0,0 mm 7,0 km/h (2 Bft) W 265 ° 0 min 0,000 mm 0,0 UV-I 0 W/m² 2,0 °C 8,8 °C 11,3 km/h (2 Bft)
03.04.2018 04:06 9,6 °C 59 % 1008,0 hPa 0,0 mm 9,1 km/h (2 Bft) W-SW 248 ° 0 min 0,000 mm 0,0 UV-I 0 W/m² 2,0 °C 8,3 °C 12,9 km/h (3 Bft)
03.04.2018 04:07 9,6 °C 58 % 1008,0 hPa 0,0 mm 12,2 km/h (2 Bft) N 360 ° 0 min 0,000 mm 0,0 UV-I 0 W/m² 1,8 °C 7,8 °C 16,1 km/h (3 Bft)
03.04.2018 04:08 9,5 °C 59 % 1008,0 hPa 0,0 mm 13,4 km/h (3 Bft) W 280 ° 0 min 0,000 mm 0,0 UV-I 0 W/m² 1,9 °C 7,5 °C 24,1 km/h (4 Bft)
03.04.2018 04:09 9,5 °C 59 % 1008,1 hPa 0,0 mm 13,2 km/h (3 Bft) W 275 ° 0 min 0,000 mm 0,0 UV-I 0 W/m² 1,9 °C 7,5 °C 24,1 km/h (4 Bft)
03.04.2018 04:10 9,5 °C 59 % 1008,1 hPa 0,0 mm 12,8 km/h (3 Bft) W 277 ° 0 min 0,000 mm 0,0 UV-I 0 W/m² 1,9 °C 7,6 °C 19,3 km/h (3 Bft)
03.04.2018 04:11 9,5 °C 59 % 1008,0 hPa 0,0 mm 7,6 km/h (2 Bft) W-SW 253 ° 0 min 0,000 mm 0,0 UV-I 0 W/m² 1,9 °C 8,5 °C 11,3 km/h (2 Bft)
03.04.2018 04:12 9,5 °C 59 % 1008,0 hPa 0,0 mm 11,1 km/h (2 Bft) W-SW 250 ° 0 min 0,000 mm 0,0 UV-I 0 W/m² 1,9 °C 7,8 °C 17,7 km/h (3 Bft)
03.04.2018 04:13 9,5 °C 59 % 1008,0 hPa 0,0 mm 11,8 km/h (2 Bft) W 262 ° 0 min 0,000 mm 0,0 UV-I 0 W/m² 1,9 °C 7,7 °C 16,1 km/h (3 Bft)
03.04.2018 04:14 9,5 °C 60 % 1008,0 hPa 0,0 mm 9,4 km/h (2 Bft) W 279 ° 0 min 0,000 mm 0,0 UV-I 0 W/m² 2,1 °C 8,1 °C 14,5 km/h (3 Bft)
03.04.2018 04:15 9,4 °C 59 % 1008,0 hPa 0,0 mm 9,2 km/h (2 Bft) W 259 ° 0 min 0,000 mm 0,0 UV-I 0 W/m² 1,8 °C 8,1 °C 12,9 km/h (3 Bft)
03.04.2018 04:16 9,4 °C 59 % 1008,0 hPa 0,0 mm 7,0 km/h (2 Bft) W-NW 283 ° 0 min 0,000 mm 0,0 UV-I 0 W/m² 1,8 °C 8,5 °C 17,7 km/h (3 Bft)
03.04.2018 04:17 9,4 °C 60 % 1008,0 hPa 0,0 mm 9,0 km/h (2 Bft) W-SW 243 ° 0 min 0,000 mm 0,0 UV-I 0 W/m² 2,0 °C 8,1 °C 14,5 km/h (3 Bft)
03.04.2018 04:18 9,4 °C 60 % 1008,0 hPa 0,0 mm 6,9 km/h (2 Bft) W 259 ° 0 min 0,000 mm 0,0 UV-I 0 W/m² 2,0 °C 8,6 °C 11,3 km/h (2 Bft)
03.04.2018 04:19 9,4 °C 60 % 1008,0 hPa 0,0 mm 4,0 km/h (1 Bft) W-SW 245 ° 0 min 0,000 mm 0,0 UV-I 0 W/m² 2,0 °C 9,4 °C 6,4 km/h (2 Bft)
03.04.2018 04:20 9,3 °C 60 % 1007,9 hPa 0,0 mm 5,6 km/h (1 Bft) W 265 ° 0 min 0,000 mm 0,0 UV-I 0 W/m² 1,9 °C 8,8 °C 12,9 km/h (3 Bft)
03.04.2018 04:21 9,3 °C 59 % 1008,0 hPa 0,0 mm 6,0 km/h (2 Bft) SW 230 ° 0 min 0,000 mm 0,0 UV-I 0 W/m² 1,7 °C 8,7 °C 11,3 km/h (2 Bft)
03.04.2018 04:22 9,3 °C 60 % 1008,0 hPa 0,0 mm 3,2 km/h (1 Bft) W-SW 247 ° 0 min 0,000 mm 0,0 UV-I 0 W/m² 1,9 °C 9,3 °C 6,4 km/h (2 Bft)
03.04.2018 04:23 9,3 °C 59 % 1008,0 hPa 0,0 mm 3,2 km/h (1 Bft) W-SW 243 ° 0 min 0,000 mm 0,0 UV-I 0 W/m² 1,7 °C 9,3 °C 6,4 km/h (2 Bft)
03.04.2018 04:24 9,3 °C 59 % 1008,0 hPa 0,0 mm 4,4 km/h (1 Bft) W-SW 242 ° 0 min 0,000 mm 0,0 UV-I 0 W/m² 1,7 °C 9,3 °C 9,7 km/h (2 Bft)
03.04.2018 04:25 9,4 °C 59 % 1008,0 hPa 0,0 mm 5,3 km/h (1 Bft) W 259 ° 0 min 0,000 mm 0,0 UV-I 0 W/m² 1,8 °C 9,0 °C 12,9 km/h (3 Bft)
03.04.2018 04:26 9,4 °C 60 % 1008,0 hPa 0,0 mm 8,4 km/h (2 Bft) W 259 ° 0 min 0,000 mm 0,0 UV-I 0 W/m² 2,0 °C 8,2 °C 14,5 km/h (3 Bft)
03.04.2018 04:27 9,4 °C 60 % 1007,9 hPa 0,0 mm 5,4 km/h (1 Bft) W-SW 257 ° 0 min 0,000 mm 0,0 UV-I 0 W/m² 2,0 °C 9,0 °C 8,0 km/h (2 Bft)
03.04.2018 04:28 9,4 °C 59 % 1007,9 hPa 0,0 mm 7,0 km/h (2 Bft) S-SW 200 ° 0 min 0,000 mm 0,0 UV-I 0 W/m² 1,8 °C 8,5 °C 11,3 km/h (2 Bft)
03.04.2018 04:29 9,4 °C 59 % 1008,0 hPa 0,0 mm 4,8 km/h (1 Bft) W-SW 250 ° 0 min 0,000 mm 0,0 UV-I 0 W/m² 1,8 °C 9,1 °C 9,7 km/h (2 Bft)
03.04.2018 04:30 9,4 °C 59 % 1008,0 hPa 0,0 mm 4,3 km/h (1 Bft) S-SW 206 ° 0 min 0,000 mm 0,0 UV-I 0 W/m² 1,8 °C 9,4 °C 6,4 km/h (2 Bft)
03.04.2018 04:31 9,4 °C 60 % 1007,9 hPa 0,0 mm 3,5 km/h (1 Bft) S 186 ° 0 min 0,000 mm 0,0 UV-I 0 W/m² 2,0 °C 9,4 °C 4,8 km/h (1 Bft)
03.04.2018 04:32 9,4 °C 59 % 1007,9 hPa 0,0 mm 3,9 km/h (1 Bft) S-SW 196 ° 0 min 0,000 mm 0,0 UV-I 0 W/m² 1,8 °C 9,4 °C 6,4 km/h (2 Bft)
03.04.2018 04:33 9,6 °C 58 % 1007,8 hPa 0,0 mm 3,0 km/h (1 Bft) W-SW 238 ° 0 min 0,000 mm 0,0 UV-I 0 W/m² 1,8 °C 9,6 °C 6,4 km/h (2 Bft)
03.04.2018 04:34 9,6 °C 59 % 1007,8 hPa 0,0 mm 3,6 km/h (1 Bft) W 277 ° 0 min 0,000 mm 0,0 UV-I 0 W/m² 2,0 °C 9,6 °C 9,7 km/h (2 Bft)
03.04.2018 04:35 9,4 °C 60 % 1007,8 hPa 0,0 mm 1,3 km/h (1 Bft) W-SW 257 ° 0 min 0,000 mm 0,0 UV-I 0 W/m² 2,0 °C 9,4 °C 3,2 km/h (1 Bft)
03.04.2018 04:36 9,4 °C 61 % 1007,8 hPa 0,0 mm 1,5 km/h (1 Bft) W-SW 257 ° 0 min 0,000 mm 0,0 UV-I 0 W/m² 2,3 °C 9,4 °C 3,2 km/h (1 Bft)
03.04.2018 04:37 9,3 °C 60 % 1007,8 hPa 0,0 mm 1,3 km/h (1 Bft) W-SW 257 ° 0 min 0,000 mm 0,0 UV-I 0 W/m² 1,9 °C 9,3 °C 3,2 km/h (1 Bft)
03.04.2018 04:38 9,3 °C 61 % 1007,9 hPa 0,0 mm 2,5 km/h (1 Bft) S-SW 210 ° 0 min 0,000 mm 0,0 UV-I 0 W/m² 2,2 °C 9,3 °C 6,4 km/h (2 Bft)
03.04.2018 04:39 9,3 °C 60 % 1007,8 hPa 0,0 mm 3,8 km/h (1 Bft) S-SW 194 ° 0 min 0,000 mm 0,0 UV-I 0 W/m² 1,9 °C 9,3 °C 8,0 km/h (2 Bft)
03.04.2018 04:40 9,3 °C 59 % 1007,8 hPa 0,0 mm 4,3 km/h (1 Bft) S-SW 203 ° 0 min 0,000 mm 0,0 UV-I 0 W/m² 1,7 °C 9,3 °C 8,0 km/h (2 Bft)
03.04.2018 04:41 9,4 °C 60 % 1007,7 hPa 0,0 mm 3,0 km/h (1 Bft) W-SW 239 ° 0 min 0,000 mm 0,0 UV-I 0 W/m² 2,0 °C 9,4 °C 6,4 km/h (2 Bft)
03.04.2018 04:42 9,3 °C 60 % 1007,7 hPa 0,0 mm 3,5 km/h (1 Bft) S-SW 205 ° 0 min 0,000 mm 0,0 UV-I 0 W/m² 1,9 °C 9,3 °C 6,4 km/h (2 Bft)
03.04.2018 04:43 9,4 °C 59 % 1007,8 hPa 0,0 mm 2,7 km/h (1 Bft) SW 222 ° 0 min 0,000 mm 0,0 UV-I 0 W/m² 1,8 °C 9,4 °C 4,8 km/h (1 Bft)
03.04.2018 04:44 9,4 °C 59 % 1007,8 hPa 0,0 mm 3,1 km/h (1 Bft) SW 221 ° 0 min 0,000 mm 0,0 UV-I 0 W/m² 1,8 °C 9,4 °C 4,8 km/h (1 Bft)
03.04.2018 04:45 9,4 °C 59 % 1007,9 hPa 0,0 mm 5,2 km/h (1 Bft) S-SW 205 ° 0 min 0,000 mm 0,0 UV-I 0 W/m² 1,8 °C 9,0 °C 8,0 km/h (2 Bft)
03.04.2018 04:46 9,4 °C 60 % 1007,8 hPa 0,0 mm 2,2 km/h (1 Bft) S-SW 205 ° 0 min 0,000 mm 0,0 UV-I 0 W/m² 2,0 °C 9,4 °C 4,8 km/h (1 Bft)
03.04.2018 04:47 9,4 °C 59 % 1007,9 hPa 0,0 mm 4,1 km/h (1 Bft) W-SW 237 ° 0 min 0,000 mm 0,0 UV-I 0 W/m² 1,8 °C 9,4 °C 6,4 km/h (2 Bft)
03.04.2018 04:48 9,4 °C 60 % 1007,9 hPa 0,0 mm 1,7 km/h (1 Bft) W-SW 237 ° 0 min 0,000 mm 0,0 UV-I 0 W/m² 2,0 °C 9,4 °C 3,2 km/h (1 Bft)
03.04.2018 04:49 9,3 °C 62 % 1007,9 hPa 0,0 mm 0,8 km/h (0 Bft) SW 234 ° 0 min 0,000 mm 0,0 UV-I 0 W/m² 2,4 °C 9,3 °C 3,2 km/h (1 Bft)
03.04.2018 04:50 9,2 °C 61 % 1007,9 hPa 0,0 mm 0,3 km/h (0 Bft) SW 234 ° 0 min 0,000 mm 0,0 UV-I 0 W/m² 2,1 °C 9,2 °C 1,6 km/h (1 Bft)
03.04.2018 04:51 9,1 °C 63 % 1007,9 hPa 0,0 mm 0,0 km/h (0 Bft) SW 234 ° 0 min 0,000 mm 0,0 UV-I 0 W/m² 2,4 °C 9,1 °C 0,0 km/h (0 Bft)
03.04.2018 04:52 9,0 °C 62 % 1007,9 hPa 0,0 mm 0,0 km/h (0 Bft) SW 234 ° 0 min 0,000 mm 0,0 UV-I 0 W/m² 2,1 °C 9,0 °C 0,0 km/h (0 Bft)
03.04.2018 04:53 8,9 °C 63 % 1007,9 hPa 0,0 mm 0,3 km/h (0 Bft) SW 234 ° 0 min 0,000 mm 0,0 UV-I 0 W/m² 2,2 °C 8,9 °C 1,6 km/h (1 Bft)
03.04.2018 04:54 8,9 °C 62 % 1007,9 hPa 0,0 mm 0,0 km/h (0 Bft) SW 234 ° 0 min 0,000 mm 0,0 UV-I 0 W/m² 2,0 °C 8,9 °C 0,0 km/h (0 Bft)
03.04.2018 04:55 8,9 °C 62 % 1007,9 hPa 0,0 mm 0,0 km/h (0 Bft) SW 234 ° 0 min 0,000 mm 0,0 UV-I 0 W/m² 2,0 °C 8,9 °C 0,0 km/h (0 Bft)
03.04.2018 04:56 8,9 °C 62 % 1008,0 hPa 0,0 mm 0,0 km/h (0 Bft) SW 234 ° 0 min 0,000 mm 0,0 UV-I 0 W/m² 2,0 °C 8,9 °C 0,0 km/h (0 Bft)
03.04.2018 04:57 8,8 °C 63 % 1008,0 hPa 0,0 mm 0,0 km/h (0 Bft) SW 234 ° 0 min 0,000 mm 0,0 UV-I 0 W/m² 2,2 °C 8,8 °C 0,0 km/h (0 Bft)
03.04.2018 04:58 8,7 °C 62 % 1008,0 hPa 0,0 mm 0,0 km/h (0 Bft) SW 234 ° 0 min 0,000 mm 0,0 UV-I 0 W/m² 1,8 °C 8,7 °C 0,0 km/h (0 Bft)
03.04.2018 04:59 8,7 °C 63 % 1008,0 hPa 0,0 mm 0,0 km/h (0 Bft) SW 234 ° 0 min 0,000 mm 0,0 UV-I 0 W/m² 2,1 °C 8,7 °C 0,0 km/h (0 Bft)
03.04.2018 05:00 8,6 °C 65 % 1008,0 hPa 0,0 mm 0,0 km/h (0 Bft) SW 234 ° 0 min 0,051 mm 0,0 UV-I 0 W/m² 2,4 °C 8,6 °C 0,0 km/h (0 Bft)
03.04.2018 05:01 8,6 °C 65 % 1008,0 hPa 0,0 mm 0,0 km/h (0 Bft) SW 234 ° 0 min 0,000 mm 0,0 UV-I 0 W/m² 2,4 °C 8,6 °C 0,0 km/h (0 Bft)
03.04.2018 05:02 8,5 °C 64 % 1008,0 hPa 0,0 mm 0,0 km/h (0 Bft) SW 234 ° 0 min 0,000 mm 0,0 UV-I 0 W/m² 2,1 °C 8,5 °C 0,0 km/h (0 Bft)
03.04.2018 05:03 8,5 °C 63 % 1008,0 hPa 0,0 mm 0,0 km/h (0 Bft) SW 234 ° 0 min 0,000 mm 0,0 UV-I 0 W/m² 1,9 °C 8,5 °C 0,0 km/h (0 Bft)
03.04.2018 05:04 8,6 °C 62 % 1008,0 hPa 0,0 mm 0,0 km/h (0 Bft) SW 234 ° 0 min 0,000 mm 0,0 UV-I 0 W/m² 1,7 °C 8,6 °C 0,0 km/h (0 Bft)
03.04.2018 05:05 8,7 °C 62 % 1008,0 hPa 0,0 mm 0,0 km/h (0 Bft) SW 234 ° 0 min 0,000 mm 0,0 UV-I 0 W/m² 1,8 °C 8,7 °C 0,0 km/h (0 Bft)
03.04.2018 05:06 8,8 °C 62 % 1008,0 hPa 0,0 mm 1,5 km/h (1 Bft) SW 234 ° 0 min 0,000 mm 0,0 UV-I 0 W/m² 1,9 °C 8,8 °C 3,2 km/h (1 Bft)
03.04.2018 05:07 8,8 °C 63 % 1008,0 hPa 0,0 mm 2,0 km/h (1 Bft) SW 234 ° 0 min 0,000 mm 0,0 UV-I 0 W/m² 2,2 °C 8,8 °C 3,2 km/h (1 Bft)
03.04.2018 05:08 8,8 °C 63 % 1008,0 hPa 0,0 mm 2,1 km/h (1 Bft) SW 234 ° 0 min 0,000 mm 0,0 UV-I 0 W/m² 2,2 °C 8,8 °C 3,2 km/h (1 Bft)
03.04.2018 05:09 8,8 °C 63 % 1008,0 hPa 0,0 mm 2,6 km/h (1 Bft) SW 234 ° 0 min 0,000 mm 0,0 UV-I 0 W/m² 2,2 °C 8,8 °C 4,8 km/h (1 Bft)
03.04.2018 05:10 8,8 °C 63 % 1008,0 hPa 0,0 mm 2,3 km/h (1 Bft) SW 234 ° 0 min 0,000 mm 0,0 UV-I 0 W/m² 2,2 °C 8,8 °C 4,8 km/h (1 Bft)
03.04.2018 05:11 8,8 °C 63 % 1008,0 hPa 0,0 mm 4,0 km/h (1 Bft) SW 227 ° 0 min 0,000 mm 0,0 UV-I 0 W/m² 2,2 °C 8,8 °C 4,8 km/h (1 Bft)
03.04.2018 05:12 8,8 °C 62 % 1008,0 hPa 0,0 mm 4,5 km/h (1 Bft) W 260 ° 0 min 0,000 mm 0,0 UV-I 0 W/m² 1,9 °C 8,8 °C 6,4 km/h (2 Bft)
03.04.2018 05:13 8,8 °C 63 % 1008,0 hPa 0,0 mm 5,1 km/h (1 Bft) SW 223 ° 0 min 0,000 mm 0,0 UV-I 0 W/m² 2,2 °C 8,4 °C 6,4 km/h (2 Bft)
03.04.2018 05:14 8,8 °C 62 % 1008,0 hPa 0,0 mm 5,3 km/h (1 Bft) S-SW 209 ° 0 min 0,000 mm 0,0 UV-I 0 W/m² 1,9 °C 8,3 °C 6,4 km/h (2 Bft)
03.04.2018 05:15 8,9 °C 61 % 1008,0 hPa 0,0 mm 4,2 km/h (1 Bft) SW 221 ° 0 min 0,000 mm 0,0 UV-I 0 W/m² 1,8 °C 8,9 °C 6,4 km/h (2 Bft)
03.04.2018 05:16 8,9 °C 60 % 1008,0 hPa 0,0 mm 2,1 km/h (1 Bft) SW 221 ° 0 min 0,000 mm 0,0 UV-I 0 W/m² 1,6 °C 8,9 °C 4,8 km/h (1 Bft)
03.04.2018 05:17 9,1 °C 61 % 1007,9 hPa 0,0 mm 4,2 km/h (1 Bft) W-SW 257 ° 0 min 0,000 mm 0,0 UV-I 0 W/m² 2,0 °C 9,1 °C 8,0 km/h (2 Bft)
03.04.2018 05:18 9,1 °C 61 % 1008,0 hPa 0,0 mm 1,7 km/h (1 Bft) W-SW 256 ° 0 min 0,000 mm 0,0 UV-I 0 W/m² 2,0 °C 9,1 °C 4,8 km/h (1 Bft)
03.04.2018 05:19 9,1 °C 61 % 1008,0 hPa 0,0 mm 3,7 km/h (1 Bft) W-SW 256 ° 0 min 0,000 mm 0,0 UV-I 0 W/m² 2,0 °C 9,1 °C 4,8 km/h (1 Bft)
03.04.2018 05:20 9,1 °C 61 % 1008,0 hPa 0,0 mm 4,6 km/h (1 Bft) SW 227 ° 0 min 0,000 mm 0,0 UV-I 0 W/m² 2,0 °C 8,9 °C 6,4 km/h (2 Bft)
03.04.2018 05:21 9,1 °C 61 % 1008,0 hPa 0,0 mm 4,1 km/h (1 Bft) SW 227 ° 0 min 0,000 mm 0,0 UV-I 0 W/m² 2,0 °C 9,1 °C 6,4 km/h (2 Bft)
03.04.2018 05:22 9,1 °C 61 % 1008,0 hPa 0,0 mm 4,6 km/h (1 Bft) SW 217 ° 0 min 0,000 mm 0,0 UV-I 0 W/m² 2,0 °C 8,9 °C 6,4 km/h (2 Bft)
03.04.2018 05:23 9,1 °C 62 % 1007,9 hPa 0,0 mm 2,4 km/h (1 Bft) SW 217 ° 0 min 0,000 mm 0,0 UV-I 0 W/m² 2,2 °C 9,1 °C 4,8 km/h (1 Bft)
03.04.2018 05:24 9,1 °C 62 % 1008,0 hPa 0,0 mm 2,5 km/h (1 Bft) SW 217 ° 0 min 0,000 mm 0,0 UV-I 0 W/m² 2,2 °C 9,1 °C 3,2 km/h (1 Bft)
03.04.2018 05:25 9,1 °C 61 % 1007,9 hPa 0,0 mm 0,9 km/h (0 Bft) SW 217 ° 0 min 0,000 mm 0,0 UV-I 0 W/m² 2,0 °C 9,1 °C 1,6 km/h (1 Bft)
03.04.2018 05:26 9,1 °C 61 % 1007,9 hPa 0,0 mm 0,5 km/h (0 Bft) SW 217 ° 0 min 0,000 mm 0,0 UV-I 0 W/m² 2,0 °C 9,1 °C 1,6 km/h (1 Bft)
03.04.2018 05:27 9,1 °C 62 % 1007,9 hPa 0,0 mm 1,7 km/h (1 Bft) SW 217 ° 0 min 0,000 mm 0,0 UV-I 0 W/m² 2,2 °C 9,1 °C 3,2 km/h (1 Bft)
03.04.2018 05:28 9,1 °C 63 % 1007,9 hPa 0,0 mm 2,6 km/h (1 Bft) SW 216 ° 0 min 0,000 mm 0,0 UV-I 0 W/m² 2,4 °C 9,1 °C 6,4 km/h (2 Bft)
03.04.2018 05:29 9,0 °C 62 % 1007,9 hPa 0,0 mm 5,2 km/h (1 Bft) S-SW 203 ° 0 min 0,000 mm 0,0 UV-I 0 W/m² 2,1 °C 8,6 °C 8,0 km/h (2 Bft)
03.04.2018 05:30 8,9 °C 62 % 1007,9 hPa 0,0 mm 4,6 km/h (1 Bft) S-SW 199 ° 0 min 0,000 mm 0,0 UV-I 0 W/m² 2,0 °C 8,6 °C 6,4 km/h (2 Bft)
03.04.2018 05:31 8,9 °C 63 % 1007,9 hPa 0,0 mm 3,2 km/h (1 Bft) S-SW 199 ° 0 min 0,000 mm 0,0 UV-I 0 W/m² 2,2 °C 8,9 °C 3,2 km/h (1 Bft)
03.04.2018 05:32 8,8 °C 63 % 1007,9 hPa 0,0 mm 2,5 km/h (1 Bft) S-SW 199 ° 0 min 0,000 mm 0,0 UV-I 0 W/m² 2,2 °C 8,8 °C 3,2 km/h (1 Bft)
03.04.2018 05:33 8,8 °C 62 % 1007,9 hPa 0,0 mm 4,0 km/h (1 Bft) S 180 ° 0 min 0,000 mm 0,0 UV-I 0 W/m² 1,9 °C 8,8 °C 4,8 km/h (1 Bft)
03.04.2018 05:34 8,9 °C 62 % 1007,9 hPa 0,0 mm 3,7 km/h (1 Bft) S 180 ° 0 min 0,000 mm 0,0 UV-I 0 W/m² 2,0 °C 8,9 °C 4,8 km/h (1 Bft)
03.04.2018 05:35 8,8 °C 64 % 1007,9 hPa 0,0 mm 3,2 km/h (1 Bft) S 180 ° 0 min 0,000 mm 0,0 UV-I 0 W/m² 2,4 °C 8,8 °C 4,8 km/h (1 Bft)
03.04.2018 05:36 8,8 °C 64 % 1007,8 hPa 0,0 mm 2,3 km/h (1 Bft) S 180 ° 0 min 0,000 mm 0,0 UV-I 0 W/m² 2,4 °C 8,8 °C 3,2 km/h (1 Bft)
03.04.2018 05:37 8,7 °C 64 % 1007,8 hPa 0,0 mm 1,7 km/h (1 Bft) S 180 ° 0 min 0,000 mm 0,0 UV-I 0 W/m² 2,3 °C 8,7 °C 3,2 km/h (1 Bft)
03.04.2018 05:38 8,7 °C 63 % 1007,8 hPa 0,0 mm 0,7 km/h (0 Bft) S 180 ° 0 min 0,000 mm 0,0 UV-I 0 W/m² 2,1 °C 8,7 °C 1,6 km/h (1 Bft)
03.04.2018 05:39 8,7 °C 64 % 1007,8 hPa 0,0 mm 0,0 km/h (0 Bft) S 180 ° 0 min 0,000 mm 0,0 UV-I 0 W/m² 2,3 °C 8,7 °C 0,0 km/h (0 Bft)
03.04.2018 05:40 8,6 °C 65 % 1007,8 hPa 0,0 mm 0,0 km/h (0 Bft) S 180 ° 0 min 0,000 mm 0,0 UV-I 0 W/m² 2,4 °C 8,6 °C 0,0 km/h (0 Bft)
03.04.2018 05:41 8,6 °C 63 % 1007,8 hPa 0,0 mm 0,8 km/h (0 Bft) S 180 ° 0 min 0,000 mm 0,0 UV-I 0 W/m² 2,0 °C 8,6 °C 1,6 km/h (1 Bft)
03.04.2018 05:42 8,6 °C 64 % 1007,9 hPa 0,0 mm 0,8 km/h (0 Bft) S 180 ° 0 min 0,000 mm 0,0 UV-I 0 W/m² 2,2 °C 8,6 °C 1,6 km/h (1 Bft)
03.04.2018 05:43 8,6 °C 64 % 1007,9 hPa 0,0 mm 0,4 km/h (0 Bft) S 180 ° 0 min 0,000 mm 0,0 UV-I 0 W/m² 2,2 °C 8,6 °C 1,6 km/h (1 Bft)
03.04.2018 05:44 8,6 °C 63 % 1007,8 hPa 0,0 mm 0,0 km/h (0 Bft) S 180 ° 0 min 0,000 mm 0,0 UV-I 0 W/m² 2,0 °C 8,6 °C 0,0 km/h (0 Bft)
03.04.2018 05:45 8,6 °C 64 % 1007,9 hPa 0,0 mm 0,0 km/h (0 Bft) S 180 ° 0 min 0,000 mm 0,0 UV-I 0 W/m² 2,2 °C 8,6 °C 0,0 km/h (0 Bft)
03.04.2018 05:46 8,5 °C 66 % 1007,9 hPa 0,0 mm 0,0 km/h (0 Bft) S 180 ° 0 min 0,000 mm 0,0 UV-I 0 W/m² 2,5 °C 8,5 °C 0,0 km/h (0 Bft)
03.04.2018 05:47 8,3 °C 67 % 1007,9 hPa 0,0 mm 0,0 km/h (0 Bft) S 180 ° 0 min 0,000 mm 0,0 UV-I 0 W/m² 2,5 °C 8,3 °C 0,0 km/h (0 Bft)
03.04.2018 05:48 8,1 °C 67 % 1007,8 hPa 0,0 mm 0,0 km/h (0 Bft) S 180 ° 0 min 0,000 mm 0,0 UV-I 0 W/m² 2,3 °C 8,1 °C 0,0 km/h (0 Bft)
03.04.2018 05:49 8,1 °C 68 % 1007,9 hPa 0,0 mm 0,0 km/h (0 Bft) S 180 ° 0 min 0,000 mm 0,0 UV-I 0 W/m² 2,6 °C 8,1 °C 0,0 km/h (0 Bft)
03.04.2018 05:50 7,9 °C 68 % 1007,9 hPa 0,0 mm 0,0 km/h (0 Bft) S 180 ° 0 min 0,000 mm 0,0 UV-I 0 W/m² 2,4 °C 7,9 °C 0,0 km/h (0 Bft)
03.04.2018 05:51 7,8 °C 68 % 1007,9 hPa 0,0 mm 0,0 km/h (0 Bft) S 180 ° 0 min 0,000 mm 0,0 UV-I 0 W/m² 2,3 °C 7,8 °C 0,0 km/h (0 Bft)
03.04.2018 05:52 7,8 °C 68 % 1007,9 hPa 0,0 mm 0,0 km/h (0 Bft) S 180 ° 0 min 0,000 mm 0,0 UV-I 0 W/m² 2,3 °C 7,8 °C 0,0 km/h (0 Bft)
03.04.2018 05:53 7,8 °C 68 % 1007,8 hPa 0,0 mm 0,0 km/h (0 Bft) S 180 ° 0 min 0,000 mm 0,0 UV-I 0 W/m² 2,3 °C 7,8 °C 0,0 km/h (0 Bft)
03.04.2018 05:54 7,8 °C 68 % 1007,8 hPa 0,0 mm 0,0 km/h (0 Bft) S 180 ° 0 min 0,000 mm 0,0 UV-I 0 W/m² 2,3 °C 7,8 °C 0,0 km/h (0 Bft)
03.04.2018 05:55 7,7 °C 69 % 1007,8 hPa 0,0 mm 0,0 km/h (0 Bft) S 180 ° 0 min 0,000 mm 0,0 UV-I 0 W/m² 2,4 °C 7,7 °C 0,0 km/h (0 Bft)
03.04.2018 05:56 7,6 °C 70 % 1007,8 hPa 0,0 mm 0,0 km/h (0 Bft) S 180 ° 0 min 0,000 mm 0,0 UV-I 0 W/m² 2,5 °C 7,6 °C 0,0 km/h (0 Bft)
03.04.2018 05:57 7,6 °C 70 % 1007,8 hPa 0,0 mm 0,0 km/h (0 Bft) S 180 ° 0 min 0,000 mm 0,0 UV-I 0 W/m² 2,5 °C 7,6 °C 0,0 km/h (0 Bft)
03.04.2018 05:58 7,6 °C 69 % 1007,8 hPa 0,0 mm 0,0 km/h (0 Bft) S 180 ° 0 min 0,000 mm 0,0 UV-I 0 W/m² 2,3 °C 7,6 °C 0,0 km/h (0 Bft)
03.04.2018 05:59 7,6 °C 69 % 1007,8 hPa 0,0 mm 0,0 km/h (0 Bft) S 180 ° 0 min 0,000 mm 0,0 UV-I 0 W/m² 2,3 °C 7,6 °C 0,0 km/h (0 Bft)
03.04.2018 06:00 7,7 °C 69 % 1007,8 hPa 0,0 mm 0,0 km/h (0 Bft) S 180 ° 0 min 0,025 mm 0,0 UV-I 0 W/m² 2,4 °C 7,7 °C 0,0 km/h (0 Bft)
03.04.2018 06:01 7,8 °C 68 % 1007,7 hPa 0,0 mm 0,0 km/h (0 Bft) S 180 ° 0 min 0,000 mm 0,0 UV-I 0 W/m² 2,3 °C 7,8 °C 0,0 km/h (0 Bft)
03.04.2018 06:02 7,9 °C 68 % 1007,8 hPa 0,0 mm 0,0 km/h (0 Bft) S 180 ° 0 min 0,000 mm 0,0 UV-I 0 W/m² 2,4 °C 7,9 °C 0,0 km/h (0 Bft)
03.04.2018 06:03 7,9 °C 69 % 1007,7 hPa 0,0 mm 0,0 km/h (0 Bft) S 180 ° 0 min 0,000 mm 0,0 UV-I 0 W/m² 2,6 °C 7,9 °C 0,0 km/h (0 Bft)
03.04.2018 06:04 7,8 °C 69 % 1007,8 hPa 0,0 mm 0,0 km/h (0 Bft) S 180 ° 0 min 0,000 mm 0,0 UV-I 0 W/m² 2,5 °C 7,8 °C 0,0 km/h (0 Bft)
03.04.2018 06:05 7,7 °C 70 % 1007,7 hPa 0,0 mm 0,0 km/h (0 Bft) S 180 ° 0 min 0,000 mm 0,0 UV-I 0 W/m² 2,6 °C 7,7 °C 0,0 km/h (0 Bft)
03.04.2018 06:06 7,4 °C 71 % 1007,7 hPa 0,0 mm 0,0 km/h (0 Bft) S 180 ° 0 min 0,000 mm 0,0 UV-I 0 W/m² 2,5 °C 7,4 °C 0,0 km/h (0 Bft)
03.04.2018 06:07 7,3 °C 71 % 1007,7 hPa 0,0 mm 0,0 km/h (0 Bft) S 180 ° 0 min 0,000 mm 0,0 UV-I 0 W/m² 2,4 °C 7,3 °C 0,0 km/h (0 Bft)
03.04.2018 06:08 7,4 °C 70 % 1007,8 hPa 0,0 mm 0,0 km/h (0 Bft) S 180 ° 0 min 0,000 mm 0,0 UV-I 0 W/m² 2,3 °C 7,4 °C 0,0 km/h (0 Bft)
03.04.2018 06:09 7,3 °C 71 % 1007,8 hPa 0,0 mm 0,0 km/h (0 Bft) S 180 ° 0 min 0,000 mm 0,0 UV-I 0 W/m² 2,4 °C 7,3 °C 0,0 km/h (0 Bft)
03.04.2018 06:10 7,3 °C 70 % 1007,8 hPa 0,0 mm 0,0 km/h (0 Bft) S 180 ° 0 min 0,000 mm 0,0 UV-I 0 W/m² 2,2 °C 7,3 °C 0,0 km/h (0 Bft)
03.04.2018 06:11 7,4 °C 70 % 1007,8 hPa 0,0 mm 0,0 km/h (0 Bft) S 180 ° 0 min 0,000 mm 0,0 UV-I 0 W/m² 2,3 °C 7,4 °C 0,0 km/h (0 Bft)
03.04.2018 06:12 7,5 °C 69 % 1007,8 hPa 0,0 mm 0,0 km/h (0 Bft) S 180 ° 0 min 0,000 mm 0,0 UV-I 0 W/m² 2,2 °C 7,5 °C 0,0 km/h (0 Bft)
03.04.2018 06:13 7,6 °C 69 % 1007,7 hPa 0,0 mm 0,0 km/h (0 Bft) S 180 ° 0 min 0,000 mm 0,0 UV-I 0 W/m² 2,3 °C 7,6 °C 0,0 km/h (0 Bft)
03.04.2018 06:14 7,7 °C 68 % 1007,8 hPa 0,0 mm 0,0 km/h (0 Bft) S 180 ° 0 min 0,000 mm 0,0 UV-I 0 W/m² 2,2 °C 7,7 °C 0,0 km/h (0 Bft)
03.04.2018 06:15 7,6 °C 70 % 1007,7 hPa 0,0 mm 0,0 km/h (0 Bft) S 180 ° 0 min 0,000 mm 0,0 UV-I 0 W/m² 2,5 °C 7,6 °C 0,0 km/h (0 Bft)
03.04.2018 06:16 7,4 °C 71 % 1007,7 hPa 0,0 mm 0,0 km/h (0 Bft) S 180 ° 0 min 0,000 mm 0,0 UV-I 0 W/m² 2,5 °C 7,4 °C 0,0 km/h (0 Bft)
03.04.2018 06:17 7,2 °C 72 % 1007,7 hPa 0,0 mm 0,0 km/h (0 Bft) S 180 ° 0 min 0,000 mm 0,0 UV-I 0 W/m² 2,5 °C 7,2 °C 0,0 km/h (0 Bft)
03.04.2018 06:18 7,0 °C 72 % 1007,7 hPa 0,0 mm 0,0 km/h (0 Bft) S 180 ° 0 min 0,000 mm 0,0 UV-I 0 W/m² 2,3 °C 7,0 °C 0,0 km/h (0 Bft)
03.04.2018 06:19 6,8 °C 73 % 1007,7 hPa 0,0 mm 0,0 km/h (0 Bft) S 180 ° 0 min 0,000 mm 0,0 UV-I 0 W/m² 2,3 °C 6,8 °C 0,0 km/h (0 Bft)
03.04.2018 06:20 6,8 °C 72 % 1007,7 hPa 0,0 mm 0,0 km/h (0 Bft) S 180 ° 0 min 0,000 mm 0,0 UV-I 0 W/m² 2,1 °C 6,8 °C 0,0 km/h (0 Bft)
03.04.2018 06:21 6,8 °C 72 % 1007,6 hPa 0,0 mm 0,0 km/h (0 Bft) S 180 ° 0 min 0,000 mm 0,0 UV-I 0 W/m² 2,1 °C 6,8 °C 0,0 km/h (0 Bft)
03.04.2018 06:22 6,9 °C 72 % 1007,6 hPa 0,0 mm 0,0 km/h (0 Bft) S 180 ° 0 min 0,000 mm 0,0 UV-I 0 W/m² 2,2 °C 6,9 °C 0,0 km/h (0 Bft)
03.04.2018 06:23 6,8 °C 73 % 1007,6 hPa 0,0 mm 0,0 km/h (0 Bft) S 180 ° 0 min 0,000 mm 0,0 UV-I 0 W/m² 2,3 °C 6,8 °C 0,0 km/h (0 Bft)
03.04.2018 06:24 6,6 °C 74 % 1007,6 hPa 0,0 mm 0,0 km/h (0 Bft) S 180 ° 0 min 0,000 mm 0,0 UV-I 0 W/m² 2,3 °C 6,6 °C 0,0 km/h (0 Bft)
03.04.2018 06:25 6,5 °C 75 % 1007,6 hPa 0,0 mm 0,0 km/h (0 Bft) S 180 ° 0 min 0,000 mm 0,0 UV-I 0 W/m² 2,4 °C 6,5 °C 0,0 km/h (0 Bft)
03.04.2018 06:26 6,4 °C 75 % 1007,6 hPa 0,0 mm 0,0 km/h (0 Bft) S 180 ° 0 min 0,000 mm 0,0 UV-I 0 W/m² 2,3 °C 6,4 °C 0,0 km/h (0 Bft)
03.04.2018 06:27 6,4 °C 74 % 1007,5 hPa 0,0 mm 0,0 km/h (0 Bft) S 180 ° 0 min 0,000 mm 0,0 UV-I 0 W/m² 2,1 °C 6,4 °C 0,0 km/h (0 Bft)
03.04.2018 06:28 6,4 °C 74 % 1007,5 hPa 0,0 mm 0,0 km/h (0 Bft) S 180 ° 0 min 0,000 mm 0,0 UV-I 0 W/m² 2,1 °C 6,4 °C 0,0 km/h (0 Bft)
03.04.2018 06:29 6,6 °C 73 % 1007,5 hPa 0,0 mm 0,0 km/h (0 Bft) S 180 ° 0 min 0,000 mm 0,0 UV-I 0 W/m² 2,1 °C 6,6 °C 0,0 km/h (0 Bft)
03.04.2018 06:30 6,8 °C 71 % 1007,5 hPa 0,0 mm 0,0 km/h (0 Bft) S 180 ° 0 min 0,000 mm 0,0 UV-I 0 W/m² 1,9 °C 6,8 °C 0,0 km/h (0 Bft)
03.04.2018 06:31 7,1 °C 70 % 1007,5 hPa 0,0 mm 0,0 km/h (0 Bft) S 180 ° 0 min 0,000 mm 0,0 UV-I 0 W/m² 2,0 °C 7,1 °C 0,0 km/h (0 Bft)
03.04.2018 06:32 7,3 °C 69 % 1007,4 hPa 0,0 mm 0,0 km/h (0 Bft) S 180 ° 0 min 0,000 mm 0,0 UV-I 0 W/m² 2,0 °C 7,3 °C 0,0 km/h (0 Bft)
03.04.2018 06:33 7,4 °C 68 % 1007,4 hPa 0,0 mm 0,0 km/h (0 Bft) S 180 ° 0 min 0,000 mm 0,0 UV-I 0 W/m² 1,9 °C 7,4 °C 0,0 km/h (0 Bft)
03.04.2018 06:34 7,6 °C 67 % 1007,4 hPa 0,0 mm 0,3 km/h (0 Bft) S 180 ° 0 min 0,000 mm 0,0 UV-I 0 W/m² 1,9 °C 7,6 °C 1,6 km/h (1 Bft)
03.04.2018 06:35 7,7 °C 67 % 1007,3 hPa 0,0 mm 0,3 km/h (0 Bft) S 180 ° 0 min 0,000 mm 0,0 UV-I 0 W/m² 2,0 °C 7,7 °C 1,6 km/h (1 Bft)
03.04.2018 06:36 7,7 °C 66 % 1007,3 hPa 0,0 mm 0,0 km/h (0 Bft) S 180 ° 0 min 0,000 mm 0,0 UV-I 0 W/m² 1,8 °C 7,7 °C 0,0 km/h (0 Bft)
03.04.2018 06:37 7,7 °C 66 % 1007,2 hPa 0,0 mm 0,0 km/h (0 Bft) S 180 ° 0 min 0,000 mm 0,0 UV-I 0 W/m² 1,8 °C 7,7 °C 0,0 km/h (0 Bft)
03.04.2018 06:38 7,7 °C 66 % 1007,2 hPa 0,0 mm 0,0 km/h (0 Bft) S 180 ° 0 min 0,000 mm 0,0 UV-I 0 W/m² 1,8 °C 7,7 °C 0,0 km/h (0 Bft)
03.04.2018 06:39 7,6 °C 67 % 1007,2 hPa 0,0 mm 0,0 km/h (0 Bft) S 180 ° 0 min 0,000 mm 0,0 UV-I 0 W/m² 1,9 °C 7,6 °C 0,0 km/h (0 Bft)
03.04.2018 06:40 7,3 °C 68 % 1007,2 hPa 0,0 mm 0,0 km/h (0 Bft) S 180 ° 0 min 0,000 mm 0,0 UV-I 0 W/m² 1,8 °C 7,3 °C 0,0 km/h (0 Bft)
03.04.2018 06:41 6,8 °C 70 % 1007,2 hPa 0,0 mm 0,0 km/h (0 Bft) S 180 ° 0 min 0,000 mm 0,0 UV-I 0 W/m² 1,7 °C 6,8 °C 0,0 km/h (0 Bft)
03.04.2018 06:42 6,4 °C 71 % 1007,2 hPa 0,0 mm 0,0 km/h (0 Bft) S 180 ° 0 min 0,000 mm 0,0 UV-I 0 W/m² 1,5 °C 6,4 °C 0,0 km/h (0 Bft)
03.04.2018 06:43 6,0 °C 73 % 1007,2 hPa 0,0 mm 0,0 km/h (0 Bft) S 180 ° 0 min 0,000 mm 0,0 UV-I 0 W/m² 1,5 °C 6,0 °C 0,0 km/h (0 Bft)
03.04.2018 06:44 5,7 °C 75 % 1007,2 hPa 0,0 mm 0,0 km/h (0 Bft) S 180 ° 0 min 0,000 mm 0,0 UV-I 0 W/m² 1,6 °C 5,7 °C 0,0 km/h (0 Bft)
03.04.2018 06:45 5,4 °C 76 % 1007,2 hPa 0,0 mm 0,0 km/h (0 Bft) S 180 ° 0 min 0,000 mm 0,0 UV-I 0 W/m² 1,5 °C 5,4 °C 0,0 km/h (0 Bft)
03.04.2018 06:46 5,3 °C 77 % 1007,2 hPa 0,0 mm 0,0 km/h (0 Bft) S 180 ° 0 min 0,000 mm 0,0 UV-I 0 W/m² 1,6 °C 5,3 °C 0,0 km/h (0 Bft)
03.04.2018 06:47 5,2 °C 78 % 1007,2 hPa 0,0 mm 0,0 km/h (0 Bft) S 180 ° 0 min 0,000 mm 0,0 UV-I 0 W/m² 1,7 °C 5,2 °C 0,0 km/h (0 Bft)
03.04.2018 06:48 5,2 °C 79 % 1007,2 hPa 0,0 mm 0,0 km/h (0 Bft) S 180 ° 0 min 0,000 mm 0,0 UV-I 0 W/m² 1,9 °C 5,2 °C 0,0 km/h (0 Bft)
03.04.2018 06:49 5,2 °C 79 % 1007,2 hPa 0,0 mm 0,0 km/h (0 Bft) S 180 ° 0 min 0,000 mm 0,0 UV-I 0 W/m² 1,9 °C 5,2 °C 0,0 km/h (0 Bft)
03.04.2018 06:50 5,2 °C 79 % 1007,2 hPa 0,0 mm 0,0 km/h (0 Bft) S 180 ° 0 min 0,000 mm 0,0 UV-I 0 W/m² 1,9 °C 5,2 °C 0,0 km/h (0 Bft)
03.04.2018 06:51 5,3 °C 79 % 1007,2 hPa 0,0 mm 0,0 km/h (0 Bft) S 180 ° 0 min 0,000 mm 0,0 UV-I 0 W/m² 2,0 °C 5,3 °C 0,0 km/h (0 Bft)
03.04.2018 06:52 5,4 °C 78 % 1007,2 hPa 0,0 mm 1,5 km/h (1 Bft) S 180 ° 0 min 0,000 mm 0,0 UV-I 0 W/m² 1,9 °C 5,4 °C 3,2 km/h (1 Bft)
03.04.2018 06:53 5,5 °C 77 % 1007,1 hPa 0,0 mm 2,1 km/h (1 Bft) S 180 ° 0 min 0,000 mm 0,0 UV-I 0 W/m² 1,8 °C 5,5 °C 4,8 km/h (1 Bft)
03.04.2018 06:54 5,6 °C 77 % 1007,1 hPa 0,0 mm 1,3 km/h (1 Bft) S 180 ° 0 min 0,000 mm 0,0 UV-I 0 W/m² 1,9 °C 5,6 °C 3,2 km/h (1 Bft)
03.04.2018 06:55 5,6 °C 76 % 1007,1 hPa 0,0 mm 0,3 km/h (0 Bft) S 180 ° 0 min 0,000 mm 0,0 UV-I 0 W/m² 1,7 °C 5,6 °C 1,6 km/h (1 Bft)
03.04.2018 06:56 5,4 °C 76 % 1007,0 hPa 0,0 mm 0,7 km/h (0 Bft) S 180 ° 0 min 0,000 mm 0,0 UV-I 5 W/m² 1,5 °C 5,4 °C 1,6 km/h (1 Bft)
03.04.2018 06:57 5,3 °C 77 % 1007,0 hPa 0,0 mm 1,2 km/h (1 Bft) S 180 ° 0 min 0,000 mm 0,0 UV-I 5 W/m² 1,6 °C 5,3 °C 1,6 km/h (1 Bft)
03.04.2018 06:58 5,0 °C 77 % 1007,1 hPa 0,0 mm 0,1 km/h (0 Bft) S 180 ° 0 min 0,000 mm 0,0 UV-I 7 W/m² 1,3 °C 5,0 °C 1,6 km/h (1 Bft)
03.04.2018 06:59 4,9 °C 77 % 1007,0 hPa 0,0 mm 0,0 km/h (0 Bft) S 180 ° 0 min 0,000 mm 0,0 UV-I 7 W/m² 1,2 °C 4,9 °C 0,0 km/h (0 Bft)
03.04.2018 07:00 5,0 °C 77 % 1007,1 hPa 0,0 mm 1,1 km/h (1 Bft) S 180 ° 0 min 0,000 mm 0,0 UV-I 7 W/m² 1,3 °C 5,0 °C 3,2 km/h (1 Bft)
03.04.2018 07:01 5,1 °C 78 % 1007,0 hPa 0,0 mm 0,2 km/h (0 Bft) S 180 ° 0 min 0,000 mm 0,0 UV-I 9 W/m² 1,6 °C 5,1 °C 1,6 km/h (1 Bft)
03.04.2018 07:02 5,1 °C 77 % 1007,0 hPa 0,0 mm 0,1 km/h (0 Bft) S 180 ° 0 min 0,000 mm 0,0 UV-I 9 W/m² 1,4 °C 5,1 °C 1,6 km/h (1 Bft)
03.04.2018 07:03 5,3 °C 76 % 1006,9 hPa 0,0 mm 0,5 km/h (0 Bft) S 180 ° 0 min 0,000 mm 0,0 UV-I 11 W/m² 1,4 °C 5,3 °C 1,6 km/h (1 Bft)
03.04.2018 07:04 5,3 °C 76 % 1006,9 hPa 0,0 mm 0,0 km/h (0 Bft) S 180 ° 0 min 0,000 mm 0,0 UV-I 11 W/m² 1,4 °C 5,3 °C 0,0 km/h (0 Bft)
03.04.2018 07:05 5,4 °C 75 % 1006,9 hPa 0,0 mm 0,0 km/h (0 Bft) S 180 ° 0 min 0,000 mm 0,0 UV-I 12 W/m² 1,3 °C 5,4 °C 0,0 km/h (0 Bft)
03.04.2018 07:06 5,4 °C 74 % 1006,9 hPa 0,0 mm 0,0 km/h (0 Bft) S 180 ° 0 min 0,000 mm 0,0 UV-I 12 W/m² 1,1 °C 5,4 °C 0,0 km/h (0 Bft)
03.04.2018 07:07 5,6 °C 73 % 1006,9 hPa 0,0 mm 0,0 km/h (0 Bft) S 180 ° 0 min 0,000 mm 0,0 UV-I 14 W/m² 1,2 °C 5,6 °C 0,0 km/h (0 Bft)
03.04.2018 07:08 5,7 °C 73 % 1006,8 hPa 0,0 mm 0,0 km/h (0 Bft) S 180 ° 0 min 0,000 mm 0,0 UV-I 14 W/m² 1,2 °C 5,7 °C 0,0 km/h (0 Bft)
03.04.2018 07:09 5,7 °C 72 % 1006,8 hPa 0,0 mm 0,0 km/h (0 Bft) S 180 ° 0 min 0,000 mm 0,0 UV-I 16 W/m² 1,1 °C 5,7 °C 0,0 km/h (0 Bft)
03.04.2018 07:10 5,7 °C 73 % 1006,8 hPa 0,0 mm 0,0 km/h (0 Bft) S 180 ° 0 min 0,000 mm 0,0 UV-I 18 W/m² 1,2 °C 5,7 °C 0,0 km/h (0 Bft)
03.04.2018 07:11 5,7 °C 73 % 1006,8 hPa 0,0 mm 0,0 km/h (0 Bft) S 180 ° 0 min 0,000 mm 0,0 UV-I 19 W/m² 1,2 °C 5,7 °C 0,0 km/h (0 Bft)
03.04.2018 07:12 5,7 °C 73 % 1006,8 hPa 0,0 mm 0,0 km/h (0 Bft) S 180 ° 0 min 0,000 mm 0,0 UV-I 19 W/m² 1,2 °C 5,7 °C 0,0 km/h (0 Bft)
03.04.2018 07:13 5,6 °C 74 % 1006,8 hPa 0,0 mm 0,0 km/h (0 Bft) S 180 ° 0 min 0,000 mm 0,0 UV-I 21 W/m² 1,3 °C 5,6 °C 0,0 km/h (0 Bft)
03.04.2018 07:14 5,4 °C 74 % 1006,8 hPa 0,0 mm 0,0 km/h (0 Bft) S 180 ° 0 min 0,000 mm 0,0 UV-I 21 W/m² 1,1 °C 5,4 °C 0,0 km/h (0 Bft)
03.04.2018 07:15 5,3 °C 74 % 1006,8 hPa 0,0 mm 0,0 km/h (0 Bft) S 180 ° 0 min 0,000 mm 0,0 UV-I 23 W/m² 1,0 °C 5,3 °C 0,0 km/h (0 Bft)
03.04.2018 07:16 5,2 °C 75 % 1006,8 hPa 0,0 mm 0,0 km/h (0 Bft) S 180 ° 0 min 0,000 mm 0,0 UV-I 25 W/m² 1,1 °C 5,2 °C 0,0 km/h (0 Bft)
03.04.2018 07:17 5,0 °C 76 % 1006,8 hPa 0,0 mm 0,0 km/h (0 Bft) S 180 ° 0 min 0,000 mm 0,0 UV-I 25 W/m² 1,1 °C 5,0 °C 0,0 km/h (0 Bft)
03.04.2018 07:18 4,9 °C 77 % 1006,7 hPa 0,0 mm 0,0 km/h (0 Bft) S 180 ° 0 min 0,000 mm 0,0 UV-I 26 W/m² 1,2 °C 4,9 °C 0,0 km/h (0 Bft)
03.04.2018 07:19 4,9 °C 77 % 1006,7 hPa 0,0 mm 0,0 km/h (0 Bft) S 180 ° 0 min 0,000 mm 0,0 UV-I 26 W/m² 1,2 °C 4,9 °C 0,0 km/h (0 Bft)
03.04.2018 07:20 5,0 °C 77 % 1006,8 hPa 0,0 mm 0,0 km/h (0 Bft) S 180 ° 0 min 0,000 mm 0,0 UV-I 28 W/m² 1,3 °C 5,0 °C 0,0 km/h (0 Bft)
03.04.2018 07:21 5,1 °C 77 % 1006,8 hPa 0,0 mm 0,0 km/h (0 Bft) S 180 ° 0 min 0,000 mm 0,0 UV-I 30 W/m² 1,4 °C 5,1 °C 0,0 km/h (0 Bft)
03.04.2018 07:22 5,1 °C 76 % 1006,7 hPa 0,0 mm 0,0 km/h (0 Bft) S 180 ° 0 min 0,000 mm 0,0 UV-I 30 W/m² 1,2 °C 5,1 °C 0,0 km/h (0 Bft)
03.04.2018 07:23 5,0 °C 77 % 1006,7 hPa 0,0 mm 0,0 km/h (0 Bft) S 180 ° 0 min 0,000 mm 0,0 UV-I 32 W/m² 1,3 °C 5,0 °C 0,0 km/h (0 Bft)
03.04.2018 07:24 5,0 °C 77 % 1006,7 hPa 0,0 mm 0,0 km/h (0 Bft) S 180 ° 0 min 0,000 mm 0,0 UV-I 32 W/m² 1,3 °C 5,0 °C 0,0 km/h (0 Bft)
03.04.2018 07:25 4,9 °C 77 % 1006,7 hPa 0,0 mm 0,0 km/h (0 Bft) S 180 ° 0 min 0,000 mm 0,0 UV-I 33 W/m² 1,2 °C 4,9 °C 0,0 km/h (0 Bft)
03.04.2018 07:26 4,9 °C 77 % 1006,7 hPa 0,0 mm 0,0 km/h (0 Bft) S 180 ° 0 min 0,000 mm 0,0 UV-I 33 W/m² 1,2 °C 4,9 °C 0,0 km/h (0 Bft)
03.04.2018 07:27 4,8 °C 77 % 1006,7 hPa 0,0 mm 0,0 km/h (0 Bft) S 180 ° 0 min 0,000 mm 0,0 UV-I 35 W/m² 1,1 °C 4,8 °C 0,0 km/h (0 Bft)
03.04.2018 07:28 4,8 °C 77 % 1006,7 hPa 0,0 mm 0,0 km/h (0 Bft) S 180 ° 0 min 0,000 mm 0,0 UV-I 35 W/m² 1,1 °C 4,8 °C 0,0 km/h (0 Bft)
03.04.2018 07:29 4,8 °C 78 % 1006,7 hPa 0,0 mm 0,0 km/h (0 Bft) S 180 ° 0 min 0,000 mm 0,0 UV-I 37 W/m² 1,3 °C 4,8 °C 0,0 km/h (0 Bft)
03.04.2018 07:30 4,7 °C 78 % 1006,6 hPa 0,0 mm 0,0 km/h (0 Bft) S 180 ° 0 min 0,000 mm 0,0 UV-I 37 W/m² 1,2 °C 4,7 °C 0,0 km/h (0 Bft)
03.04.2018 07:31 4,7 °C 78 % 1006,6 hPa 0,0 mm 0,0 km/h (0 Bft) S 180 ° 0 min 0,000 mm 0,0 UV-I 37 W/m² 1,2 °C 4,7 °C 0,0 km/h (0 Bft)
03.04.2018 07:32 4,7 °C 78 % 1006,7 hPa 0,0 mm 0,0 km/h (0 Bft) S 180 ° 0 min 0,000 mm 0,0 UV-I 39 W/m² 1,2 °C 4,7 °C 0,0 km/h (0 Bft)
03.04.2018 07:33 4,8 °C 79 % 1006,7 hPa 0,0 mm 1,2 km/h (1 Bft) S 180 ° 0 min 0,000 mm 0,0 UV-I 39 W/m² 1,5 °C 4,8 °C 4,8 km/h (1 Bft)
03.04.2018 07:34 5,0 °C 78 % 1006,6 hPa 0,0 mm 0,1 km/h (0 Bft) SW 214 ° 0 min 0,000 mm 0,0 UV-I 39 W/m² 1,5 °C 5,0 °C 1,6 km/h (1 Bft)
03.04.2018 07:35 5,2 °C 77 % 1006,6 hPa 0,0 mm 0,0 km/h (0 Bft) S 175 ° 0 min 0,000 mm 0,0 UV-I 40 W/m² 1,5 °C 5,2 °C 0,0 km/h (0 Bft)
03.04.2018 07:36 5,4 °C 75 % 1006,6 hPa 0,0 mm 0,0 km/h (0 Bft) S 175 ° 0 min 0,000 mm 0,0 UV-I 40 W/m² 1,3 °C 5,4 °C 0,0 km/h (0 Bft)
03.04.2018 07:37 5,8 °C 73 % 1006,6 hPa 0,0 mm 0,0 km/h (0 Bft) S 175 ° 0 min 0,000 mm 0,0 UV-I 40 W/m² 1,3 °C 5,8 °C 0,0 km/h (0 Bft)
03.04.2018 07:38 6,1 °C 72 % 1006,6 hPa 0,0 mm 0,0 km/h (0 Bft) SW 227 ° 0 min 0,000 mm 0,0 UV-I 40 W/m² 1,4 °C 6,1 °C 0,0 km/h (0 Bft)
03.04.2018 07:39 6,2 °C 73 % 1006,6 hPa 0,0 mm 0,9 km/h (0 Bft) W-NW 294 ° 0 min 0,000 mm 0,0 UV-I 42 W/m² 1,7 °C 6,2 °C 6,4 km/h (2 Bft)
03.04.2018 07:40 6,3 °C 72 % 1006,5 hPa 0,0 mm 4,2 km/h (1 Bft) W-NW 299 ° 0 min 0,000 mm 0,0 UV-I 42 W/m² 1,6 °C 6,3 °C 6,4 km/h (2 Bft)
03.04.2018 07:41 6,3 °C 73 % 1006,6 hPa 0,0 mm 1,2 km/h (1 Bft) NW 305 ° 0 min 0,000 mm 0,0 UV-I 44 W/m² 1,8 °C 6,3 °C 8,0 km/h (2 Bft)
03.04.2018 07:42 6,3 °C 72 % 1006,6 hPa 0,0 mm 0,0 km/h (0 Bft) NW 305 ° 0 min 0,000 mm 0,0 UV-I 44 W/m² 1,6 °C 6,3 °C 0,0 km/h (0 Bft)
03.04.2018 07:43 6,3 °C 72 % 1006,6 hPa 0,0 mm 1,7 km/h (1 Bft) NW 306 ° 0 min 0,000 mm 0,0 UV-I 46 W/m² 1,6 °C 6,3 °C 4,8 km/h (1 Bft)
03.04.2018 07:44 6,4 °C 71 % 1006,6 hPa 0,0 mm 0,0 km/h (0 Bft) NW 306 ° 0 min 0,000 mm 0,0 UV-I 47 W/m² 1,5 °C 6,4 °C 0,0 km/h (0 Bft)
03.04.2018 07:45 6,5 °C 71 % 1006,6 hPa 0,0 mm 0,7 km/h (0 Bft) NW 306 ° 0 min 0,000 mm 0,0 UV-I 49 W/m² 1,6 °C 6,5 °C 3,2 km/h (1 Bft)
03.04.2018 07:46 6,5 °C 72 % 1006,6 hPa 0,0 mm 0,1 km/h (0 Bft) NW 306 ° 0 min 0,000 mm 0,0 UV-I 51 W/m² 1,8 °C 6,5 °C 1,6 km/h (1 Bft)
03.04.2018 07:47 6,4 °C 72 % 1006,6 hPa 0,0 mm 0,0 km/h (0 Bft) NW 306 ° 0 min 0,000 mm 0,0 UV-I 53 W/m² 1,7 °C 6,4 °C 0,0 km/h (0 Bft)
03.04.2018 07:48 6,3 °C 72 % 1006,6 hPa 0,0 mm 0,0 km/h (0 Bft) NW 306 ° 0 min 0,000 mm 0,0 UV-I 53 W/m² 1,6 °C 6,3 °C 0,0 km/h (0 Bft)
03.04.2018 07:49 6,2 °C 73 % 1006,5 hPa 0,0 mm 0,0 km/h (0 Bft) NW 306 ° 0 min 0,000 mm 0,0 UV-I 54 W/m² 1,7 °C 6,2 °C 0,0 km/h (0 Bft)
03.04.2018 07:50 6,1 °C 74 % 1006,5 hPa 0,0 mm 0,0 km/h (0 Bft) NW 306 ° 0 min 0,000 mm 0,0 UV-I 58 W/m² 1,8 °C 6,1 °C 0,0 km/h (0 Bft)
03.04.2018 07:51 6,0 °C 74 % 1006,5 hPa 0,0 mm 0,0 km/h (0 Bft) NW 306 ° 0 min 0,000 mm 0,0 UV-I 60 W/m² 1,7 °C 6,0 °C 0,0 km/h (0 Bft)
03.04.2018 07:52 6,0 °C 74 % 1006,5 hPa 0,0 mm 0,0 km/h (0 Bft) NW 306 ° 0 min 0,000 mm 0,0 UV-I 62 W/m² 1,7 °C 6,0 °C 0,0 km/h (0 Bft)
03.04.2018 07:53 6,2 °C 73 % 1006,5 hPa 0,0 mm 0,0 km/h (0 Bft) NW 306 ° 0 min 0,000 mm 0,0 UV-I 63 W/m² 1,7 °C 6,2 °C 0,0 km/h (0 Bft)
03.04.2018 07:54 6,3 °C 74 % 1006,6 hPa 0,0 mm 0,0 km/h (0 Bft) NW 306 ° 0 min 0,000 mm 0,0 UV-I 63 W/m² 2,0 °C 6,3 °C 0,0 km/h (0 Bft)
03.04.2018 07:55 6,3 °C 73 % 1006,6 hPa 0,0 mm 0,0 km/h (0 Bft) NW 306 ° 0 min 0,000 mm 0,0 UV-I 65 W/m² 1,8 °C 6,3 °C 0,0 km/h (0 Bft)
03.04.2018 07:56 6,3 °C 73 % 1006,6 hPa 0,0 mm 0,0 km/h (0 Bft) NW 306 ° 0 min 0,000 mm 0,0 UV-I 69 W/m² 1,8 °C 6,3 °C 0,0 km/h (0 Bft)
03.04.2018 07:57 6,3 °C 73 % 1006,6 hPa 0,0 mm 0,0 km/h (0 Bft) NW 306 ° 0 min 0,000 mm 0,0 UV-I 69 W/m² 1,8 °C 6,3 °C 0,0 km/h (0 Bft)
03.04.2018 07:58 6,2 °C 74 % 1006,6 hPa 0,0 mm 0,0 km/h (0 Bft) NW 306 ° 0 min 0,000 mm 0,0 UV-I 70 W/m² 1,9 °C 6,2 °C 0,0 km/h (0 Bft)
03.04.2018 07:59 6,3 °C 75 % 1006,6 hPa 0,0 mm 0,0 km/h (0 Bft) NW 306 ° 0 min 0,000 mm 0,0 UV-I 72 W/m² 2,2 °C 6,3 °C 0,0 km/h (0 Bft)
03.04.2018 08:00 6,3 °C 73 % 1006,6 hPa 0,0 mm 0,0 km/h (0 Bft) NW 306 ° 0 min 0,000 mm 0,0 UV-I 74 W/m² 1,8 °C 6,3 °C 0,0 km/h (0 Bft)
03.04.2018 08:01 6,4 °C 73 % 1006,6 hPa 0,0 mm 0,0 km/h (0 Bft) NW 306 ° 0 min 0,026 mm 0,0 UV-I 76 W/m² 1,9 °C 6,4 °C 0,0 km/h (0 Bft)
03.04.2018 08:02 6,7 °C 73 % 1006,6 hPa 0,0 mm 0,0 km/h (0 Bft) NW 306 ° 0 min 0,000 mm 0,0 UV-I 79 W/m² 2,2 °C 6,7 °C 0,0 km/h (0 Bft)
03.04.2018 08:03 6,8 °C 72 % 1006,6 hPa 0,0 mm 0,0 km/h (0 Bft) NO 41 ° 0 min 0,000 mm 0,5 UV-I 79 W/m² 2,1 °C 6,8 °C 0,0 km/h (0 Bft)
03.04.2018 08:04 6,9 °C 72 % 1006,6 hPa 0,0 mm 0,0 km/h (0 Bft) NO 41 ° 0 min 0,000 mm 0,5 UV-I 81 W/m² 2,2 °C 6,9 °C 0,0 km/h (0 Bft)
03.04.2018 08:05 6,9 °C 71 % 1006,6 hPa 0,0 mm 0,0 km/h (0 Bft) NO 41 ° 0 min 0,000 mm 0,5 UV-I 83 W/m² 2,0 °C 6,9 °C 0,0 km/h (0 Bft)
03.04.2018 08:06 7,1 °C 71 % 1006,6 hPa 0,0 mm 0,0 km/h (0 Bft) NO 41 ° 0 min 0,000 mm 0,5 UV-I 84 W/m² 2,2 °C 7,1 °C 0,0 km/h (0 Bft)
03.04.2018 08:07 7,2 °C 71 % 1006,6 hPa 0,0 mm 0,5 km/h (0 Bft) NO 41 ° 0 min 0,000 mm 0,5 UV-I 86 W/m² 2,3 °C 7,2 °C 1,6 km/h (1 Bft)
03.04.2018 08:08 7,2 °C 71 % 1006,6 hPa 0,0 mm 0,0 km/h (0 Bft) NO 39 ° 0 min 0,000 mm 0,5 UV-I 88 W/m² 2,3 °C 7,2 °C 0,0 km/h (0 Bft)
03.04.2018 08:09 7,3 °C 73 % 1006,6 hPa 0,0 mm 0,0 km/h (0 Bft) NO 39 ° 0 min 0,000 mm 0,5 UV-I 90 W/m² 2,8 °C 7,3 °C 0,0 km/h (0 Bft)
03.04.2018 08:10 7,3 °C 72 % 1006,6 hPa 0,0 mm 0,8 km/h (0 Bft) N-NO 24 ° 0 min 0,000 mm 0,5 UV-I 91 W/m² 2,6 °C 7,3 °C 3,2 km/h (1 Bft)
03.04.2018 08:11 7,3 °C 71 % 1006,6 hPa 0,0 mm 0,0 km/h (0 Bft) N-NO 24 ° 0 min 0,000 mm 0,5 UV-I 95 W/m² 2,4 °C 7,3 °C 0,0 km/h (0 Bft)
03.04.2018 08:12 7,3 °C 70 % 1006,6 hPa 0,0 mm 0,0 km/h (0 Bft) N-NO 24 ° 0 min 0,000 mm 0,5 UV-I 100 W/m² 2,2 °C 7,3 °C 0,0 km/h (0 Bft)
03.04.2018 08:13 7,4 °C 71 % 1006,7 hPa 0,0 mm 0,0 km/h (0 Bft) N-NO 24 ° 0 min 0,000 mm 0,5 UV-I 109 W/m² 2,5 °C 7,4 °C 0,0 km/h (0 Bft)
03.04.2018 08:14 7,4 °C 70 % 1006,7 hPa 0,0 mm 1,6 km/h (1 Bft) NW 313 ° 0 min 0,000 mm 0,5 UV-I 107 W/m² 2,3 °C 7,4 °C 3,2 km/h (1 Bft)
03.04.2018 08:15 7,6 °C 71 % 1006,7 hPa 0,0 mm 0,3 km/h (0 Bft) NW 313 ° 0 min 0,000 mm 0,6 UV-I 107 W/m² 2,7 °C 7,6 °C 1,6 km/h (1 Bft)
03.04.2018 08:16 7,6 °C 71 % 1006,6 hPa 0,0 mm 0,0 km/h (0 Bft) NW 313 ° 0 min 0,000 mm 0,6 UV-I 105 W/m² 2,7 °C 7,6 °C 0,0 km/h (0 Bft)
03.04.2018 08:17 7,4 °C 72 % 1006,6 hPa 0,0 mm 0,0 km/h (0 Bft) NW 313 ° 0 min 0,000 mm 0,6 UV-I 104 W/m² 2,7 °C 7,4 °C 0,0 km/h (0 Bft)
03.04.2018 08:18 7,4 °C 71 % 1006,7 hPa 0,0 mm 0,0 km/h (0 Bft) NW 313 ° 0 min 0,000 mm 0,6 UV-I 107 W/m² 2,5 °C 7,4 °C 0,0 km/h (0 Bft)
03.04.2018 08:19 7,6 °C 71 % 1006,7 hPa 0,0 mm 0,0 km/h (0 Bft) NW 313 ° 0 min 0,000 mm 0,6 UV-I 111 W/m² 2,7 °C 7,6 °C 0,0 km/h (0 Bft)
03.04.2018 08:20 7,7 °C 70 % 1006,7 hPa 0,0 mm 0,0 km/h (0 Bft) NW 313 ° 0 min 0,000 mm 0,6 UV-I 118 W/m² 2,6 °C 7,7 °C 0,0 km/h (0 Bft)
03.04.2018 08:21 7,8 °C 70 % 1006,7 hPa 0,0 mm 0,0 km/h (0 Bft) NW 313 ° 0 min 0,000 mm 0,6 UV-I 120 W/m² 2,7 °C 7,8 °C 0,0 km/h (0 Bft)
03.04.2018 08:22 7,8 °C 70 % 1006,7 hPa 0,0 mm 0,0 km/h (0 Bft) NW 313 ° 0 min 0,000 mm 0,6 UV-I 125 W/m² 2,7 °C 7,8 °C 0,0 km/h (0 Bft)
03.04.2018 08:23 7,8 °C 73 % 1006,7 hPa 0,0 mm 0,8 km/h (0 Bft) NW 313 ° 0 min 0,000 mm 0,6 UV-I 123 W/m² 3,3 °C 7,8 °C 3,2 km/h (1 Bft)
03.04.2018 08:24 7,8 °C 73 % 1006,7 hPa 0,0 mm 0,0 km/h (0 Bft) NW 313 ° 0 min 0,000 mm 0,6 UV-I 116 W/m² 3,3 °C 7,8 °C 0,0 km/h (0 Bft)
03.04.2018 08:25 7,9 °C 71 % 1006,7 hPa 0,0 mm 0,0 km/h (0 Bft) W 275 ° 0 min 0,000 mm 0,6 UV-I 113 W/m² 3,0 °C 7,9 °C 0,0 km/h (0 Bft)
03.04.2018 08:26 8,0 °C 70 % 1006,7 hPa 0,0 mm 0,0 km/h (0 Bft) W-SW 252 ° 0 min 0,000 mm 0,6 UV-I 113 W/m² 2,9 °C 8,0 °C 0,0 km/h (0 Bft)
03.04.2018 08:27 8,1 °C 70 % 1006,7 hPa 0,0 mm 0,0 km/h (0 Bft) W-SW 252 ° 0 min 0,000 mm 0,6 UV-I 113 W/m² 3,0 °C 8,1 °C 0,0 km/h (0 Bft)
03.04.2018 08:28 8,3 °C 69 % 1006,7 hPa 0,0 mm 0,0 km/h (0 Bft) W-SW 252 ° 0 min 0,000 mm 0,6 UV-I 113 W/m² 3,0 °C 8,3 °C 0,0 km/h (0 Bft)
03.04.2018 08:29 8,4 °C 71 % 1006,7 hPa 0,0 mm 0,1 km/h (0 Bft) W-SW 252 ° 0 min 0,000 mm 0,6 UV-I 113 W/m² 3,5 °C 8,4 °C 1,6 km/h (1 Bft)
03.04.2018 08:30 8,5 °C 71 % 1006,7 hPa 0,0 mm 0,4 km/h (0 Bft) W-SW 252 ° 0 min 0,000 mm 0,6 UV-I 111 W/m² 3,5 °C 8,5 °C 1,6 km/h (1 Bft)
03.04.2018 08:31 8,6 °C 70 % 1006,7 hPa 0,0 mm 0,0 km/h (0 Bft) W-SW 252 ° 0 min 0,000 mm 0,6 UV-I 111 W/m² 3,4 °C 8,6 °C 0,0 km/h (0 Bft)
03.04.2018 08:32 8,7 °C 69 % 1006,7 hPa 0,0 mm 0,0 km/h (0 Bft) W-SW 252 ° 0 min 0,000 mm 0,6 UV-I 111 W/m² 3,3 °C 8,7 °C 0,0 km/h (0 Bft)
03.04.2018 08:33 8,7 °C 68 % 1006,7 hPa 0,0 mm 0,0 km/h (0 Bft) W-SW 252 ° 0 min 0,000 mm 0,6 UV-I 111 W/m² 3,1 °C 8,7 °C 0,0 km/h (0 Bft)
03.04.2018 08:34 8,8 °C 71 % 1006,8 hPa 0,0 mm 0,0 km/h (0 Bft) W-SW 252 ° 0 min 0,000 mm 0,6 UV-I 109 W/m² 3,8 °C 8,8 °C 0,0 km/h (0 Bft)
03.04.2018 08:35 8,8 °C 69 % 1006,8 hPa 0,0 mm 0,0 km/h (0 Bft) W-SW 252 ° 0 min 0,000 mm 0,6 UV-I 109 W/m² 3,4 °C 8,8 °C 0,0 km/h (0 Bft)
03.04.2018 08:36 8,9 °C 68 % 1006,7 hPa 0,0 mm 0,0 km/h (0 Bft) W-SW 252 ° 0 min 0,000 mm 0,6 UV-I 109 W/m² 3,3 °C 8,9 °C 0,0 km/h (0 Bft)
03.04.2018 08:37 9,1 °C 67 % 1006,8 hPa 0,0 mm 0,0 km/h (0 Bft) W-SW 252 ° 0 min 0,000 mm 0,6 UV-I 109 W/m² 3,3 °C 9,1 °C 0,0 km/h (0 Bft)
03.04.2018 08:38 9,3 °C 66 % 1006,8 hPa 0,0 mm 0,0 km/h (0 Bft) W-SW 252 ° 0 min 0,000 mm 0,6 UV-I 109 W/m² 3,3 °C 9,3 °C 0,0 km/h (0 Bft)
03.04.2018 08:39 9,4 °C 67 % 1006,8 hPa 0,0 mm 0,0 km/h (0 Bft) W-SW 252 ° 0 min 0,000 mm 0,6 UV-I 109 W/m² 3,6 °C 9,4 °C 0,0 km/h (0 Bft)
03.04.2018 08:40 9,7 °C 64 % 1006,8 hPa 0,0 mm 0,0 km/h (0 Bft) W-SW 252 ° 0 min 0,000 mm 0,7 UV-I 111 W/m² 3,2 °C 9,7 °C 0,0 km/h (0 Bft)
03.04.2018 08:41 9,8 °C 67 % 1006,7 hPa 0,0 mm 0,0 km/h (0 Bft) W-SW 252 ° 0 min 0,000 mm 0,7 UV-I 111 W/m² 4,0 °C 9,8 °C 0,0 km/h (0 Bft)
03.04.2018 08:42 9,9 °C 65 % 1006,7 hPa 0,0 mm 0,0 km/h (0 Bft) W-SW 252 ° 0 min 0,000 mm 0,7 UV-I 113 W/m² 3,6 °C 9,9 °C 0,0 km/h (0 Bft)
03.04.2018 08:43 10,1 °C 61 % 1006,7 hPa 0,0 mm 0,0 km/h (0 Bft) W-SW 252 ° 0 min 0,000 mm 0,7 UV-I 114 W/m² 2,9 °C 10,1 °C 0,0 km/h (0 Bft)
03.04.2018 08:44 10,3 °C 60 % 1006,7 hPa 0,0 mm 0,5 km/h (0 Bft) W-SW 252 ° 0 min 0,000 mm 0,7 UV-I 116 W/m² 2,9 °C 10,3 °C 3,2 km/h (1 Bft)
03.04.2018 08:45 10,4 °C 63 % 1006,8 hPa 0,0 mm 0,6 km/h (0 Bft) W 277 ° 0 min 0,000 mm 0,7 UV-I 118 W/m² 3,7 °C 10,4 °C 3,2 km/h (1 Bft)
03.04.2018 08:46 10,4 °C 61 % 1006,8 hPa 0,0 mm 2,8 km/h (1 Bft) NW 317 ° 0 min 0,000 mm 0,7 UV-I 118 W/m² 3,2 °C 10,4 °C 4,8 km/h (1 Bft)
03.04.2018 08:47 10,6 °C 60 % 1006,8 hPa 0,0 mm 0,4 km/h (0 Bft) NW 317 ° 0 min 0,000 mm 0,7 UV-I 118 W/m² 3,2 °C 10,6 °C 3,2 km/h (1 Bft)
03.04.2018 08:48 10,6 °C 60 % 1006,8 hPa 0,0 mm 1,9 km/h (1 Bft) NW 318 ° 0 min 0,000 mm 0,7 UV-I 120 W/m² 3,2 °C 10,6 °C 3,2 km/h (1 Bft)
03.04.2018 08:49 10,6 °C 61 % 1006,7 hPa 0,0 mm 0,1 km/h (0 Bft) NW 318 ° 0 min 0,000 mm 0,7 UV-I 120 W/m² 3,4 °C 10,6 °C 1,6 km/h (1 Bft)
03.04.2018 08:50 10,6 °C 64 % 1006,7 hPa 0,0 mm 0,0 km/h (0 Bft) NW 318 ° 0 min 0,000 mm 0,7 UV-I 121 W/m² 4,1 °C 10,6 °C 0,0 km/h (0 Bft)
03.04.2018 08:51 10,7 °C 62 % 1006,7 hPa 0,0 mm 0,0 km/h (0 Bft) NW 318 ° 0 min 0,000 mm 0,7 UV-I 121 W/m² 3,7 °C 10,7 °C 0,0 km/h (0 Bft)
03.04.2018 08:52 10,8 °C 59 % 1006,8 hPa 0,0 mm 0,0 km/h (0 Bft) NW 318 ° 0 min 0,000 mm 0,7 UV-I 123 W/m² 3,1 °C 10,8 °C 0,0 km/h (0 Bft)
03.04.2018 08:53 10,9 °C 61 % 1006,7 hPa 0,0 mm 0,0 km/h (0 Bft) NW 318 ° 0 min 0,000 mm 0,7 UV-I 125 W/m² 3,7 °C 10,9 °C 0,0 km/h (0 Bft)
03.04.2018 08:54 10,9 °C 62 % 1006,8 hPa 0,0 mm 0,0 km/h (0 Bft) NW 318 ° 0 min 0,000 mm 0,8 UV-I 127 W/m² 3,9 °C 10,9 °C 0,0 km/h (0 Bft)
03.04.2018 08:55 10,9 °C 61 % 1006,8 hPa 0,0 mm 0,0 km/h (0 Bft) NW 318 ° 0 min 0,000 mm 0,8 UV-I 127 W/m² 3,7 °C 10,9 °C 0,0 km/h (0 Bft)
03.04.2018 08:56 11,1 °C 57 % 1006,8 hPa 0,0 mm 0,0 km/h (0 Bft) NW 318 ° 0 min 0,000 mm 0,8 UV-I 127 W/m² 2,9 °C 11,1 °C 0,0 km/h (0 Bft)
03.04.2018 08:57 11,1 °C 60 % 1006,8 hPa 0,0 mm 0,0 km/h (0 Bft) NW 318 ° 0 min 0,000 mm 0,8 UV-I 127 W/m² 3,6 °C 11,1 °C 0,0 km/h (0 Bft)
03.04.2018 08:58 11,1 °C 58 % 1006,7 hPa 0,0 mm 0,9 km/h (0 Bft) NW 318 ° 0 min 0,000 mm 0,8 UV-I 127 W/m² 3,2 °C 11,1 °C 4,8 km/h (1 Bft)
03.04.2018 08:59 11,1 °C 60 % 1006,7 hPa 0,0 mm 2,4 km/h (1 Bft) NW 318 ° 0 min 0,000 mm 0,8 UV-I 125 W/m² 3,6 °C 11,1 °C 4,8 km/h (1 Bft)
03.04.2018 09:00 11,2 °C 59 % 1006,7 hPa 0,0 mm 0,8 km/h (0 Bft) NW 318 ° 0 min 0,000 mm 0,8 UV-I 128 W/m² 3,5 °C 11,2 °C 3,2 km/h (1 Bft)
03.04.2018 09:01 11,1 °C 62 % 1006,7 hPa 0,0 mm 3,6 km/h (1 Bft) N 11 ° 0 min 0,050 mm 0,8 UV-I 130 W/m² 4,1 °C 11,1 °C 6,4 km/h (2 Bft)
03.04.2018 09:02 11,2 °C 56 % 1006,7 hPa 0,0 mm 5,4 km/h (1 Bft) NW 306 ° 0 min 0,000 mm 0,8 UV-I 134 W/m² 2,8 °C 11,2 °C 9,7 km/h (2 Bft)
03.04.2018 09:03 11,3 °C 56 % 1006,7 hPa 0,0 mm 4,4 km/h (1 Bft) W-SW 240 ° 0 min 0,000 mm 0,8 UV-I 139 W/m² 2,8 °C 11,3 °C 6,4 km/h (2 Bft)
03.04.2018 09:04 11,6 °C 52 % 1006,6 hPa 0,0 mm 3,9 km/h (1 Bft) N-NO 15 ° 0 min 0,000 mm 0,9 UV-I 144 W/m² 2,1 °C 11,6 °C 6,4 km/h (2 Bft)
03.04.2018 09:05 11,8 °C 51 % 1006,7 hPa 0,0 mm 3,3 km/h (1 Bft) N 5 ° 0 min 0,000 mm 0,9 UV-I 149 W/m² 2,0 °C 11,8 °C 6,4 km/h (2 Bft)
03.04.2018 09:06 11,8 °C 54 % 1006,6 hPa 0,0 mm 3,8 km/h (1 Bft) N-NW 327 ° 0 min 0,000 mm 0,9 UV-I 158 W/m² 2,8 °C 11,8 °C 8,0 km/h (2 Bft)
03.04.2018 09:07 11,9 °C 54 % 1006,7 hPa 0,0 mm 2,1 km/h (1 Bft) N-NW 330 ° 0 min 0,000 mm 1,0 UV-I 162 W/m² 2,9 °C 11,9 °C 3,2 km/h (1 Bft)
03.04.2018 09:08 11,9 °C 52 % 1006,6 hPa 0,0 mm 2,7 km/h (1 Bft) N-NW 330 ° 0 min 0,000 mm 1,0 UV-I 165 W/m² 2,4 °C 11,9 °C 4,8 km/h (1 Bft)
03.04.2018 09:09 12,1 °C 53 % 1006,6 hPa 0,0 mm 1,0 km/h (0 Bft) N-NW 330 ° 0 min 0,000 mm 1,0 UV-I 167 W/m² 2,8 °C 12,1 °C 3,2 km/h (1 Bft)
03.04.2018 09:10 12,1 °C 52 % 1006,7 hPa 0,0 mm 2,4 km/h (1 Bft) SW 227 ° 0 min 0,000 mm 1,0 UV-I 169 W/m² 2,5 °C 12,1 °C 8,0 km/h (2 Bft)
03.04.2018 09:11 12,2 °C 53 % 1006,7 hPa 0,0 mm 4,4 km/h (1 Bft) O-SO 123 ° 0 min 0,000 mm 1,0 UV-I 171 W/m² 2,9 °C 12,2 °C 9,7 km/h (2 Bft)
03.04.2018 09:12 12,3 °C 52 % 1006,6 hPa 0,0 mm 3,0 km/h (1 Bft) S-SO 162 ° 0 min 0,000 mm 1,0 UV-I 178 W/m² 2,7 °C 12,3 °C 6,4 km/h (2 Bft)
03.04.2018 09:13 12,3 °C 51 % 1006,6 hPa 0,0 mm 1,6 km/h (1 Bft) W 268 ° 0 min 0,000 mm 1,0 UV-I 178 W/m² 2,5 °C 12,3 °C 4,8 km/h (1 Bft)
03.04.2018 09:14 12,3 °C 51 % 1006,6 hPa 0,0 mm 1,9 km/h (1 Bft) N 9 ° 0 min 0,000 mm 1,0 UV-I 174 W/m² 2,5 °C 12,3 °C 6,4 km/h (2 Bft)
03.04.2018 09:15 12,2 °C 55 % 1006,6 hPa 0,0 mm 3,2 km/h (1 Bft) N-NO 27 ° 0 min 0,000 mm 1,0 UV-I 176 W/m² 3,4 °C 12,2 °C 9,7 km/h (2 Bft)
03.04.2018 09:16 12,3 °C 55 % 1006,6 hPa 0,0 mm 1,1 km/h (1 Bft) N-NO 25 ° 0 min 0,000 mm 1,1 UV-I 178 W/m² 3,5 °C 12,3 °C 3,2 km/h (1 Bft)
03.04.2018 09:17 12,4 °C 49 % 1006,6 hPa 0,0 mm 2,6 km/h (1 Bft) N 350 ° 0 min 0,000 mm 1,1 UV-I 179 W/m² 2,0 °C 12,4 °C 4,8 km/h (1 Bft)
03.04.2018 09:18 12,5 °C 49 % 1006,7 hPa 0,0 mm 3,9 km/h (1 Bft) N-NW 346 ° 0 min 0,000 mm 1,1 UV-I 200 W/m² 2,1 °C 12,5 °C 4,8 km/h (1 Bft)
03.04.2018 09:19 12,6 °C 51 % 1006,7 hPa 0,0 mm 2,5 km/h (1 Bft) N-NW 331 ° 0 min 0,000 mm 1,1 UV-I 207 W/m² 2,7 °C 12,6 °C 4,8 km/h (1 Bft)
03.04.2018 09:20 12,7 °C 52 % 1006,7 hPa 0,0 mm 3,6 km/h (1 Bft) O-NO 75 ° 0 min 0,000 mm 1,2 UV-I 202 W/m² 3,1 °C 12,7 °C 6,4 km/h (2 Bft)
03.04.2018 09:21 12,8 °C 47 % 1006,7 hPa 0,0 mm 1,3 km/h (1 Bft) NO 51 ° 0 min 0,000 mm 1,3 UV-I 251 W/m² 1,8 °C 12,8 °C 3,2 km/h (1 Bft)
03.04.2018 09:22 12,8 °C 51 % 1006,7 hPa 0,0 mm 1,3 km/h (1 Bft) NO 51 ° 1 min 0,000 mm 1,4 UV-I 295 W/m² 2,9 °C 12,8 °C 3,2 km/h (1 Bft)
03.04.2018 09:23 12,9 °C 52 % 1006,7 hPa 0,0 mm 2,5 km/h (1 Bft) NO 48 ° 1 min 0,000 mm 1,6 UV-I 339 W/m² 3,3 °C 12,9 °C 8,0 km/h (2 Bft)
03.04.2018 09:24 13,0 °C 49 % 1006,7 hPa 0,0 mm 3,6 km/h (1 Bft) O-NO 71 ° 1 min 0,000 mm 1,5 UV-I 418 W/m² 2,5 °C 13,0 °C 6,4 km/h (2 Bft)
03.04.2018 09:25 13,2 °C 50 % 1006,7 hPa 0,0 mm 2,1 km/h (1 Bft) NO 46 ° 1 min 0,000 mm 1,5 UV-I 360 W/m² 3,0 °C 13,2 °C 3,2 km/h (1 Bft)
03.04.2018 09:26 13,2 °C 51 % 1006,7 hPa 0,0 mm 3,0 km/h (1 Bft) O 94 ° 1 min 0,000 mm 1,4 UV-I 308 W/m² 3,3 °C 13,2 °C 6,4 km/h (2 Bft)
03.04.2018 09:27 13,2 °C 51 % 1006,7 hPa 0,0 mm 8,3 km/h (2 Bft) SO 130 ° 0 min 0,000 mm 1,4 UV-I 278 W/m² 3,3 °C 13,2 °C 12,9 km/h (3 Bft)
03.04.2018 09:28 13,3 °C 50 % 1006,7 hPa 0,0 mm 6,3 km/h (2 Bft) O-SO 111 ° 0 min 0,000 mm 1,3 UV-I 237 W/m² 3,1 °C 13,3 °C 12,9 km/h (3 Bft)
03.04.2018 09:29 13,4 °C 49 % 1006,7 hPa 0,0 mm 1,5 km/h (1 Bft) SO 128 ° 0 min 0,000 mm 1,3 UV-I 192 W/m² 2,9 °C 13,4 °C 4,8 km/h (1 Bft)
03.04.2018 09:30 13,4 °C 52 % 1006,7 hPa 0,0 mm 1,0 km/h (0 Bft) W 267 ° 0 min 0,000 mm 1,3 UV-I 206 W/m² 3,7 °C 13,4 °C 3,2 km/h (1 Bft)
03.04.2018 09:31 13,4 °C 49 % 1006,7 hPa 0,0 mm 2,4 km/h (1 Bft) O-SO 122 ° 0 min 0,000 mm 1,3 UV-I 227 W/m² 2,9 °C 13,4 °C 4,8 km/h (1 Bft)
03.04.2018 09:32 13,4 °C 49 % 1006,6 hPa 0,0 mm 2,3 km/h (1 Bft) S-SO 148 ° 1 min 0,000 mm 1,7 UV-I 301 W/m² 2,9 °C 13,4 °C 6,4 km/h (2 Bft)
03.04.2018 09:33 13,6 °C 47 % 1006,6 hPa 0,0 mm 3,8 km/h (1 Bft) N-NW 334 ° 1 min 0,000 mm 2,0 UV-I 385 W/m² 2,5 °C 13,6 °C 4,8 km/h (1 Bft)
03.04.2018 09:34 13,8 °C 49 % 1006,7 hPa 0,0 mm 4,4 km/h (1 Bft) N 355 ° 1 min 0,000 mm 2,1 UV-I 461 W/m² 3,3 °C 13,8 °C 6,4 km/h (2 Bft)
03.04.2018 09:35 14,0 °C 51 % 1006,7 hPa 0,0 mm 3,3 km/h (1 Bft) N-NW 338 ° 1 min 0,000 mm 2,2 UV-I 512 W/m² 4,0 °C 14,0 °C 4,8 km/h (1 Bft)
03.04.2018 09:36 14,2 °C 47 % 1006,7 hPa 0,0 mm 2,8 km/h (1 Bft) N-NW 337 ° 1 min 0,000 mm 2,2 UV-I 497 W/m² 3,1 °C 14,2 °C 6,4 km/h (2 Bft)
03.04.2018 09:37 14,4 °C 47 % 1006,6 hPa 0,0 mm 3,0 km/h (1 Bft) NW 305 ° 1 min 0,000 mm 2,1 UV-I 461 W/m² 3,2 °C 14,4 °C 6,4 km/h (2 Bft)
03.04.2018 09:38 14,7 °C 48 % 1006,7 hPa 0,0 mm 3,3 km/h (1 Bft) W 269 ° 1 min 0,000 mm 1,9 UV-I 396 W/m² 3,8 °C 14,7 °C 4,8 km/h (1 Bft)
03.04.2018 09:39 14,7 °C 50 % 1006,8 hPa 0,0 mm 1,6 km/h (1 Bft) W-NW 289 ° 1 min 0,000 mm 1,9 UV-I 359 W/m² 4,4 °C 14,7 °C 3,2 km/h (1 Bft)
03.04.2018 09:40 14,7 °C 48 % 1006,7 hPa 0,0 mm 3,5 km/h (1 Bft) SW 218 ° 1 min 0,000 mm 1,9 UV-I 390 W/m² 3,8 °C 14,7 °C 8,0 km/h (2 Bft)
03.04.2018 09:41 14,8 °C 43 % 1006,8 hPa 0,0 mm 4,0 km/h (1 Bft) N 9 ° 0 min 0,000 mm 1,7 UV-I 225 W/m² 2,3 °C 14,8 °C 8,0 km/h (2 Bft)
03.04.2018 09:42 14,8 °C 45 % 1006,7 hPa 0,0 mm 4,9 km/h (1 Bft) NW 321 ° 1 min 0,000 mm 1,9 UV-I 292 W/m² 3,0 °C 14,8 °C 9,7 km/h (2 Bft)
03.04.2018 09:43 14,8 °C 42 % 1006,7 hPa 0,0 mm 5,3 km/h (1 Bft) O-SO 107 ° 1 min 0,000 mm 2,1 UV-I 292 W/m² 2,0 °C 14,8 °C 9,7 km/h (2 Bft)
03.04.2018 09:44 14,7 °C 48 % 1006,7 hPa 0,0 mm 3,9 km/h (1 Bft) NO 34 ° 1 min 0,000 mm 2,2 UV-I 485 W/m² 3,8 °C 14,7 °C 6,4 km/h (2 Bft)
03.04.2018 09:45 14,6 °C 46 % 1006,7 hPa 0,0 mm 2,4 km/h (1 Bft) NO 45 ° 1 min 0,000 mm 2,3 UV-I 483 W/m² 3,1 °C 14,6 °C 4,8 km/h (1 Bft)
03.04.2018 09:46 14,6 °C 45 % 1006,6 hPa 0,0 mm 2,6 km/h (1 Bft) SW 220 ° 1 min 0,000 mm 2,4 UV-I 503 W/m² 2,8 °C 14,6 °C 4,8 km/h (1 Bft)
03.04.2018 09:47 14,6 °C 46 % 1006,7 hPa 0,0 mm 2,5 km/h (1 Bft) SO 138 ° 1 min 0,000 mm 2,3 UV-I 441 W/m² 3,1 °C 14,6 °C 6,4 km/h (2 Bft)
03.04.2018 09:48 14,7 °C 47 % 1006,7 hPa 0,0 mm 4,6 km/h (1 Bft) NO 50 ° 1 min 0,000 mm 2,5 UV-I 513 W/m² 3,5 °C 14,7 °C 8,0 km/h (2 Bft)
03.04.2018 09:49 14,8 °C 44 % 1006,7 hPa 0,0 mm 2,1 km/h (1 Bft) O 80 ° 1 min 0,000 mm 2,6 UV-I 501 W/m² 2,7 °C 14,8 °C 4,8 km/h (1 Bft)
03.04.2018 09:50 14,8 °C 44 % 1006,7 hPa 0,0 mm 0,5 km/h (0 Bft) O 80 ° 1 min 0,000 mm 2,6 UV-I 520 W/m² 2,7 °C 14,8 °C 1,6 km/h (1 Bft)
03.04.2018 09:51 14,9 °C 44 % 1006,7 hPa 0,0 mm 3,1 km/h (1 Bft) SO 133 ° 1 min 0,000 mm 2,6 UV-I 520 W/m² 2,8 °C 14,9 °C 9,7 km/h (2 Bft)
03.04.2018 09:52 15,1 °C 45 % 1006,7 hPa 0,0 mm 3,8 km/h (1 Bft) O 89 ° 1 min 0,000 mm 2,6 UV-I 513 W/m² 3,3 °C 15,1 °C 6,4 km/h (2 Bft)
03.04.2018 09:53 15,3 °C 42 % 1006,6 hPa 0,0 mm 5,0 km/h (1 Bft) O-NO 71 ° 1 min 0,000 mm 2,6 UV-I 446 W/m² 2,5 °C 15,3 °C 11,3 km/h (2 Bft)
03.04.2018 09:54 15,3 °C 43 % 1006,6 hPa 0,0 mm 5,0 km/h (1 Bft) S 183 ° 1 min 0,000 mm 2,5 UV-I 466 W/m² 2,8 °C 15,3 °C 9,7 km/h (2 Bft)
03.04.2018 09:55 15,4 °C 43 % 1006,6 hPa 0,0 mm 5,7 km/h (1 Bft) O 96 ° 1 min 0,000 mm 2,7 UV-I 506 W/m² 2,9 °C 15,4 °C 9,7 km/h (2 Bft)
03.04.2018 09:56 15,4 °C 41 % 1006,6 hPa 0,0 mm 5,9 km/h (2 Bft) O-NO 74 ° 1 min 0,000 mm 2,7 UV-I 485 W/m² 2,2 °C 15,4 °C 9,7 km/h (2 Bft)
03.04.2018 09:57 15,4 °C 46 % 1006,7 hPa 0,0 mm 2,2 km/h (1 Bft) O-NO 75 ° 1 min 0,000 mm 2,7 UV-I 519 W/m² 3,8 °C 15,4 °C 4,8 km/h (1 Bft)
03.04.2018 09:58 15,5 °C 44 % 1006,7 hPa 0,0 mm 3,4 km/h (1 Bft) O-NO 78 ° 1 min 0,000 mm 2,8 UV-I 541 W/m² 3,3 °C 15,5 °C 11,3 km/h (2 Bft)
03.04.2018 09:59 15,7 °C 41 % 1006,7 hPa 0,0 mm 7,0 km/h (2 Bft) O 88 ° 1 min 0,000 mm 2,8 UV-I 545 W/m² 2,5 °C 15,7 °C 12,9 km/h (3 Bft)
03.04.2018 10:00 15,8 °C 41 % 1006,7 hPa 0,0 mm 5,6 km/h (1 Bft) SO 124 ° 1 min 0,000 mm 2,9 UV-I 543 W/m² 2,6 °C 15,8 °C 9,7 km/h (2 Bft)
03.04.2018 10:01 15,8 °C 39 % 1006,7 hPa 0,0 mm 2,3 km/h (1 Bft) O-SO 111 ° 1 min 0,178 mm 2,9 UV-I 550 W/m² 1,9 °C 15,8 °C 6,4 km/h (2 Bft)
03.04.2018 10:02 15,8 °C 43 % 1006,7 hPa 0,0 mm 5,6 km/h (1 Bft) O 94 ° 1 min 0,000 mm 2,9 UV-I 554 W/m² 3,3 °C 15,8 °C 11,3 km/h (2 Bft)
03.04.2018 10:03 16,0 °C 42 % 1006,7 hPa 0,0 mm 1,6 km/h (1 Bft) O-NO 64 ° 1 min 0,000 mm 2,9 UV-I 555 W/m² 3,1 °C 16,0 °C 4,8 km/h (1 Bft)
03.04.2018 10:04 16,2 °C 40 % 1006,7 hPa 0,0 mm 1,4 km/h (1 Bft) N-NO 29 ° 1 min 0,000 mm 3,0 UV-I 563 W/m² 2,6 °C 16,2 °C 4,8 km/h (1 Bft)
03.04.2018 10:05 16,3 °C 40 % 1006,7 hPa 0,0 mm 3,1 km/h (1 Bft) O-NO 58 ° 1 min 0,000 mm 3,0 UV-I 564 W/m² 2,7 °C 16,3 °C 8,0 km/h (2 Bft)
03.04.2018 10:06 16,2 °C 39 % 1006,6 hPa 0,0 mm 4,6 km/h (1 Bft) O-NO 63 ° 1 min 0,000 mm 3,0 UV-I 555 W/m² 2,2 °C 16,2 °C 11,3 km/h (2 Bft)
03.04.2018 10:07 16,2 °C 40 % 1006,6 hPa 0,0 mm 7,2 km/h (2 Bft) S 177 ° 1 min 0,000 mm 3,1 UV-I 580 W/m² 2,6 °C 16,2 °C 11,3 km/h (2 Bft)
03.04.2018 10:08 16,1 °C 38 % 1006,6 hPa 0,0 mm 8,8 km/h (2 Bft) S-SW 205 ° 1 min 0,000 mm 3,0 UV-I 566 W/m² 1,8 °C 16,1 °C 17,7 km/h (3 Bft)
03.04.2018 10:09 16,1 °C 37 % 1006,7 hPa 0,0 mm 9,0 km/h (2 Bft) SO 130 ° 1 min 0,000 mm 3,0 UV-I 568 W/m² 1,4 °C 16,1 °C 16,1 km/h (3 Bft)
03.04.2018 10:10 16,1 °C 38 % 1006,7 hPa 0,0 mm 3,0 km/h (1 Bft) NO 56 ° 1 min 0,000 mm 2,9 UV-I 512 W/m² 1,8 °C 16,1 °C 4,8 km/h (1 Bft)
03.04.2018 10:11 16,2 °C 37 % 1006,6 hPa 0,0 mm 2,3 km/h (1 Bft) O-NO 61 ° 1 min 0,000 mm 3,0 UV-I 548 W/m² 1,5 °C 16,2 °C 3,2 km/h (1 Bft)
03.04.2018 10:12 16,3 °C 39 % 1006,6 hPa 0,0 mm 3,6 km/h (1 Bft) SW 217 ° 1 min 0,000 mm 2,9 UV-I 540 W/m² 2,3 °C 16,3 °C 6,4 km/h (2 Bft)
03.04.2018 10:13 16,2 °C 42 % 1006,6 hPa 0,0 mm 3,2 km/h (1 Bft) O-SO 103 ° 1 min 0,000 mm 2,8 UV-I 490 W/m² 3,3 °C 16,2 °C 6,4 km/h (2 Bft)
03.04.2018 10:14 16,2 °C 44 % 1006,6 hPa 0,0 mm 2,6 km/h (1 Bft) NO 34 ° 1 min 0,000 mm 2,3 UV-I 490 W/m² 3,9 °C 16,2 °C 4,8 km/h (1 Bft)
03.04.2018 10:15 16,2 °C 43 % 1006,6 hPa 0,0 mm 7,6 km/h (2 Bft) O-SO 104 ° 1 min 0,000 mm 2,6 UV-I 411 W/m² 3,6 °C 16,2 °C 11,3 km/h (2 Bft)
03.04.2018 10:16 16,1 °C 42 % 1006,6 hPa 0,0 mm 0,8 km/h (0 Bft) O-SO 104 ° 1 min 0,000 mm 2,6 UV-I 413 W/m² 3,2 °C 16,1 °C 4,8 km/h (1 Bft)
03.04.2018 10:17 16,1 °C 40 % 1006,6 hPa 0,0 mm 1,9 km/h (1 Bft) O 97 ° 1 min 0,000 mm 2,7 UV-I 434 W/m² 2,5 °C 16,1 °C 3,2 km/h (1 Bft)
03.04.2018 10:18 16,1 °C 43 % 1006,5 hPa 0,0 mm 2,6 km/h (1 Bft) O-SO 116 ° 1 min 0,000 mm 2,5 UV-I 376 W/m² 3,5 °C 16,1 °C 6,4 km/h (2 Bft)
03.04.2018 10:19 16,1 °C 41 % 1006,6 hPa 0,0 mm 3,4 km/h (1 Bft) O-NO 71 ° 1 min 0,000 mm 2,5 UV-I 371 W/m² 2,8 °C 16,1 °C 4,8 km/h (1 Bft)
03.04.2018 10:20 16,0 °C 40 % 1006,6 hPa 0,0 mm 5,9 km/h (2 Bft) O-NO 69 ° 1 min 0,000 mm 2,7 UV-I 418 W/m² 2,4 °C 16,0 °C 8,0 km/h (2 Bft)
03.04.2018 10:21 16,1 °C 39 % 1006,7 hPa 0,0 mm 4,6 km/h (1 Bft) O-SO 105 ° 1 min 0,000 mm 2,7 UV-I 425 W/m² 2,1 °C 16,1 °C 9,7 km/h (2 Bft)
03.04.2018 10:22 16,1 °C 40 % 1006,7 hPa 0,0 mm 1,3 km/h (1 Bft) O-SO 107 ° 1 min 0,000 mm 2,9 UV-I 510 W/m² 2,5 °C 16,1 °C 3,2 km/h (1 Bft)
03.04.2018 10:23 16,3 °C 41 % 1006,7 hPa 0,0 mm 3,2 km/h (1 Bft) O 101 ° 1 min 0,000 mm 2,7 UV-I 494 W/m² 3,0 °C 16,3 °C 9,7 km/h (2 Bft)
03.04.2018 10:24 16,3 °C 38 % 1006,6 hPa 0,0 mm 7,1 km/h (2 Bft) N-NO 25 ° 1 min 0,000 mm 3,1 UV-I 478 W/m² 2,0 °C 16,3 °C 12,9 km/h (3 Bft)
03.04.2018 10:25 16,3 °C 37 % 1006,6 hPa 0,0 mm 3,1 km/h (1 Bft) N-NO 30 ° 1 min 0,000 mm 3,1 UV-I 554 W/m² 1,6 °C 16,3 °C 4,8 km/h (1 Bft)
03.04.2018 10:26 16,3 °C 39 % 1006,6 hPa 0,0 mm 4,7 km/h (1 Bft) NO 56 ° 1 min 0,000 mm 3,1 UV-I 540 W/m² 2,3 °C 16,3 °C 8,0 km/h (2 Bft)
03.04.2018 10:27 16,3 °C 39 % 1006,7 hPa 0,0 mm 5,8 km/h (2 Bft) N-NO 12 ° 1 min 0,000 mm 3,1 UV-I 538 W/m² 2,3 °C 16,3 °C 9,7 km/h (2 Bft)
03.04.2018 10:28 16,4 °C 39 % 1006,7 hPa 0,0 mm 4,8 km/h (1 Bft) O 85 ° 1 min 0,000 mm 3,1 UV-I 538 W/m² 2,4 °C 16,4 °C 8,0 km/h (2 Bft)
03.04.2018 10:29 16,5 °C 40 % 1006,7 hPa 0,0 mm 6,1 km/h (2 Bft) O 89 ° 1 min 0,000 mm 3,1 UV-I 513 W/m² 2,9 °C 16,5 °C 12,9 km/h (3 Bft)
03.04.2018 10:30 16,6 °C 38 % 1006,7 hPa 0,0 mm 4,7 km/h (1 Bft) O-NO 61 ° 1 min 0,000 mm 3,0 UV-I 519 W/m² 2,2 °C 16,6 °C 8,0 km/h (2 Bft)
03.04.2018 10:31 16,6 °C 38 % 1006,7 hPa 0,0 mm 7,2 km/h (2 Bft) O-NO 65 ° 1 min 0,000 mm 3,0 UV-I 494 W/m² 2,2 °C 16,6 °C 14,5 km/h (3 Bft)
03.04.2018 10:32 16,5 °C 40 % 1006,6 hPa 0,0 mm 8,0 km/h (2 Bft) NO 52 ° 1 min 0,000 mm 2,8 UV-I 455 W/m² 2,9 °C 16,5 °C 12,9 km/h (3 Bft)
03.04.2018 10:33 16,4 °C 37 % 1006,6 hPa 0,0 mm 9,4 km/h (2 Bft) O 90 ° 1 min 0,000 mm 2,8 UV-I 438 W/m² 1,7 °C 16,4 °C 14,5 km/h (3 Bft)
03.04.2018 10:34 16,3 °C 38 % 1006,6 hPa 0,0 mm 13,3 km/h (3 Bft) O 90 ° 1 min 0,000 mm 2,9 UV-I 455 W/m² 2,0 °C 16,3 °C 19,3 km/h (3 Bft)
03.04.2018 10:35 16,3 °C 39 % 1006,7 hPa 0,0 mm 6,6 km/h (2 Bft) O 82 ° 1 min 0,000 mm 3,0 UV-I 489 W/m² 2,3 °C 16,3 °C 11,3 km/h (2 Bft)
03.04.2018 10:36 16,2 °C 40 % 1006,7 hPa 0,0 mm 4,8 km/h (1 Bft) O-NO 61 ° 1 min 0,000 mm 3,0 UV-I 468 W/m² 2,6 °C 16,2 °C 6,4 km/h (2 Bft)
03.04.2018 10:37 16,2 °C 38 % 1006,7 hPa 0,0 mm 6,1 km/h (2 Bft) O 91 ° 1 min 0,000 mm 3,0 UV-I 489 W/m² 1,9 °C 16,2 °C 9,7 km/h (2 Bft)
03.04.2018 10:38 16,2 °C 37 % 1006,6 hPa 0,0 mm 7,3 km/h (2 Bft) O 92 ° 1 min 0,000 mm 2,9 UV-I 475 W/m² 1,5 °C 16,2 °C 16,1 km/h (3 Bft)
03.04.2018 10:39 16,2 °C 38 % 1006,6 hPa 0,0 mm 5,6 km/h (1 Bft) S 169 ° 1 min 0,000 mm 3,0 UV-I 475 W/m² 1,9 °C 16,2 °C 9,7 km/h (2 Bft)
03.04.2018 10:40 16,2 °C 39 % 1006,6 hPa 0,0 mm 4,2 km/h (1 Bft) O-NO 71 ° 1 min 0,000 mm 3,0 UV-I 431 W/m² 2,2 °C 16,2 °C 8,0 km/h (2 Bft)
03.04.2018 10:41 16,2 °C 40 % 1006,7 hPa 0,0 mm 4,6 km/h (1 Bft) O 91 ° 1 min 0,000 mm 2,8 UV-I 482 W/m² 2,6 °C 16,2 °C 8,0 km/h (2 Bft)
03.04.2018 10:42 16,3 °C 38 % 1006,7 hPa 0,0 mm 6,0 km/h (2 Bft) NO 44 ° 1 min 0,000 mm 3,2 UV-I 543 W/m² 2,0 °C 16,3 °C 12,9 km/h (3 Bft)
03.04.2018 10:43 16,3 °C 38 % 1006,7 hPa 0,0 mm 8,4 km/h (2 Bft) NO 55 ° 1 min 0,000 mm 3,2 UV-I 517 W/m² 2,0 °C 16,3 °C 17,7 km/h (3 Bft)
03.04.2018 10:44 16,4 °C 38 % 1006,7 hPa 0,0 mm 8,2 km/h (2 Bft) O-NO 61 ° 1 min 0,000 mm 3,2 UV-I 503 W/m² 2,1 °C 16,4 °C 12,9 km/h (3 Bft)
03.04.2018 10:45 16,3 °C 39 % 1006,8 hPa 0,0 mm 7,3 km/h (2 Bft) W 259 ° 1 min 0,000 mm 3,0 UV-I 480 W/m² 2,3 °C 16,3 °C 9,7 km/h (2 Bft)
03.04.2018 10:46 16,4 °C 41 % 1006,7 hPa 0,0 mm 4,7 km/h (1 Bft) NO 54 ° 1 min 0,000 mm 3,1 UV-I 496 W/m² 3,1 °C 16,4 °C 6,4 km/h (2 Bft)
03.04.2018 10:47 16,6 °C 38 % 1006,8 hPa 0,0 mm 3,8 km/h (1 Bft) SO 129 ° 1 min 0,000 mm 3,2 UV-I 520 W/m² 2,2 °C 16,6 °C 6,4 km/h (2 Bft)
03.04.2018 10:48 16,4 °C 41 % 1006,8 hPa 0,0 mm 5,5 km/h (1 Bft) O 94 ° 1 min 0,000 mm 3,1 UV-I 489 W/m² 3,1 °C 16,4 °C 11,3 km/h (2 Bft)
03.04.2018 10:49 16,4 °C 38 % 1006,7 hPa 0,0 mm 3,8 km/h (1 Bft) O-NO 73 ° 1 min 0,000 mm 2,9 UV-I 448 W/m² 2,1 °C 16,4 °C 6,4 km/h (2 Bft)
03.04.2018 10:50 16,4 °C 38 % 1006,7 hPa 0,0 mm 5,4 km/h (1 Bft) O-SO 113 ° 1 min 0,000 mm 2,9 UV-I 462 W/m² 2,1 °C 16,4 °C 14,5 km/h (3 Bft)
03.04.2018 10:51 16,5 °C 38 % 1006,7 hPa 0,0 mm 6,8 km/h (2 Bft) O 88 ° 1 min 0,000 mm 2,7 UV-I 374 W/m² 2,1 °C 16,5 °C 14,5 km/h (3 Bft)
03.04.2018 10:52 16,4 °C 37 % 1006,8 hPa 0,0 mm 5,4 km/h (1 Bft) O-SO 102 ° 1 min 0,000 mm 2,6 UV-I 338 W/m² 1,7 °C 16,4 °C 9,7 km/h (2 Bft)
03.04.2018 10:53 16,5 °C 38 % 1006,7 hPa 0,0 mm 5,3 km/h (1 Bft) O-SO 113 ° 1 min 0,000 mm 2,4 UV-I 325 W/m² 2,1 °C 16,5 °C 12,9 km/h (3 Bft)
03.04.2018 10:54 16,4 °C 37 % 1006,8 hPa 0,0 mm 4,4 km/h (1 Bft) O-NO 71 ° 1 min 0,000 mm 2,5 UV-I 345 W/m² 1,7 °C 16,4 °C 11,3 km/h (2 Bft)
03.04.2018 10:55 16,4 °C 40 % 1006,8 hPa 0,0 mm 3,0 km/h (1 Bft) O-NO 65 ° 1 min 0,000 mm 2,5 UV-I 343 W/m² 2,8 °C 16,4 °C 4,8 km/h (1 Bft)
03.04.2018 10:56 16,4 °C 37 % 1006,7 hPa 0,0 mm 3,2 km/h (1 Bft) O 96 ° 1 min 0,000 mm 2,7 UV-I 376 W/m² 1,7 °C 16,4 °C 4,8 km/h (1 Bft)
03.04.2018 10:57 16,4 °C 37 % 1006,7 hPa 0,0 mm 4,7 km/h (1 Bft) NO 43 ° 1 min 0,000 mm 2,6 UV-I 369 W/m² 1,7 °C 16,4 °C 6,4 km/h (2 Bft)
03.04.2018 10:58 16,4 °C 39 % 1006,7 hPa 0,0 mm 5,0 km/h (1 Bft) NO 46 ° 1 min 0,000 mm 2,6 UV-I 385 W/m² 2,4 °C 16,4 °C 8,0 km/h (2 Bft)
03.04.2018 10:59 16,4 °C 39 % 1006,7 hPa 0,0 mm 2,7 km/h (1 Bft) NO 43 ° 1 min 0,000 mm 2,8 UV-I 410 W/m² 2,4 °C 16,4 °C 8,0 km/h (2 Bft)
03.04.2018 11:00 16,3 °C 36 % 1006,8 hPa 0,0 mm 5,4 km/h (1 Bft) NO 43 ° 1 min 0,305 mm 2,9 UV-I 424 W/m² 1,2 °C 16,3 °C 11,3 km/h (2 Bft)
03.04.2018 11:01 16,3 °C 37 % 1006,7 hPa 0,0 mm 6,4 km/h (2 Bft) NO 53 ° 1 min 0,000 mm 2,9 UV-I 417 W/m² 1,6 °C 16,3 °C 9,7 km/h (2 Bft)
03.04.2018 11:02 16,4 °C 36 % 1006,7 hPa 0,0 mm 4,3 km/h (1 Bft) NO 54 ° 1 min 0,000 mm 2,9 UV-I 454 W/m² 1,3 °C 16,4 °C 9,7 km/h (2 Bft)
03.04.2018 11:03 16,4 °C 39 % 1006,7 hPa 0,0 mm 5,4 km/h (1 Bft) O-NO 59 ° 1 min 0,000 mm 2,6 UV-I 376 W/m² 2,4 °C 16,4 °C 8,0 km/h (2 Bft)
03.04.2018 11:04 16,4 °C 37 % 1006,7 hPa 0,0 mm 3,9 km/h (1 Bft) NO 50 ° 1 min 0,000 mm 2,7 UV-I 388 W/m² 1,7 °C 16,4 °C 4,8 km/h (1 Bft)
03.04.2018 11:05 16,5 °C 37 % 1006,8 hPa 0,0 mm 3,3 km/h (1 Bft) SO 124 ° 1 min 0,000 mm 2,8 UV-I 461 W/m² 1,8 °C 16,5 °C 11,3 km/h (2 Bft)
03.04.2018 11:06 16,4 °C 39 % 1006,7 hPa 0,0 mm 6,1 km/h (2 Bft) O 101 ° 1 min 0,000 mm 2,7 UV-I 422 W/m² 2,4 °C 16,4 °C 9,7 km/h (2 Bft)
03.04.2018 11:07 16,5 °C 39 % 1006,8 hPa 0,0 mm 4,5 km/h (1 Bft) NO 41 ° 1 min 0,000 mm 2,6 UV-I 376 W/m² 2,5 °C 16,5 °C 9,7 km/h (2 Bft)
03.04.2018 11:08 16,4 °C 36 % 1006,7 hPa 0,0 mm 7,0 km/h (2 Bft) O-NO 78 ° 1 min 0,000 mm 2,5 UV-I 353 W/m² 1,3 °C 16,4 °C 11,3 km/h (2 Bft)
03.04.2018 11:09 16,4 °C 37 % 1006,8 hPa 0,0 mm 6,3 km/h (2 Bft) O-NO 76 ° 1 min 0,000 mm 2,6 UV-I 385 W/m² 1,7 °C 16,4 °C 8,0 km/h (2 Bft)
03.04.2018 11:10 16,3 °C 37 % 1006,7 hPa 0,0 mm 7,4 km/h (2 Bft) NO 53 ° 1 min 0,000 mm 2,7 UV-I 387 W/m² 1,6 °C 16,3 °C 11,3 km/h (2 Bft)
03.04.2018 11:11 16,3 °C 36 % 1006,6 hPa 0,0 mm 9,8 km/h (2 Bft) O-NO 61 ° 1 min 0,000 mm 2,7 UV-I 380 W/m² 1,2 °C 16,3 °C 14,5 km/h (3 Bft)
03.04.2018 11:12 16,2 °C 37 % 1006,7 hPa 0,0 mm 7,6 km/h (2 Bft) O 97 ° 1 min 0,000 mm 2,7 UV-I 359 W/m² 1,5 °C 16,2 °C 17,7 km/h (3 Bft)
03.04.2018 11:13 16,1 °C 36 % 1006,7 hPa 0,0 mm 8,9 km/h (2 Bft) O-NO 65 ° 1 min 0,000 mm 2,8 UV-I 380 W/m² 1,0 °C 16,1 °C 17,7 km/h (3 Bft)
03.04.2018 11:14 16,0 °C 36 % 1006,7 hPa 0,0 mm 10,4 km/h (2 Bft) O-SO 107 ° 1 min 0,000 mm 2,7 UV-I 380 W/m² 0,9 °C 16,0 °C 14,5 km/h (3 Bft)
03.04.2018 11:15 16,0 °C 37 % 1006,8 hPa 0,0 mm 8,2 km/h (2 Bft) O-SO 119 ° 1 min 0,000 mm 3,0 UV-I 487 W/m² 1,3 °C 16,0 °C 12,9 km/h (3 Bft)
03.04.2018 11:16 16,0 °C 37 % 1006,8 hPa 0,0 mm 5,9 km/h (2 Bft) O-NO 67 ° 1 min 0,000 mm 3,4 UV-I 508 W/m² 1,3 °C 16,0 °C 11,3 km/h (2 Bft)
03.04.2018 11:17 16,0 °C 37 % 1006,7 hPa 0,0 mm 4,6 km/h (1 Bft) NO 49 ° 1 min 0,000 mm 3,3 UV-I 547 W/m² 1,3 °C 16,0 °C 8,0 km/h (2 Bft)
03.04.2018 11:18 16,1 °C 39 % 1006,7 hPa 0,0 mm 5,7 km/h (1 Bft) O-SO 107 ° 1 min 0,000 mm 2,8 UV-I 547 W/m² 2,1 °C 16,1 °C 11,3 km/h (2 Bft)
03.04.2018 11:19 16,1 °C 38 % 1006,7 hPa 0,0 mm 4,7 km/h (1 Bft) N-NO 22 ° 1 min 0,000 mm 2,9 UV-I 373 W/m² 1,8 °C 16,1 °C 6,4 km/h (2 Bft)
03.04.2018 11:20 16,2 °C 39 % 1006,7 hPa 0,0 mm 6,0 km/h (2 Bft) O-NO 68 ° 1 min 0,000 mm 2,9 UV-I 399 W/m² 2,2 °C 16,2 °C 9,7 km/h (2 Bft)
03.04.2018 11:21 16,3 °C 40 % 1006,7 hPa 0,0 mm 3,6 km/h (1 Bft) O-SO 103 ° 1 min 0,000 mm 3,0 UV-I 483 W/m² 2,7 °C 16,3 °C 8,0 km/h (2 Bft)
03.04.2018 11:22 16,3 °C 38 % 1006,7 hPa 0,0 mm 5,0 km/h (1 Bft) O-NO 76 ° 1 min 0,000 mm 3,2 UV-I 459 W/m² 2,0 °C 16,3 °C 12,9 km/h (3 Bft)
03.04.2018 11:23 16,3 °C 39 % 1006,7 hPa 0,0 mm 11,7 km/h (2 Bft) SO 138 ° 1 min 0,000 mm 3,1 UV-I 445 W/m² 2,3 °C 16,3 °C 22,5 km/h (4 Bft)
03.04.2018 11:24 16,2 °C 36 % 1006,6 hPa 0,0 mm 8,3 km/h (2 Bft) NO 42 ° 1 min 0,000 mm 2,9 UV-I 413 W/m² 1,1 °C 16,2 °C 12,9 km/h (3 Bft)
03.04.2018 11:25 16,2 °C 38 % 1006,5 hPa 0,0 mm 7,8 km/h (2 Bft) S-SO 159 ° 1 min 0,000 mm 3,0 UV-I 446 W/m² 1,9 °C 16,2 °C 11,3 km/h (2 Bft)
03.04.2018 11:26 16,2 °C 36 % 1006,6 hPa 0,0 mm 9,0 km/h (2 Bft) SO 141 ° 1 min 0,000 mm 3,0 UV-I 439 W/m² 1,1 °C 16,2 °C 12,9 km/h (3 Bft)
03.04.2018 11:27 16,2 °C 38 % 1006,6 hPa 0,0 mm 4,9 km/h (1 Bft) O-NO 67 ° 1 min 0,000 mm 3,0 UV-I 418 W/m² 1,9 °C 16,2 °C 8,0 km/h (2 Bft)
03.04.2018 11:28 16,2 °C 38 % 1006,6 hPa 0,0 mm 8,0 km/h (2 Bft) O-NO 59 ° 1 min 0,000 mm 3,0 UV-I 429 W/m² 1,9 °C 16,2 °C 11,3 km/h (2 Bft)
03.04.2018 11:29 16,2 °C 39 % 1006,6 hPa 0,0 mm 7,1 km/h (2 Bft) O 91 ° 1 min 0,000 mm 2,9 UV-I 411 W/m² 2,2 °C 16,2 °C 11,3 km/h (2 Bft)
03.04.2018 11:30 16,2 °C 39 % 1006,6 hPa 0,0 mm 4,5 km/h (1 Bft) N 355 ° 1 min 0,000 mm 2,9 UV-I 394 W/m² 2,2 °C 16,2 °C 11,3 km/h (2 Bft)
03.04.2018 11:31 16,2 °C 40 % 1006,6 hPa 0,0 mm 4,3 km/h (1 Bft) O-NO 59 ° 1 min 0,000 mm 2,8 UV-I 390 W/m² 2,6 °C 16,2 °C 6,4 km/h (2 Bft)
03.04.2018 11:32 16,2 °C 38 % 1006,6 hPa 0,0 mm 1,9 km/h (1 Bft) O-NO 61 ° 1 min 0,000 mm 2,8 UV-I 392 W/m² 1,9 °C 16,2 °C 3,2 km/h (1 Bft)
03.04.2018 11:33 16,3 °C 43 % 1006,6 hPa 0,0 mm 2,8 km/h (1 Bft) SO 144 ° 1 min 0,000 mm 2,7 UV-I 371 W/m² 3,7 °C 16,3 °C 6,4 km/h (2 Bft)
03.04.2018 11:34 16,4 °C 37 % 1006,5 hPa 0,0 mm 4,0 km/h (1 Bft) S-SW 210 ° 1 min 0,000 mm 2,7 UV-I 374 W/m² 1,7 °C 16,4 °C 8,0 km/h (2 Bft)
03.04.2018 11:35 16,3 °C 37 % 1006,6 hPa 0,0 mm 4,1 km/h (1 Bft) S-SO 162 ° 1 min 0,000 mm 2,7 UV-I 374 W/m² 1,6 °C 16,3 °C 8,0 km/h (2 Bft)
03.04.2018 11:36 16,4 °C 40 % 1006,6 hPa 0,0 mm 4,3 km/h (1 Bft) S-SO 152 ° 1 min 0,000 mm 2,7 UV-I 378 W/m² 2,8 °C 16,4 °C 6,4 km/h (2 Bft)
03.04.2018 11:37 16,3 °C 36 % 1006,6 hPa 0,0 mm 3,2 km/h (1 Bft) NO 40 ° 1 min 0,000 mm 2,7 UV-I 364 W/m² 1,2 °C 16,3 °C 4,8 km/h (1 Bft)
03.04.2018 11:38 16,3 °C 38 % 1006,5 hPa 0,0 mm 1,1 km/h (1 Bft) NO 40 ° 1 min 0,000 mm 2,7 UV-I 346 W/m² 2,0 °C 16,3 °C 3,2 km/h (1 Bft)
03.04.2018 11:39 16,3 °C 38 % 1006,5 hPa 0,0 mm 1,8 km/h (1 Bft) W-NW 299 ° 1 min 0,000 mm 2,5 UV-I 336 W/m² 2,0 °C 16,3 °C 4,8 km/h (1 Bft)
03.04.2018 11:40 16,3 °C 41 % 1006,5 hPa 0,0 mm 4,3 km/h (1 Bft) S-SW 206 ° 1 min 0,000 mm 2,6 UV-I 343 W/m² 3,0 °C 16,3 °C 4,8 km/h (1 Bft)
03.04.2018 11:41 16,3 °C 39 % 1006,6 hPa 0,0 mm 3,6 km/h (1 Bft) S-SW 194 ° 1 min 0,000 mm 2,6 UV-I 353 W/m² 2,3 °C 16,3 °C 6,4 km/h (2 Bft)
03.04.2018 11:42 16,4 °C 44 % 1006,6 hPa 0,0 mm 1,5 km/h (1 Bft) SW 236 ° 1 min 0,000 mm 2,8 UV-I 374 W/m² 4,1 °C 16,4 °C 4,8 km/h (1 Bft)
03.04.2018 11:43 16,3 °C 45 % 1006,6 hPa 0,0 mm 2,8 km/h (1 Bft) N-NO 17 ° 1 min 0,000 mm 3,1 UV-I 441 W/m² 4,3 °C 16,3 °C 6,4 km/h (2 Bft)
03.04.2018 11:44 16,4 °C 41 % 1006,6 hPa 0,0 mm 2,7 km/h (1 Bft) N 5 ° 1 min 0,000 mm 3,4 UV-I 506 W/m² 3,1 °C 16,4 °C 4,8 km/h (1 Bft)
03.04.2018 11:45 16,5 °C 39 % 1006,5 hPa 0,0 mm 7,4 km/h (2 Bft) O-SO 119 ° 1 min 0,000 mm 3,5 UV-I 534 W/m² 2,5 °C 16,5 °C 19,3 km/h (3 Bft)
03.04.2018 11:46 16,5 °C 36 % 1006,6 hPa 0,0 mm 5,9 km/h (2 Bft) W-SW 250 ° 1 min 0,000 mm 3,6 UV-I 547 W/m² 1,4 °C 16,5 °C 14,5 km/h (3 Bft)
03.04.2018 11:47 16,5 °C 39 % 1006,6 hPa 0,0 mm 5,1 km/h (1 Bft) N 351 ° 1 min 0,000 mm 3,4 UV-I 494 W/m² 2,5 °C 16,5 °C 9,7 km/h (2 Bft)
03.04.2018 11:48 16,6 °C 38 % 1006,6 hPa 0,0 mm 3,1 km/h (1 Bft) N 355 ° 1 min 0,000 mm 3,3 UV-I 462 W/m² 2,2 °C 16,6 °C 4,8 km/h (1 Bft)
03.04.2018 11:49 16,6 °C 38 % 1006,6 hPa 0,0 mm 2,6 km/h (1 Bft) W-NW 302 ° 1 min 0,000 mm 3,3 UV-I 448 W/m² 2,2 °C 16,6 °C 8,0 km/h (2 Bft)
03.04.2018 11:50 16,7 °C 39 % 1006,6 hPa 0,0 mm 2,5 km/h (1 Bft) N 9 ° 1 min 0,000 mm 3,0 UV-I 427 W/m² 2,7 °C 16,7 °C 4,8 km/h (1 Bft)
03.04.2018 11:51 16,7 °C 40 % 1006,6 hPa 0,0 mm 6,1 km/h (2 Bft) NW 304 ° 1 min 0,000 mm 3,2 UV-I 418 W/m² 3,0 °C 16,7 °C 16,1 km/h (3 Bft)
03.04.2018 11:52 16,6 °C 36 % 1006,5 hPa 0,0 mm 3,5 km/h (1 Bft) N-NW 347 ° 1 min 0,000 mm 3,4 UV-I 434 W/m² 1,5 °C 16,6 °C 12,9 km/h (3 Bft)
03.04.2018 11:53 16,6 °C 35 % 1006,6 hPa 0,0 mm 0,9 km/h (0 Bft) N-NW 347 ° 1 min 0,000 mm 3,5 UV-I 485 W/m² 1,1 °C 16,6 °C 3,2 km/h (1 Bft)
03.04.2018 11:54 16,6 °C 39 % 1006,6 hPa 0,0 mm 1,4 km/h (1 Bft) NO 44 ° 1 min 0,000 mm 3,3 UV-I 448 W/m² 2,6 °C 16,6 °C 3,2 km/h (1 Bft)
03.04.2018 11:55 16,8 °C 39 % 1006,6 hPa 0,0 mm 2,7 km/h (1 Bft) NO 45 ° 1 min 0,000 mm 3,7 UV-I 510 W/m² 2,8 °C 16,8 °C 6,4 km/h (2 Bft)
03.04.2018 11:56 16,9 °C 41 % 1006,6 hPa 0,0 mm 2,0 km/h (1 Bft) N-NO 18 ° 1 min 0,000 mm 3,8 UV-I 582 W/m² 3,6 °C 16,9 °C 3,2 km/h (1 Bft)
03.04.2018 11:57 17,1 °C 39 % 1006,6 hPa 0,0 mm 1,5 km/h (1 Bft) N 351 ° 1 min 0,000 mm 3,7 UV-I 533 W/m² 3,0 °C 17,1 °C 4,8 km/h (1 Bft)
03.04.2018 11:58 17,1 °C 35 % 1006,6 hPa 0,0 mm 2,1 km/h (1 Bft) S 188 ° 1 min 0,000 mm 3,8 UV-I 526 W/m² 1,5 °C 17,1 °C 4,8 km/h (1 Bft)
03.04.2018 11:59 17,0 °C 38 % 1006,6 hPa 0,0 mm 1,7 km/h (1 Bft) N-NW 327 ° 1 min 0,000 mm 3,7 UV-I 529 W/m² 2,6 °C 17,0 °C 3,2 km/h (1 Bft)
03.04.2018 12:00 17,0 °C 36 % 1006,6 hPa 0,0 mm 3,2 km/h (1 Bft) O-NO 72 ° 1 min 0,279 mm 3,5 UV-I 489 W/m² 1,8 °C 17,0 °C 4,8 km/h (1 Bft)
03.04.2018 12:01 17,0 °C 33 % 1006,6 hPa 0,0 mm 3,9 km/h (1 Bft) NW 313 ° 1 min 0,000 mm 3,3 UV-I 441 W/m² 0,6 °C 17,0 °C 8,0 km/h (2 Bft)
03.04.2018 12:02 16,9 °C 37 % 1006,6 hPa 0,0 mm 1,3 km/h (1 Bft) SW 217 ° 1 min 0,000 mm 3,5 UV-I 473 W/m² 2,1 °C 16,9 °C 3,2 km/h (1 Bft)
03.04.2018 12:03 16,9 °C 36 % 1006,6 hPa 0,0 mm 1,0 km/h (0 Bft) NW 325 ° 1 min 0,000 mm 3,4 UV-I 457 W/m² 1,7 °C 16,9 °C 3,2 km/h (1 Bft)
03.04.2018 12:04 17,0 °C 35 % 1006,5 hPa 0,0 mm 3,0 km/h (1 Bft) N-NW 339 ° 1 min 0,000 mm 3,2 UV-I 417 W/m² 1,4 °C 17,0 °C 8,0 km/h (2 Bft)
03.04.2018 12:05 17,0 °C 33 % 1006,5 hPa 0,0 mm 1,7 km/h (1 Bft) SW 215 ° 1 min 0,000 mm 3,2 UV-I 415 W/m² 0,6 °C 17,0 °C 3,2 km/h (1 Bft)
03.04.2018 12:06 16,9 °C 35 % 1006,5 hPa 0,0 mm 4,5 km/h (1 Bft) O 90 ° 1 min 0,000 mm 3,1 UV-I 394 W/m² 1,3 °C 16,9 °C 9,7 km/h (2 Bft)
03.04.2018 12:07 16,9 °C 36 % 1006,5 hPa 0,0 mm 5,3 km/h (1 Bft) O 84 ° 1 min 0,000 mm 3,0 UV-I 371 W/m² 1,7 °C 16,9 °C 12,9 km/h (3 Bft)
03.04.2018 12:08 16,8 °C 36 % 1006,5 hPa 0,0 mm 2,7 km/h (1 Bft) S-SO 165 ° 1 min 0,000 mm 3,0 UV-I 364 W/m² 1,7 °C 16,8 °C 8,0 km/h (2 Bft)
03.04.2018 12:09 16,8 °C 35 % 1006,6 hPa 0,0 mm 0,6 km/h (0 Bft) O-NO 75 ° 1 min 0,000 mm 2,9 UV-I 357 W/m² 1,3 °C 16,8 °C 3,2 km/h (1 Bft)
03.04.2018 12:10 16,8 °C 37 % 1006,5 hPa 0,0 mm 8,7 km/h (2 Bft) O-NO 75 ° 1 min 0,000 mm 2,9 UV-I 366 W/m² 2,0 °C 16,8 °C 14,5 km/h (3 Bft)
03.04.2018 12:11 16,7 °C 35 % 1006,6 hPa 0,0 mm 4,0 km/h (1 Bft) NO 53 ° 1 min 0,000 mm 2,9 UV-I 367 W/m² 1,2 °C 16,7 °C 6,4 km/h (2 Bft)
03.04.2018 12:12 16,7 °C 37 % 1006,6 hPa 0,0 mm 1,9 km/h (1 Bft) S-SO 148 ° 1 min 0,000 mm 3,0 UV-I 383 W/m² 1,9 °C 16,7 °C 3,2 km/h (1 Bft)
03.04.2018 12:13 16,7 °C 36 % 1006,6 hPa 0,0 mm 4,4 km/h (1 Bft) O-NO 76 ° 1 min 0,000 mm 3,1 UV-I 431 W/m² 1,6 °C 16,7 °C 8,0 km/h (2 Bft)
03.04.2018 12:14 16,8 °C 40 % 1006,5 hPa 0,0 mm 7,6 km/h (2 Bft) O-SO 103 ° 1 min 0,000 mm 3,2 UV-I 436 W/m² 3,1 °C 16,8 °C 9,7 km/h (2 Bft)
03.04.2018 12:15 16,8 °C 41 % 1006,5 hPa 0,0 mm 4,1 km/h (1 Bft) O-NO 78 ° 1 min 0,000 mm 3,3 UV-I 455 W/m² 3,5 °C 16,8 °C 6,4 km/h (2 Bft)
03.04.2018 12:16 16,8 °C 37 % 1006,5 hPa 0,0 mm 1,7 km/h (1 Bft) O-NO 78 ° 1 min 0,000 mm 3,4 UV-I 462 W/m² 2,0 °C 16,8 °C 3,2 km/h (1 Bft)
03.04.2018 12:17 16,9 °C 36 % 1006,5 hPa 0,0 mm 4,2 km/h (1 Bft) O-NO 68 ° 1 min 0,000 mm 3,3 UV-I 454 W/m² 1,7 °C 16,9 °C 6,4 km/h (2 Bft)
03.04.2018 12:18 16,9 °C 38 % 1006,4 hPa 0,0 mm 4,2 km/h (1 Bft) NO 46 ° 1 min 0,000 mm 3,2 UV-I 441 W/m² 2,5 °C 16,9 °C 6,4 km/h (2 Bft)
03.04.2018 12:19 16,8 °C 36 % 1006,4 hPa 0,0 mm 3,8 km/h (1 Bft) O 98 ° 1 min 0,000 mm 3,2 UV-I 424 W/m² 1,7 °C 16,8 °C 6,4 km/h (2 Bft)
03.04.2018 12:20 16,8 °C 36 % 1006,5 hPa 0,0 mm 2,7 km/h (1 Bft) NO 53 ° 1 min 0,000 mm 3,2 UV-I 424 W/m² 1,7 °C 16,8 °C 4,8 km/h (1 Bft)
03.04.2018 12:21 16,8 °C 38 % 1006,4 hPa 0,0 mm 7,4 km/h (2 Bft) O-NO 78 ° 1 min 0,000 mm 3,2 UV-I 424 W/m² 2,4 °C 16,8 °C 12,9 km/h (3 Bft)
03.04.2018 12:22 16,8 °C 37 % 1006,4 hPa 0,0 mm 14,2 km/h (3 Bft) SO 134 ° 1 min 0,000 mm 3,2 UV-I 424 W/m² 2,0 °C 16,8 °C 17,7 km/h (3 Bft)
03.04.2018 12:23 16,8 °C 36 % 1006,4 hPa 0,0 mm 6,4 km/h (2 Bft) O 88 ° 1 min 0,000 mm 3,3 UV-I 427 W/m² 1,7 °C 16,8 °C 8,0 km/h (2 Bft)
03.04.2018 12:24 16,7 °C 37 % 1006,4 hPa 0,0 mm 6,5 km/h (2 Bft) O-SO 120 ° 1 min 0,000 mm 3,5 UV-I 462 W/m² 1,9 °C 16,7 °C 11,3 km/h (2 Bft)
03.04.2018 12:25 16,7 °C 36 % 1006,4 hPa 0,0 mm 3,8 km/h (1 Bft) O-NO 57 ° 1 min 0,000 mm 3,8 UV-I 526 W/m² 1,6 °C 16,7 °C 6,4 km/h (2 Bft)
03.04.2018 12:26 16,7 °C 36 % 1006,4 hPa 0,0 mm 5,3 km/h (1 Bft) O-NO 59 ° 1 min 0,000 mm 3,9 UV-I 570 W/m² 1,6 °C 16,7 °C 6,4 km/h (2 Bft)
03.04.2018 12:27 16,8 °C 37 % 1006,5 hPa 0,0 mm 4,4 km/h (1 Bft) O 86 ° 1 min 0,000 mm 4,0 UV-I 584 W/m² 2,0 °C 16,8 °C 6,4 km/h (2 Bft)
03.04.2018 12:28 16,9 °C 37 % 1006,5 hPa 0,0 mm 3,1 km/h (1 Bft) O-SO 119 ° 1 min 0,000 mm 4,0 UV-I 606 W/m² 2,1 °C 16,9 °C 4,8 km/h (1 Bft)
03.04.2018 12:29 16,9 °C 37 % 1006,4 hPa 0,0 mm 3,4 km/h (1 Bft) N-NO 19 ° 1 min 0,000 mm 4,1 UV-I 591 W/m² 2,1 °C 16,9 °C 8,0 km/h (2 Bft)
03.04.2018 12:30 17,2 °C 37 % 1006,4 hPa 0,0 mm 5,4 km/h (1 Bft) NO 49 ° 1 min 0,000 mm 4,3 UV-I 612 W/m² 2,4 °C 17,2 °C 8,0 km/h (2 Bft)
03.04.2018 12:31 17,3 °C 37 % 1006,4 hPa 0,0 mm 3,2 km/h (1 Bft) NO 51 ° 1 min 0,000 mm 4,3 UV-I 652 W/m² 2,5 °C 17,3 °C 4,8 km/h (1 Bft)
03.04.2018 12:32 17,4 °C 39 % 1006,4 hPa 0,0 mm 2,3 km/h (1 Bft) NO 36 ° 1 min 0,000 mm 4,3 UV-I 631 W/m² 3,3 °C 17,4 °C 3,2 km/h (1 Bft)
03.04.2018 12:33 17,5 °C 36 % 1006,3 hPa 0,0 mm 5,3 km/h (1 Bft) W-SW 256 ° 1 min 0,000 mm 4,3 UV-I 621 W/m² 2,3 °C 17,5 °C 11,3 km/h (2 Bft)
03.04.2018 12:34 17,6 °C 37 % 1006,4 hPa 0,0 mm 6,9 km/h (2 Bft) S 176 ° 1 min 0,000 mm 4,4 UV-I 645 W/m² 2,7 °C 17,6 °C 11,3 km/h (2 Bft)
03.04.2018 12:35 17,7 °C 35 % 1006,4 hPa 0,0 mm 4,8 km/h (1 Bft) W-SW 249 ° 1 min 0,000 mm 4,4 UV-I 659 W/m² 2,1 °C 17,7 °C 8,0 km/h (2 Bft)
03.04.2018 12:36 17,7 °C 33 % 1006,3 hPa 0,0 mm 5,1 km/h (1 Bft) S-SW 211 ° 1 min 0,000 mm 4,2 UV-I 605 W/m² 1,2 °C 17,7 °C 8,0 km/h (2 Bft)
03.04.2018 12:37 17,7 °C 35 % 1006,4 hPa 0,0 mm 3,2 km/h (1 Bft) O 82 ° 1 min 0,000 mm 4,3 UV-I 619 W/m² 2,1 °C 17,7 °C 4,8 km/h (1 Bft)
03.04.2018 12:38 17,8 °C 37 % 1006,3 hPa 0,0 mm 2,1 km/h (1 Bft) O 96 ° 1 min 0,000 mm 3,9 UV-I 522 W/m² 2,9 °C 17,8 °C 4,8 km/h (1 Bft)
03.04.2018 12:39 17,7 °C 34 % 1006,3 hPa 0,0 mm 3,4 km/h (1 Bft) NO 51 ° 1 min 0,000 mm 3,8 UV-I 504 W/m² 1,6 °C 17,7 °C 4,8 km/h (1 Bft)
03.04.2018 12:40 17,8 °C 34 % 1006,3 hPa 0,0 mm 1,7 km/h (1 Bft) O-SO 107 ° 1 min 0,000 mm 3,7 UV-I 490 W/m² 1,7 °C 17,8 °C 4,8 km/h (1 Bft)
03.04.2018 12:41 17,8 °C 33 % 1006,3 hPa 0,0 mm 5,9 km/h (2 Bft) S-SW 206 ° 1 min 0,000 mm 3,9 UV-I 531 W/m² 1,3 °C 17,8 °C 9,7 km/h (2 Bft)
03.04.2018 12:42 17,7 °C 34 % 1006,3 hPa 0,0 mm 1,5 km/h (1 Bft) SW 224 ° 1 min 0,000 mm 4,1 UV-I 584 W/m² 1,6 °C 17,7 °C 3,2 km/h (1 Bft)
03.04.2018 12:43 17,6 °C 34 % 1006,2 hPa 0,0 mm 1,2 km/h (1 Bft) S-SW 198 ° 1 min 0,000 mm 4,0 UV-I 545 W/m² 1,6 °C 17,6 °C 3,2 km/h (1 Bft)
03.04.2018 12:44 17,6 °C 34 % 1006,2 hPa 0,0 mm 1,5 km/h (1 Bft) S-SW 204 ° 1 min 0,000 mm 3,9 UV-I 541 W/m² 1,6 °C 17,6 °C 3,2 km/h (1 Bft)
03.04.2018 12:45 17,6 °C 35 % 1006,2 hPa 0,0 mm 7,0 km/h (2 Bft) S 178 ° 1 min 0,000 mm 3,8 UV-I 526 W/m² 2,0 °C 17,6 °C 14,5 km/h (3 Bft)
03.04.2018 12:46 17,6 °C 32 % 1006,2 hPa 0,0 mm 7,8 km/h (2 Bft) S-SW 206 ° 1 min 0,000 mm 3,8 UV-I 522 W/m² 0,7 °C 17,6 °C 14,5 km/h (3 Bft)
03.04.2018 12:47 17,6 °C 36 % 1006,1 hPa 0,0 mm 3,5 km/h (1 Bft) SW 221 ° 1 min 0,000 mm 3,6 UV-I 490 W/m² 2,4 °C 17,6 °C 8,0 km/h (2 Bft)
03.04.2018 12:48 17,7 °C 35 % 1006,1 hPa 0,0 mm 4,1 km/h (1 Bft) W 259 ° 1 min 0,000 mm 3,1 UV-I 401 W/m² 2,1 °C 17,7 °C 11,3 km/h (2 Bft)
03.04.2018 12:49 17,6 °C 35 % 1006,2 hPa 0,0 mm 5,1 km/h (1 Bft) W-SW 257 ° 1 min 0,000 mm 3,1 UV-I 306 W/m² 2,0 °C 17,6 °C 11,3 km/h (2 Bft)
03.04.2018 12:50 17,6 °C 34 % 1006,1 hPa 0,0 mm 6,6 km/h (2 Bft) SW 236 ° 1 min 0,000 mm 3,5 UV-I 457 W/m² 1,6 °C 17,6 °C 11,3 km/h (2 Bft)
03.04.2018 12:51 17,5 °C 34 % 1006,1 hPa 0,0 mm 5,4 km/h (1 Bft) SW 219 ° 1 min 0,000 mm 3,6 UV-I 459 W/m² 1,5 °C 17,5 °C 9,7 km/h (2 Bft)
03.04.2018 12:52 17,4 °C 35 % 1006,1 hPa 0,0 mm 6,0 km/h (2 Bft) SW 224 ° 1 min 0,000 mm 3,8 UV-I 510 W/m² 1,8 °C 17,4 °C 12,9 km/h (3 Bft)
03.04.2018 12:53 17,4 °C 34 % 1006,1 hPa 0,0 mm 2,3 km/h (1 Bft) S-SW 211 ° 1 min 0,000 mm 3,3 UV-I 417 W/m² 1,4 °C 17,4 °C 6,4 km/h (2 Bft)
03.04.2018 12:54 17,3 °C 34 % 1006,1 hPa 0,0 mm 5,5 km/h (1 Bft) W-NW 286 ° 1 min 0,000 mm 3,3 UV-I 367 W/m² 1,3 °C 17,3 °C 9,7 km/h (2 Bft)
03.04.2018 12:55 17,4 °C 36 % 1006,0 hPa 0,0 mm 5,2 km/h (1 Bft) SW 227 ° 1 min 0,000 mm 3,6 UV-I 454 W/m² 2,2 °C 17,4 °C 9,7 km/h (2 Bft)
03.04.2018 12:56 17,4 °C 36 % 1006,0 hPa 0,0 mm 7,0 km/h (2 Bft) W-SW 246 ° 1 min 0,000 mm 3,3 UV-I 411 W/m² 2,2 °C 17,4 °C 14,5 km/h (3 Bft)
03.04.2018 12:57 17,4 °C 35 % 1006,0 hPa 0,0 mm 5,7 km/h (1 Bft) SW 223 ° 1 min 0,000 mm 3,1 UV-I 355 W/m² 1,8 °C 17,4 °C 11,3 km/h (2 Bft)
03.04.2018 12:58 17,3 °C 36 % 1006,0 hPa 0,0 mm 6,1 km/h (2 Bft) S-SW 194 ° 1 min 0,000 mm 2,9 UV-I 339 W/m² 2,1 °C 17,3 °C 9,7 km/h (2 Bft)
03.04.2018 12:59 17,3 °C 34 % 1006,0 hPa 0,0 mm 0,3 km/h (0 Bft) W 267 ° 0 min 0,000 mm 2,6 UV-I 281 W/m² 1,3 °C 17,3 °C 1,6 km/h (1 Bft)
03.04.2018 13:00 17,2 °C 36 % 1006,0 hPa 0,0 mm 1,1 km/h (1 Bft) W 259 ° 0 min 0,000 mm 2,5 UV-I 262 W/m² 2,0 °C 17,2 °C 3,2 km/h (1 Bft)
03.04.2018 13:01 17,2 °C 37 % 1005,8 hPa 0,0 mm 1,9 km/h (1 Bft) N-NW 330 ° 1 min 0,305 mm 2,7 UV-I 297 W/m² 2,4 °C 17,2 °C 4,8 km/h (1 Bft)
03.04.2018 13:02 17,2 °C 36 % 1005,8 hPa 0,0 mm 0,8 km/h (0 Bft) N-NW 339 ° 1 min 0,000 mm 2,6 UV-I 290 W/m² 2,0 °C 17,2 °C 3,2 km/h (1 Bft)
03.04.2018 13:03 17,2 °C 36 % 1005,8 hPa 0,0 mm 2,4 km/h (1 Bft) W 264 ° 1 min 0,000 mm 2,7 UV-I 315 W/m² 2,0 °C 17,2 °C 4,8 km/h (1 Bft)
03.04.2018 13:04 17,2 °C 37 % 1005,8 hPa 0,0 mm 6,8 km/h (2 Bft) SW 235 ° 0 min 0,000 mm 2,6 UV-I 281 W/m² 2,4 °C 17,2 °C 11,3 km/h (2 Bft)
03.04.2018 13:05 17,1 °C 34 % 1005,9 hPa 0,0 mm 7,1 km/h (2 Bft) W 273 ° 1 min 0,000 mm 2,7 UV-I 294 W/m² 1,1 °C 17,1 °C 9,7 km/h (2 Bft)
03.04.2018 13:06 17,0 °C 35 % 1005,9 hPa 0,0 mm 5,0 km/h (1 Bft) W-SW 247 ° 1 min 0,000 mm 2,9 UV-I 374 W/m² 1,4 °C 17,0 °C 8,0 km/h (2 Bft)
03.04.2018 13:07 16,9 °C 34 % 1005,9 hPa 0,0 mm 4,2 km/h (1 Bft) SW 232 ° 1 min 0,000 mm 3,0 UV-I 345 W/m² 0,9 °C 16,9 °C 6,4 km/h (2 Bft)
03.04.2018 13:08 16,9 °C 36 % 1006,0 hPa 0,0 mm 7,4 km/h (2 Bft) W-SW 258 ° 1 min 0,000 mm 3,0 UV-I 359 W/m² 1,7 °C 16,9 °C 12,9 km/h (3 Bft)
03.04.2018 13:09 16,9 °C 38 % 1005,9 hPa 0,0 mm 5,2 km/h (1 Bft) SW 233 ° 1 min 0,000 mm 3,2 UV-I 376 W/m² 2,5 °C 16,9 °C 8,0 km/h (2 Bft)
03.04.2018 13:10 17,0 °C 35 % 1005,9 hPa 0,0 mm 7,4 km/h (2 Bft) SW 229 ° 1 min 0,000 mm 3,6 UV-I 417 W/m² 1,4 °C 17,0 °C 14,5 km/h (3 Bft)
03.04.2018 13:11 17,0 °C 36 % 1005,9 hPa 0,0 mm 4,3 km/h (1 Bft) W-SW 246 ° 1 min 0,000 mm 3,9 UV-I 483 W/m² 1,8 °C 17,0 °C 8,0 km/h (2 Bft)
03.04.2018 13:12 17,2 °C 39 % 1005,9 hPa 0,0 mm 1,3 km/h (1 Bft) W-SW 255 ° 1 min 0,000 mm 4,3 UV-I 712 W/m² 3,1 °C 17,2 °C 3,2 km/h (1 Bft)
03.04.2018 13:13 17,4 °C 39 % 1005,9 hPa 0,0 mm 1,8 km/h (1 Bft) W-SW 255 ° 1 min 0,000 mm 5,0 UV-I 759 W/m² 3,3 °C 17,4 °C 3,2 km/h (1 Bft)
03.04.2018 13:14 17,7 °C 41 % 1005,9 hPa 0,0 mm 4,5 km/h (1 Bft) W 259 ° 1 min 0,000 mm 5,4 UV-I 854 W/m² 4,3 °C 17,7 °C 12,9 km/h (3 Bft)
03.04.2018 13:15 17,9 °C 36 % 1005,9 hPa 0,0 mm 3,8 km/h (1 Bft) W-SW 240 ° 1 min 0,000 mm 5,3 UV-I 837 W/m² 2,6 °C 17,9 °C 8,0 km/h (2 Bft)
03.04.2018 13:16 18,1 °C 36 % 1005,8 hPa 0,0 mm 5,1 km/h (1 Bft) W 272 ° 1 min 0,000 mm 5,7 UV-I 877 W/m² 2,8 °C 18,1 °C 6,4 km/h (2 Bft)
03.04.2018 13:17 18,2 °C 36 % 1005,8 hPa 0,0 mm 7,1 km/h (2 Bft) W-SW 244 ° 1 min 0,000 mm 5,7 UV-I 909 W/m² 2,9 °C 18,2 °C 9,7 km/h (2 Bft)
03.04.2018 13:18 18,3 °C 35 % 1005,7 hPa 0,0 mm 6,8 km/h (2 Bft) S-SW 211 ° 1 min 0,000 mm 6,1 UV-I 963 W/m² 2,6 °C 18,3 °C 11,3 km/h (2 Bft)
03.04.2018 13:19 18,4 °C 33 % 1005,7 hPa 0,0 mm 5,0 km/h (1 Bft) SO 142 ° 1 min 0,000 mm 5,1 UV-I 729 W/m² 1,8 °C 18,4 °C 8,0 km/h (2 Bft)
03.04.2018 13:20 18,2 °C 34 % 1005,7 hPa 0,0 mm 4,8 km/h (1 Bft) S-SW 208 ° 1 min 0,000 mm 5,0 UV-I 770 W/m² 2,1 °C 18,2 °C 12,9 km/h (3 Bft)
03.04.2018 13:21 18,1 °C 31 % 1005,6 hPa 0,0 mm 10,5 km/h (2 Bft) SW 225 ° 1 min 0,000 mm 4,9 UV-I 698 W/m² 0,7 °C 18,1 °C 17,7 km/h (3 Bft)
03.04.2018 13:22 18,2 °C 34 % 1005,6 hPa 0,0 mm 2,3 km/h (1 Bft) W-NW 284 ° 1 min 0,000 mm 4,9 UV-I 733 W/m² 2,1 °C 18,2 °C 6,4 km/h (2 Bft)
03.04.2018 13:23 18,3 °C 34 % 1005,6 hPa 0,0 mm 7,1 km/h (2 Bft) SW 229 ° 1 min 0,000 mm 4,7 UV-I 687 W/m² 2,2 °C 18,3 °C 11,3 km/h (2 Bft)
03.04.2018 13:24 18,3 °C 37 % 1005,6 hPa 0,0 mm 4,2 km/h (1 Bft) O 88 ° 1 min 0,000 mm 4,9 UV-I 735 W/m² 3,4 °C 18,3 °C 11,3 km/h (2 Bft)
03.04.2018 13:25 18,2 °C 33 % 1005,5 hPa 0,0 mm 6,6 km/h (2 Bft) SW 229 ° 1 min 0,000 mm 4,9 UV-I 701 W/m² 1,7 °C 18,2 °C 11,3 km/h (2 Bft)
03.04.2018 13:26 18,2 °C 32 % 1005,5 hPa 0,0 mm 5,6 km/h (1 Bft) W-SW 246 ° 1 min 0,000 mm 5,2 UV-I 738 W/m² 1,2 °C 18,2 °C 9,7 km/h (2 Bft)
03.04.2018 13:27 18,1 °C 36 % 1005,5 hPa 0,0 mm 4,2 km/h (1 Bft) W 273 ° 1 min 0,000 mm 5,2 UV-I 786 W/m² 2,8 °C 18,1 °C 9,7 km/h (2 Bft)
03.04.2018 13:28 18,3 °C 36 % 1005,5 hPa 0,0 mm 0,6 km/h (0 Bft) W 271 ° 1 min 0,000 mm 5,2 UV-I 789 W/m² 3,0 °C 18,3 °C 3,2 km/h (1 Bft)
03.04.2018 13:29 18,5 °C 32 % 1005,5 hPa 0,0 mm 1,0 km/h (0 Bft) W 277 ° 1 min 0,000 mm 5,0 UV-I 763 W/m² 1,5 °C 18,5 °C 4,8 km/h (1 Bft)
03.04.2018 13:30 18,4 °C 31 % 1005,5 hPa 0,0 mm 6,2 km/h (2 Bft) W-SW 249 ° 1 min 0,000 mm 4,9 UV-I 731 W/m² 1,0 °C 18,4 °C 9,7 km/h (2 Bft)
03.04.2018 13:31 18,6 °C 36 % 1005,5 hPa 0,0 mm 5,1 km/h (1 Bft) W-SW 248 ° 1 min 0,000 mm 4,9 UV-I 693 W/m² 3,2 °C 18,6 °C 8,0 km/h (2 Bft)
03.04.2018 13:32 18,7 °C 35 % 1005,5 hPa 0,0 mm 6,4 km/h (2 Bft) W-SW 254 ° 1 min 0,000 mm 4,9 UV-I 708 W/m² 2,9 °C 18,7 °C 9,7 km/h (2 Bft)
03.04.2018 13:33 18,7 °C 33 % 1005,5 hPa 0,0 mm 3,6 km/h (1 Bft) NW 323 ° 1 min 0,000 mm 5,2 UV-I 796 W/m² 2,1 °C 18,7 °C 6,4 km/h (2 Bft)
03.04.2018 13:34 18,7 °C 32 % 1005,5 hPa 0,0 mm 8,0 km/h (2 Bft) SW 229 ° 1 min 0,000 mm 5,2 UV-I 821 W/m² 1,7 °C 18,7 °C 11,3 km/h (2 Bft)
03.04.2018 13:35 18,7 °C 32 % 1005,6 hPa 0,0 mm 5,4 km/h (1 Bft) W 274 ° 1 min 0,000 mm 5,3 UV-I 714 W/m² 1,7 °C 18,7 °C 8,0 km/h (2 Bft)
03.04.2018 13:36 18,8 °C 33 % 1005,6 hPa 0,0 mm 7,5 km/h (2 Bft) SW 219 ° 1 min 0,000 mm 4,9 UV-I 698 W/m² 2,2 °C 18,8 °C 17,7 km/h (3 Bft)
03.04.2018 13:37 18,6 °C 32 % 1005,5 hPa 0,0 mm 11,3 km/h (2 Bft) W-SW 250 ° 1 min 0,000 mm 5,4 UV-I 780 W/m² 1,6 °C 18,6 °C 17,7 km/h (3 Bft)
03.04.2018 13:38 18,5 °C 31 % 1005,6 hPa 0,0 mm 7,2 km/h (2 Bft) S-SW 194 ° 1 min 0,000 mm 5,4 UV-I 807 W/m² 1,1 °C 18,5 °C 12,9 km/h (3 Bft)
03.04.2018 13:39 18,4 °C 31 % 1005,5 hPa 0,0 mm 6,5 km/h (2 Bft) S-SW 202 ° 1 min 0,000 mm 5,4 UV-I 798 W/m² 1,0 °C 18,4 °C 9,7 km/h (2 Bft)
03.04.2018 13:40 18,4 °C 32 % 1005,6 hPa 0,0 mm 5,5 km/h (1 Bft) SW 221 ° 1 min 0,000 mm 5,4 UV-I 795 W/m² 1,4 °C 18,4 °C 11,3 km/h (2 Bft)
03.04.2018 13:41 18,4 °C 33 % 1005,6 hPa 0,0 mm 2,1 km/h (1 Bft) S 186 ° 1 min 0,000 mm 5,4 UV-I 780 W/m² 1,8 °C 18,4 °C 3,2 km/h (1 Bft)
03.04.2018 13:42 18,4 °C 34 % 1005,5 hPa 0,0 mm 5,1 km/h (1 Bft) W-SW 244 ° 1 min 0,000 mm 5,0 UV-I 728 W/m² 2,3 °C 18,4 °C 12,9 km/h (3 Bft)
03.04.2018 13:43 18,5 °C 33 % 1005,5 hPa 0,0 mm 6,5 km/h (2 Bft) SW 218 ° 1 min 0,000 mm 5,1 UV-I 737 W/m² 1,9 °C 18,5 °C 9,7 km/h (2 Bft)
03.04.2018 13:44 18,4 °C 32 % 1005,5 hPa 0,0 mm 7,2 km/h (2 Bft) W-SW 237 ° 1 min 0,000 mm 4,3 UV-I 737 W/m² 1,4 °C 18,4 °C 11,3 km/h (2 Bft)
03.04.2018 13:45 18,4 °C 32 % 1005,5 hPa 0,0 mm 6,2 km/h (2 Bft) SW 219 ° 1 min 0,000 mm 3,3 UV-I 410 W/m² 1,4 °C 18,4 °C 9,7 km/h (2 Bft)
03.04.2018 13:46 18,3 °C 31 % 1005,6 hPa 0,0 mm 5,5 km/h (1 Bft) SW 220 ° 1 min 0,000 mm 2,9 UV-I 410 W/m² 0,9 °C 18,3 °C 11,3 km/h (2 Bft)
03.04.2018 13:47 18,1 °C 31 % 1005,6 hPa 0,0 mm 2,2 km/h (1 Bft) SW 214 ° 1 min 0,000 mm 2,9 UV-I 352 W/m² 0,7 °C 18,1 °C 6,4 km/h (2 Bft)
03.04.2018 13:48 18,1 °C 32 % 1005,5 hPa 0,0 mm 3,8 km/h (1 Bft) SW 218 ° 1 min 0,000 mm 3,3 UV-I 380 W/m² 1,2 °C 18,1 °C 8,0 km/h (2 Bft)
03.04.2018 13:49 17,9 °C 32 % 1005,6 hPa 0,0 mm 4,3 km/h (1 Bft) W-SW 242 ° 1 min 0,000 mm 3,6 UV-I 478 W/m² 1,0 °C 17,9 °C 8,0 km/h (2 Bft)
03.04.2018 13:50 17,9 °C 32 % 1005,6 hPa 0,0 mm 1,4 km/h (1 Bft) W-SW 251 ° 1 min 0,000 mm 4,2 UV-I 478 W/m² 1,0 °C 17,9 °C 3,2 km/h (1 Bft)
03.04.2018 13:51 18,0 °C 34 % 1005,6 hPa 0,0 mm 1,1 km/h (1 Bft) W-SW 251 ° 1 min 0,000 mm 4,5 UV-I 619 W/m² 1,9 °C 18,0 °C 3,2 km/h (1 Bft)
03.04.2018 13:52 18,1 °C 33 % 1005,6 hPa 0,0 mm 4,8 km/h (1 Bft) W 273 ° 1 min 0,000 mm 4,6 UV-I 619 W/m² 1,6 °C 18,1 °C 9,7 km/h (2 Bft)
03.04.2018 13:53 18,2 °C 33 % 1005,6 hPa 0,0 mm 3,4 km/h (1 Bft) N-NW 336 ° 1 min 0,000 mm 4,5 UV-I 798 W/m² 1,7 °C 18,2 °C 4,8 km/h (1 Bft)
03.04.2018 13:54 18,3 °C 32 % 1005,5 hPa 0,0 mm 3,5 km/h (1 Bft) N 355 ° 1 min 0,000 mm 4,8 UV-I 798 W/m² 1,3 °C 18,3 °C 8,0 km/h (2 Bft)
03.04.2018 13:55 18,4 °C 33 % 1005,5 hPa 0,0 mm 4,1 km/h (1 Bft) NO 37 ° 1 min 0,000 mm 4,0 UV-I 798 W/m² 1,8 °C 18,4 °C 6,4 km/h (2 Bft)
03.04.2018 13:56 18,5 °C 33 % 1005,5 hPa 0,0 mm 3,0 km/h (1 Bft) W 281 ° 1 min 0,000 mm 4,6 UV-I 789 W/m² 1,9 °C 18,5 °C 4,8 km/h (1 Bft)
03.04.2018 13:57 18,6 °C 36 % 1005,6 hPa 0,0 mm 4,5 km/h (1 Bft) W-SW 252 ° 1 min 0,000 mm 4,7 UV-I 717 W/m² 3,2 °C 18,6 °C 6,4 km/h (2 Bft)
03.04.2018 13:58 18,6 °C 34 % 1005,6 hPa 0,0 mm 4,0 km/h (1 Bft) W-SW 245 ° 1 min 0,000 mm 4,8 UV-I 640 W/m² 2,4 °C 18,6 °C 6,4 km/h (2 Bft)
03.04.2018 13:59 18,7 °C 34 % 1005,5 hPa 0,0 mm 6,4 km/h (2 Bft) NW 311 ° 1 min 0,000 mm 4,3 UV-I 587 W/m² 2,5 °C 18,7 °C 14,5 km/h (3 Bft)
03.04.2018 14:00 18,8 °C 33 % 1005,5 hPa 0,0 mm 9,0 km/h (2 Bft) O-NO 65 ° 1 min 0,000 mm 4,9 UV-I 587 W/m² 2,2 °C 18,8 °C 17,7 km/h (3 Bft)
03.04.2018 14:01 18,9 °C 36 % 1005,5 hPa 0,0 mm 6,9 km/h (2 Bft) O-NO 76 ° 1 min 0,407 mm 4,9 UV-I 587 W/m² 3,5 °C 18,9 °C 9,7 km/h (2 Bft)
03.04.2018 14:02 18,9 °C 35 % 1005,4 hPa 0,0 mm 1,6 km/h (1 Bft) O-NO 60 ° 1 min 0,000 mm 4,0 UV-I 473 W/m² 3,1 °C 18,9 °C 4,8 km/h (1 Bft)
03.04.2018 14:03 19,0 °C 34 % 1005,5 hPa 0,0 mm 6,8 km/h (2 Bft) SW 234 ° 1 min 0,000 mm 4,6 UV-I 570 W/m² 2,8 °C 19,0 °C 12,9 km/h (3 Bft)
03.04.2018 14:04 18,9 °C 32 % 1005,5 hPa 0,0 mm 6,2 km/h (2 Bft) SW 222 ° 1 min 0,000 mm 4,2 UV-I 663 W/m² 1,8 °C 18,9 °C 8,0 km/h (2 Bft)
03.04.2018 14:05 18,9 °C 33 % 1005,4 hPa 0,0 mm 6,8 km/h (2 Bft) W 261 ° 1 min 0,000 mm 3,8 UV-I 482 W/m² 2,3 °C 18,9 °C 14,5 km/h (3 Bft)
03.04.2018 14:06 18,8 °C 33 % 1005,4 hPa 0,0 mm 6,5 km/h (2 Bft) S-SW 201 ° 1 min 0,000 mm 4,5 UV-I 529 W/m² 2,2 °C 18,8 °C 11,3 km/h (2 Bft)
03.04.2018 14:07 18,8 °C 33 % 1005,4 hPa 0,0 mm 5,5 km/h (1 Bft) W-NW 285 ° 1 min 0,000 mm 3,9 UV-I 490 W/m² 2,2 °C 18,8 °C 14,5 km/h (3 Bft)
03.04.2018 14:08 18,7 °C 34 % 1005,4 hPa 0,0 mm 3,0 km/h (1 Bft) S 191 ° 1 min 0,000 mm 4,4 UV-I 554 W/m² 2,5 °C 18,7 °C 6,4 km/h (2 Bft)
03.04.2018 14:09 18,7 °C 35 % 1005,4 hPa 0,0 mm 2,7 km/h (1 Bft) W-SW 243 ° 1 min 0,000 mm 4,8 UV-I 554 W/m² 2,9 °C 18,7 °C 4,8 km/h (1 Bft)
03.04.2018 14:10 18,8 °C 35 % 1005,4 hPa 0,0 mm 2,5 km/h (1 Bft) N-NW 338 ° 1 min 0,000 mm 4,8 UV-I 649 W/m² 3,0 °C 18,8 °C 4,8 km/h (1 Bft)
03.04.2018 14:11 18,9 °C 37 % 1005,3 hPa 0,0 mm 4,7 km/h (1 Bft) N 11 ° 1 min 0,000 mm 4,3 UV-I 635 W/m² 3,9 °C 18,9 °C 6,4 km/h (2 Bft)
03.04.2018 14:12 19,1 °C 36 % 1005,3 hPa 0,0 mm 0,5 km/h (0 Bft) N 11 ° 1 min 0,000 mm 4,4 UV-I 635 W/m² 3,7 °C 19,1 °C 3,2 km/h (1 Bft)
03.04.2018 14:13 18,9 °C 31 % 1005,3 hPa 0,0 mm 2,8 km/h (1 Bft) SW 215 ° 1 min 0,000 mm 4,2 UV-I 578 W/m² 1,4 °C 18,9 °C 4,8 km/h (1 Bft)
03.04.2018 14:14 18,8 °C 34 % 1005,3 hPa 0,0 mm 4,0 km/h (1 Bft) NO 53 ° 1 min 0,000 mm 4,2 UV-I 612 W/m² 2,6 °C 18,8 °C 9,7 km/h (2 Bft)
03.04.2018 14:15 18,8 °C 34 % 1005,2 hPa 0,0 mm 5,0 km/h (1 Bft) S-SO 153 ° 1 min 0,000 mm 4,5 UV-I 657 W/m² 2,6 °C 18,8 °C 6,4 km/h (2 Bft)
03.04.2018 14:16 18,8 °C 32 % 1005,3 hPa 0,0 mm 3,2 km/h (1 Bft) O-NO 71 ° 1 min 0,000 mm 4,1 UV-I 564 W/m² 1,8 °C 18,8 °C 4,8 km/h (1 Bft)
03.04.2018 14:17 18,7 °C 33 % 1005,3 hPa 0,0 mm 0,3 km/h (0 Bft) O-NO 71 ° 1 min 0,000 mm 3,7 UV-I 499 W/m² 2,1 °C 18,7 °C 1,6 km/h (1 Bft)
03.04.2018 14:18 18,7 °C 34 % 1005,3 hPa 0,0 mm 0,1 km/h (0 Bft) S-SO 161 ° 1 min 0,000 mm 4,1 UV-I 559 W/m² 2,5 °C 18,7 °C 1,6 km/h (1 Bft)
03.04.2018 14:19 18,8 °C 36 % 1005,3 hPa 0,0 mm 2,6 km/h (1 Bft) O-NO 58 ° 1 min 0,000 mm 4,1 UV-I 580 W/m² 3,4 °C 18,8 °C 4,8 km/h (1 Bft)
03.04.2018 14:20 18,9 °C 33 % 1005,2 hPa 0,0 mm 3,5 km/h (1 Bft) W 280 ° 1 min 0,000 mm 4,2 UV-I 580 W/m² 2,3 °C 18,9 °C 6,4 km/h (2 Bft)
03.04.2018 14:21 18,8 °C 34 % 1005,3 hPa 0,0 mm 4,3 km/h (1 Bft) W-NW 282 ° 1 min 0,000 mm 4,2 UV-I 596 W/m² 2,6 °C 18,8 °C 9,7 km/h (2 Bft)
03.04.2018 14:22 18,8 °C 32 % 1005,3 hPa 0,0 mm 3,7 km/h (1 Bft) W-NW 296 ° 1 min 0,000 mm 4,1 UV-I 578 W/m² 1,8 °C 18,8 °C 8,0 km/h (2 Bft)
03.04.2018 14:23 18,8 °C 35 % 1005,3 hPa 0,0 mm 5,2 km/h (1 Bft) SW 221 ° 1 min 0,000 mm 4,1 UV-I 559 W/m² 3,0 °C 18,8 °C 11,3 km/h (2 Bft)
03.04.2018 14:24 18,8 °C 34 % 1005,2 hPa 0,0 mm 2,8 km/h (1 Bft) S 171 ° 1 min 0,000 mm 4,4 UV-I 601 W/m² 2,6 °C 18,8 °C 4,8 km/h (1 Bft)
03.04.2018 14:25 18,8 °C 35 % 1005,2 hPa 0,0 mm 0,9 km/h (0 Bft) SO 135 ° 1 min 0,000 mm 4,6 UV-I 679 W/m² 3,0 °C 18,8 °C 3,2 km/h (1 Bft)
03.04.2018 14:26 18,9 °C 35 % 1005,2 hPa 0,0 mm 2,9 km/h (1 Bft) NO 51 ° 1 min 0,000 mm 4,6 UV-I 680 W/m² 3,1 °C 18,9 °C 6,4 km/h (2 Bft)
03.04.2018 14:27 19,1 °C 34 % 1005,2 hPa 0,0 mm 5,3 km/h (1 Bft) O-SO 105 ° 1 min 0,000 mm 4,8 UV-I 715 W/m² 2,9 °C 19,1 °C 11,3 km/h (2 Bft)
03.04.2018 14:28 19,1 °C 33 % 1005,1 hPa 0,0 mm 5,8 km/h (2 Bft) O-NO 65 ° 1 min 0,000 mm 4,9 UV-I 673 W/m² 2,5 °C 19,1 °C 11,3 km/h (2 Bft)
03.04.2018 14:29 19,0 °C 33 % 1005,1 hPa 0,0 mm 4,8 km/h (1 Bft) O 90 ° 1 min 0,000 mm 4,0 UV-I 673 W/m² 2,4 °C 19,0 °C 6,4 km/h (2 Bft)
03.04.2018 14:30 18,9 °C 32 % 1005,1 hPa 0,0 mm 4,9 km/h (1 Bft) O-NO 77 ° 1 min 0,000 mm 4,5 UV-I 673 W/m² 1,8 °C 18,9 °C 6,4 km/h (2 Bft)
03.04.2018 14:31 19,0 °C 33 % 1005,1 hPa 0,0 mm 7,2 km/h (2 Bft) O 96 ° 1 min 0,000 mm 4,2 UV-I 612 W/m² 2,4 °C 19,0 °C 14,5 km/h (3 Bft)
03.04.2018 14:32 18,9 °C 32 % 1005,1 hPa 0,0 mm 5,7 km/h (1 Bft) SO 126 ° 1 min 0,000 mm 4,2 UV-I 635 W/m² 1,8 °C 18,9 °C 12,9 km/h (3 Bft)
03.04.2018 14:33 18,8 °C 34 % 1005,1 hPa 0,0 mm 3,9 km/h (1 Bft) O-SO 105 ° 1 min 0,000 mm 4,0 UV-I 591 W/m² 2,6 °C 18,8 °C 9,7 km/h (2 Bft)
03.04.2018 14:34 18,8 °C 33 % 1005,1 hPa 0,0 mm 1,2 km/h (1 Bft) NO 44 ° 1 min 0,000 mm 4,1 UV-I 589 W/m² 2,2 °C 18,8 °C 3,2 km/h (1 Bft)
03.04.2018 14:35 19,0 °C 36 % 1005,1 hPa 0,0 mm 3,5 km/h (1 Bft) NW 323 ° 1 min 0,000 mm 4,4 UV-I 635 W/m² 3,6 °C 19,0 °C 6,4 km/h (2 Bft)
03.04.2018 14:36 19,1 °C 36 % 1005,0 hPa 0,0 mm 2,3 km/h (1 Bft) SO 136 ° 1 min 0,000 mm 4,0 UV-I 635 W/m² 3,7 °C 19,1 °C 3,2 km/h (1 Bft)
03.04.2018 14:37 18,9 °C 31 % 1005,1 hPa 0,0 mm 1,0 km/h (0 Bft) O-SO 112 ° 1 min 0,000 mm 4,1 UV-I 635 W/m² 1,4 °C 18,9 °C 3,2 km/h (1 Bft)
03.04.2018 14:38 18,8 °C 30 % 1005,0 hPa 0,0 mm 1,1 km/h (1 Bft) O-SO 112 ° 1 min 0,000 mm 4,0 UV-I 552 W/m² 0,9 °C 18,8 °C 3,2 km/h (1 Bft)
03.04.2018 14:39 18,8 °C 30 % 1005,0 hPa 0,0 mm 2,6 km/h (1 Bft) O 100 ° 1 min 0,000 mm 4,2 UV-I 642 W/m² 0,9 °C 18,8 °C 3,2 km/h (1 Bft)
03.04.2018 14:40 18,7 °C 31 % 1005,0 hPa 0,0 mm 3,4 km/h (1 Bft) O-NO 69 ° 1 min 0,000 mm 4,4 UV-I 696 W/m² 1,2 °C 18,7 °C 4,8 km/h (1 Bft)
03.04.2018 14:41 18,7 °C 32 % 1004,9 hPa 0,0 mm 2,3 km/h (1 Bft) O-NO 69 ° 1 min 0,000 mm 4,7 UV-I 728 W/m² 1,7 °C 18,7 °C 4,8 km/h (1 Bft)
03.04.2018 14:42 18,7 °C 31 % 1004,9 hPa 0,0 mm 0,8 km/h (0 Bft) O-NO 69 ° 1 min 0,000 mm 4,5 UV-I 733 W/m² 1,2 °C 18,7 °C 1,6 km/h (1 Bft)
03.04.2018 14:43 18,7 °C 33 % 1004,9 hPa 0,0 mm 0,2 km/h (0 Bft) O-NO 65 ° 1 min 0,000 mm 4,5 UV-I 633 W/m² 2,1 °C 18,7 °C 1,6 km/h (1 Bft)
03.04.2018 14:44 18,8 °C 36 % 1004,9 hPa 0,0 mm 1,3 km/h (1 Bft) O-NO 59 ° 1 min 0,000 mm 4,2 UV-I 647 W/m² 3,4 °C 18,8 °C 4,8 km/h (1 Bft)
03.04.2018 14:45 19,1 °C 32 % 1004,8 hPa 0,0 mm 3,9 km/h (1 Bft) W 273 ° 1 min 0,000 mm 3,9 UV-I 663 W/m² 2,0 °C 19,1 °C 9,7 km/h (2 Bft)
03.04.2018 14:46 19,1 °C 31 % 1004,8 hPa 0,0 mm 2,0 km/h (1 Bft) NW 312 ° 1 min 0,000 mm 4,3 UV-I 571 W/m² 1,6 °C 19,1 °C 3,2 km/h (1 Bft)
03.04.2018 14:47 19,0 °C 32 % 1004,8 hPa 0,0 mm 0,5 km/h (0 Bft) NW 315 ° 1 min 0,000 mm 4,4 UV-I 487 W/m² 1,9 °C 19,0 °C 1,6 km/h (1 Bft)
03.04.2018 14:48 19,1 °C 33 % 1004,9 hPa 0,0 mm 1,9 km/h (1 Bft) N-NO 19 ° 1 min 0,000 mm 4,2 UV-I 487 W/m² 2,5 °C 19,1 °C 3,2 km/h (1 Bft)
03.04.2018 14:49 19,1 °C 32 % 1004,8 hPa 0,0 mm 4,3 km/h (1 Bft) N-NO 31 ° 1 min 0,000 mm 3,5 UV-I 487 W/m² 2,0 °C 19,1 °C 6,4 km/h (2 Bft)
03.04.2018 14:50 19,2 °C 33 % 1004,8 hPa 0,0 mm 1,7 km/h (1 Bft) N-NO 20 ° 1 min 0,000 mm 2,8 UV-I 487 W/m² 2,5 °C 19,2 °C 3,2 km/h (1 Bft)
03.04.2018 14:51 19,2 °C 32 % 1004,8 hPa 0,0 mm 1,1 km/h (1 Bft) N-NO 20 ° 1 min 0,000 mm 2,9 UV-I 376 W/m² 2,1 °C 19,2 °C 1,6 km/h (1 Bft)
03.04.2018 14:52 19,2 °C 32 % 1004,8 hPa 0,0 mm 3,5 km/h (1 Bft) N-NW 341 ° 0 min 0,000 mm 2,4 UV-I 227 W/m² 2,1 °C 19,2 °C 4,8 km/h (1 Bft)
03.04.2018 14:53 19,0 °C 32 % 1004,8 hPa 0,0 mm 4,3 km/h (1 Bft) NW 312 ° 0 min 0,000 mm 2,4 UV-I 243 W/m² 1,9 °C 19,0 °C 6,4 km/h (2 Bft)
03.04.2018 14:54 18,9 °C 31 % 1004,8 hPa 0,0 mm 5,7 km/h (1 Bft) NW 306 ° 0 min 0,000 mm 2,5 UV-I 255 W/m² 1,4 °C 18,9 °C 8,0 km/h (2 Bft)
03.04.2018 14:55 18,8 °C 35 % 1004,7 hPa 0,0 mm 3,2 km/h (1 Bft) NW 307 ° 0 min 0,000 mm 3,1 UV-I 255 W/m² 3,0 °C 18,8 °C 4,8 km/h (1 Bft)
03.04.2018 14:56 18,8 °C 34 % 1004,7 hPa 0,0 mm 4,7 km/h (1 Bft) NW 304 ° 1 min 0,000 mm 3,0 UV-I 362 W/m² 2,6 °C 18,8 °C 6,4 km/h (2 Bft)
03.04.2018 14:57 18,9 °C 36 % 1004,7 hPa 0,0 mm 3,2 km/h (1 Bft) W 265 ° 1 min 0,000 mm 3,1 UV-I 348 W/m² 3,5 °C 18,9 °C 6,4 km/h (2 Bft)
03.04.2018 14:58 18,9 °C 34 % 1004,6 hPa 0,0 mm 3,1 km/h (1 Bft) W-SW 239 ° 1 min 0,000 mm 3,4 UV-I 338 W/m² 2,7 °C 18,9 °C 12,9 km/h (3 Bft)
03.04.2018 14:59 18,9 °C 35 % 1004,6 hPa 0,0 mm 7,2 km/h (2 Bft) S-SW 205 ° 0 min 0,000 mm 2,7 UV-I 262 W/m² 3,1 °C 18,9 °C 11,3 km/h (2 Bft)
03.04.2018 15:00 18,8 °C 32 % 1004,6 hPa 0,0 mm 9,2 km/h (2 Bft) W 267 ° 0 min 0,000 mm 2,6 UV-I 246 W/m² 1,8 °C 18,8 °C 14,5 km/h (3 Bft)
03.04.2018 15:01 18,8 °C 33 % 1004,6 hPa 0,0 mm 3,4 km/h (1 Bft) W-SW 248 ° 0 min 0,355 mm 4,1 UV-I 246 W/m² 2,2 °C 18,8 °C 8,0 km/h (2 Bft)
03.04.2018 15:02 18,7 °C 34 % 1004,7 hPa 0,0 mm 5,6 km/h (1 Bft) SW 222 ° 0 min 0,000 mm 4,4 UV-I 246 W/m² 2,5 °C 18,7 °C 8,0 km/h (2 Bft)
03.04.2018 15:03 18,7 °C 34 % 1004,7 hPa 0,0 mm 5,7 km/h (1 Bft) W-SW 238 ° 1 min 0,000 mm 3,8 UV-I 452 W/m² 2,5 °C 18,7 °C 9,7 km/h (2 Bft)
03.04.2018 15:04 18,6 °C 35 % 1004,6 hPa 0,0 mm 6,2 km/h (2 Bft) W 279 ° 0 min 0,000 mm 2,6 UV-I 232 W/m² 2,8 °C 18,6 °C 8,0 km/h (2 Bft)
03.04.2018 15:05 18,6 °C 36 % 1004,7 hPa 0,0 mm 6,9 km/h (2 Bft) W 277 ° 0 min 0,000 mm 4,2 UV-I 232 W/m² 3,2 °C 18,6 °C 11,3 km/h (2 Bft)
03.04.2018 15:06 18,6 °C 35 % 1004,6 hPa 0,0 mm 4,8 km/h (1 Bft) W-NW 295 ° 1 min 0,000 mm 3,3 UV-I 554 W/m² 2,8 °C 18,6 °C 6,4 km/h (2 Bft)
03.04.2018 15:07 18,7 °C 36 % 1004,6 hPa 0,0 mm 3,9 km/h (1 Bft) N 355 ° 1 min 0,000 mm 3,5 UV-I 533 W/m² 3,3 °C 18,7 °C 9,7 km/h (2 Bft)
03.04.2018 15:08 18,7 °C 37 % 1004,6 hPa 0,0 mm 7,5 km/h (2 Bft) S-SW 209 ° 1 min 0,000 mm 3,8 UV-I 519 W/m² 3,7 °C 18,7 °C 12,9 km/h (3 Bft)
03.04.2018 15:09 18,8 °C 34 % 1004,6 hPa 0,0 mm 4,7 km/h (1 Bft) S-SW 211 ° 1 min 0,000 mm 3,8 UV-I 548 W/m² 2,6 °C 18,8 °C 6,4 km/h (2 Bft)
03.04.2018 15:10 18,8 °C 35 % 1004,6 hPa 0,0 mm 9,6 km/h (2 Bft) SW 218 ° 1 min 0,000 mm 4,4 UV-I 710 W/m² 3,0 °C 18,8 °C 14,5 km/h (3 Bft)
03.04.2018 15:11 18,8 °C 33 % 1004,6 hPa 0,0 mm 10,0 km/h (2 Bft) W 277 ° 1 min 0,000 mm 4,3 UV-I 714 W/m² 2,2 °C 18,8 °C 14,5 km/h (3 Bft)
03.04.2018 15:12 18,8 °C 34 % 1004,5 hPa 0,0 mm 9,2 km/h (2 Bft) W-SW 244 ° 1 min 0,000 mm 4,2 UV-I 650 W/m² 2,6 °C 18,8 °C 12,9 km/h (3 Bft)
03.04.2018 15:13 18,8 °C 36 % 1004,5 hPa 0,0 mm 4,7 km/h (1 Bft) NW 315 ° 1 min 0,000 mm 3,5 UV-I 650 W/m² 3,4 °C 18,8 °C 8,0 km/h (2 Bft)
03.04.2018 15:14 18,9 °C 37 % 1004,5 hPa 0,0 mm 2,5 km/h (1 Bft) N-NW 345 ° 1 min 0,000 mm 3,4 UV-I 650 W/m² 3,9 °C 18,9 °C 4,8 km/h (1 Bft)
03.04.2018 15:15 18,9 °C 35 % 1004,4 hPa 0,0 mm 3,4 km/h (1 Bft) NO 38 ° 1 min 0,000 mm 3,1 UV-I 390 W/m² 3,1 °C 18,9 °C 6,4 km/h (2 Bft)
03.04.2018 15:16 18,9 °C 35 % 1004,4 hPa 0,0 mm 1,6 km/h (1 Bft) O-NO 67 ° 1 min 0,000 mm 2,8 UV-I 355 W/m² 3,1 °C 18,9 °C 3,2 km/h (1 Bft)
03.04.2018 15:17 18,9 °C 35 % 1004,5 hPa 0,0 mm 5,8 km/h (2 Bft) NO 48 ° 0 min 0,000 mm 2,4 UV-I 274 W/m² 3,1 °C 18,9 °C 8,0 km/h (2 Bft)
03.04.2018 15:18 18,9 °C 39 % 1004,4 hPa 0,0 mm 2,0 km/h (1 Bft) NO 40 ° 0 min 0,000 mm 2,3 UV-I 258 W/m² 4,6 °C 18,9 °C 4,8 km/h (1 Bft)
03.04.2018 15:19 18,9 °C 35 % 1004,5 hPa 0,0 mm 2,2 km/h (1 Bft) NO 51 ° 0 min 0,000 mm 2,3 UV-I 243 W/m² 3,1 °C 18,9 °C 6,4 km/h (2 Bft)
03.04.2018 15:20 18,8 °C 35 % 1004,5 hPa 0,0 mm 2,5 km/h (1 Bft) N-NO 26 ° 1 min 0,000 mm 2,6 UV-I 336 W/m² 3,0 °C 18,8 °C 6,4 km/h (2 Bft)
03.04.2018 15:21 18,8 °C 36 % 1004,6 hPa 0,0 mm 4,4 km/h (1 Bft) SW 231 ° 1 min 0,000 mm 2,7 UV-I 404 W/m² 3,4 °C 18,8 °C 6,4 km/h (2 Bft)
03.04.2018 15:22 18,7 °C 39 % 1004,6 hPa 0,0 mm 5,0 km/h (1 Bft) SW 236 ° 1 min 0,000 mm 3,1 UV-I 452 W/m² 4,5 °C 18,7 °C 8,0 km/h (2 Bft)
03.04.2018 15:23 18,7 °C 35 % 1004,6 hPa 0,0 mm 4,6 km/h (1 Bft) SW 221 ° 1 min 0,000 mm 3,1 UV-I 434 W/m² 2,9 °C 18,7 °C 6,4 km/h (2 Bft)
03.04.2018 15:24 18,7 °C 36 % 1004,6 hPa 0,0 mm 5,5 km/h (1 Bft) W-SW 258 ° 1 min 0,000 mm 3,1 UV-I 436 W/m² 3,3 °C 18,7 °C 9,7 km/h (2 Bft)
03.04.2018 15:25 18,7 °C 37 % 1004,6 hPa 0,0 mm 6,2 km/h (2 Bft) W-SW 255 ° 1 min 0,000 mm 3,7 UV-I 436 W/m² 3,7 °C 18,7 °C 11,3 km/h (2 Bft)
03.04.2018 15:26 18,8 °C 38 % 1004,6 hPa 0,0 mm 7,0 km/h (2 Bft) NW 316 ° 1 min 0,000 mm 3,7 UV-I 587 W/m² 4,2 °C 18,8 °C 9,7 km/h (2 Bft)
03.04.2018 15:27 18,8 °C 39 % 1004,6 hPa 0,0 mm 6,8 km/h (2 Bft) S-SW 198 ° 1 min 0,000 mm 3,7 UV-I 599 W/m² 4,6 °C 18,8 °C 14,5 km/h (3 Bft)
03.04.2018 15:28 18,8 °C 35 % 1004,6 hPa 0,0 mm 0,4 km/h (0 Bft) S-SW 197 ° 1 min 0,000 mm 3,2 UV-I 489 W/m² 3,0 °C 18,8 °C 1,6 km/h (1 Bft)
03.04.2018 15:29 18,9 °C 37 % 1004,6 hPa 0,0 mm 3,1 km/h (1 Bft) N 360 ° 1 min 0,000 mm 3,1 UV-I 427 W/m² 3,9 °C 18,9 °C 6,4 km/h (2 Bft)
03.04.2018 15:30 18,9 °C 36 % 1004,5 hPa 0,0 mm 6,8 km/h (2 Bft) W-NW 290 ° 1 min 0,000 mm 3,0 UV-I 420 W/m² 3,5 °C 18,9 °C 11,3 km/h (2 Bft)
03.04.2018 15:31 18,9 °C 37 % 1004,5 hPa 0,0 mm 3,4 km/h (1 Bft) SW 224 ° 1 min 0,000 mm 3,0 UV-I 418 W/m² 3,9 °C 18,9 °C 8,0 km/h (2 Bft)
03.04.2018 15:32 18,9 °C 38 % 1004,5 hPa 0,0 mm 3,0 km/h (1 Bft) W-SW 258 ° 1 min 0,000 mm 3,0 UV-I 420 W/m² 4,3 °C 18,9 °C 9,7 km/h (2 Bft)
03.04.2018 15:33 18,9 °C 37 % 1004,5 hPa 0,0 mm 4,0 km/h (1 Bft) W-NW 288 ° 1 min 0,000 mm 3,1 UV-I 485 W/m² 3,9 °C 18,9 °C 4,8 km/h (1 Bft)
03.04.2018 15:34 19,0 °C 36 % 1004,5 hPa 0,0 mm 3,7 km/h (1 Bft) SW 232 ° 1 min 0,000 mm 3,3 UV-I 501 W/m² 3,6 °C 19,0 °C 6,4 km/h (2 Bft)
03.04.2018 15:35 18,9 °C 33 % 1004,4 hPa 0,0 mm 2,7 km/h (1 Bft) S-SW 202 ° 1 min 0,000 mm 3,6 UV-I 550 W/m² 2,3 °C 18,9 °C 4,8 km/h (1 Bft)
03.04.2018 15:36 19,0 °C 36 % 1004,4 hPa 0,0 mm 2,7 km/h (1 Bft) NW 307 ° 1 min 0,000 mm 3,8 UV-I 621 W/m² 3,6 °C 19,0 °C 4,8 km/h (1 Bft)
03.04.2018 15:37 19,2 °C 38 % 1004,4 hPa 0,0 mm 1,3 km/h (1 Bft) N 355 ° 1 min 0,000 mm 3,7 UV-I 615 W/m² 4,5 °C 19,2 °C 3,2 km/h (1 Bft)
03.04.2018 15:38 19,3 °C 36 % 1004,4 hPa 0,0 mm 4,5 km/h (1 Bft) W 279 ° 1 min 0,000 mm 3,8 UV-I 605 W/m² 3,9 °C 19,3 °C 6,4 km/h (2 Bft)
03.04.2018 15:39 19,3 °C 37 % 1004,4 hPa 0,0 mm 6,9 km/h (2 Bft) W-SW 245 ° 1 min 0,000 mm 3,7 UV-I 605 W/m² 4,2 °C 19,3 °C 12,9 km/h (3 Bft)
03.04.2018 15:40 19,4 °C 36 % 1004,4 hPa 0,0 mm 7,2 km/h (2 Bft) W-NW 300 ° 1 min 0,000 mm 3,6 UV-I 617 W/m² 3,9 °C 19,4 °C 12,9 km/h (3 Bft)
03.04.2018 15:41 19,4 °C 34 % 1004,4 hPa 0,0 mm 4,2 km/h (1 Bft) W 259 ° 1 min 0,000 mm 3,7 UV-I 608 W/m² 3,1 °C 19,4 °C 8,0 km/h (2 Bft)
03.04.2018 15:42 19,4 °C 35 % 1004,3 hPa 0,0 mm 1,8 km/h (1 Bft) W-SW 239 ° 1 min 0,000 mm 3,8 UV-I 612 W/m² 3,5 °C 19,4 °C 6,4 km/h (2 Bft)
03.04.2018 15:43 19,4 °C 34 % 1004,3 hPa 0,0 mm 0,7 km/h (0 Bft) W-SW 239 ° 1 min 0,000 mm 3,7 UV-I 631 W/m² 3,1 °C 19,4 °C 3,2 km/h (1 Bft)
03.04.2018 15:44 19,4 °C 34 % 1004,3 hPa 0,0 mm 3,1 km/h (1 Bft) SW 227 ° 1 min 0,000 mm 3,8 UV-I 636 W/m² 3,1 °C 19,4 °C 6,4 km/h (2 Bft)
03.04.2018 15:45 19,5 °C 35 % 1004,3 hPa 0,0 mm 6,6 km/h (2 Bft) W 269 ° 1 min 0,000 mm 3,5 UV-I 640 W/m² 3,6 °C 19,5 °C 9,7 km/h (2 Bft)
03.04.2018 15:46 19,6 °C 34 % 1004,3 hPa 0,0 mm 4,8 km/h (1 Bft) SW 233 ° 1 min 0,000 mm 3,7 UV-I 631 W/m² 3,3 °C 19,6 °C 8,0 km/h (2 Bft)
03.04.2018 15:47 19,6 °C 33 % 1004,4 hPa 0,0 mm 6,7 km/h (2 Bft) SW 225 ° 1 min 0,000 mm 3,6 UV-I 606 W/m² 2,9 °C 19,6 °C 11,3 km/h (2 Bft)
03.04.2018 15:48 19,6 °C 33 % 1004,3 hPa 0,0 mm 9,2 km/h (2 Bft) SW 236 ° 1 min 0,000 mm 3,6 UV-I 601 W/m² 2,9 °C 19,6 °C 14,5 km/h (3 Bft)
03.04.2018 15:49 19,6 °C 34 % 1004,3 hPa 0,0 mm 7,1 km/h (2 Bft) SW 225 ° 1 min 0,000 mm 3,6 UV-I 608 W/m² 3,3 °C 19,6 °C 17,7 km/h (3 Bft)
03.04.2018 15:50 19,6 °C 34 % 1004,3 hPa 0,0 mm 7,9 km/h (2 Bft) S-SW 209 ° 1 min 0,000 mm 3,7 UV-I 629 W/m² 3,3 °C 19,6 °C 12,9 km/h (3 Bft)
03.04.2018 15:51 19,6 °C 35 % 1004,4 hPa 0,0 mm 4,1 km/h (1 Bft) NO 40 ° 1 min 0,000 mm 3,6 UV-I 621 W/m² 3,7 °C 19,6 °C 8,0 km/h (2 Bft)
03.04.2018 15:52 19,6 °C 34 % 1004,3 hPa 0,0 mm 3,5 km/h (1 Bft) NO 36 ° 1 min 0,000 mm 3,6 UV-I 605 W/m² 3,3 °C 19,6 °C 4,8 km/h (1 Bft)
03.04.2018 15:53 19,7 °C 35 % 1004,2 hPa 0,0 mm 5,0 km/h (1 Bft) W-SW 247 ° 1 min 0,000 mm 3,5 UV-I 582 W/m² 3,8 °C 19,7 °C 11,3 km/h (2 Bft)
03.04.2018 15:54 19,7 °C 33 % 1004,2 hPa 0,0 mm 3,2 km/h (1 Bft) SW 223 ° 1 min 0,000 mm 3,5 UV-I 592 W/m² 3,0 °C 19,7 °C 6,4 km/h (2 Bft)
03.04.2018 15:55 19,7 °C 35 % 1004,2 hPa 0,0 mm 1,6 km/h (1 Bft) W-NW 300 ° 1 min 0,000 mm 3,5 UV-I 601 W/m² 3,8 °C 19,7 °C 6,4 km/h (2 Bft)
03.04.2018 15:56 19,7 °C 36 % 1004,2 hPa 0,0 mm 2,6 km/h (1 Bft) W 271 ° 1 min 0,000 mm 3,4 UV-I 510 W/m² 4,2 °C 19,7 °C 6,4 km/h (2 Bft)
03.04.2018 15:57 19,8 °C 35 % 1004,1 hPa 0,0 mm 6,4 km/h (2 Bft) W 271 ° 1 min 0,000 mm 3,4 UV-I 557 W/m² 3,9 °C 19,8 °C 8,0 km/h (2 Bft)
03.04.2018 15:58 19,8 °C 34 % 1004,1 hPa 0,0 mm 6,8 km/h (2 Bft) SW 228 ° 1 min 0,000 mm 3,4 UV-I 580 W/m² 3,5 °C 19,8 °C 9,7 km/h (2 Bft)
03.04.2018 15:59 19,7 °C 34 % 1004,1 hPa 0,0 mm 11,6 km/h (2 Bft) W 276 ° 1 min 0,000 mm 3,4 UV-I 594 W/m² 3,4 °C 19,7 °C 19,3 km/h (3 Bft)
03.04.2018 16:00 19,6 °C 32 % 1004,2 hPa 0,0 mm 8,0 km/h (2 Bft) SW 229 ° 1 min 0,000 mm 3,4 UV-I 575 W/m² 2,5 °C 19,6 °C 12,9 km/h (3 Bft)
03.04.2018 16:01 19,6 °C 33 % 1004,2 hPa 0,0 mm 6,5 km/h (2 Bft) S 186 ° 1 min 0,356 mm 3,2 UV-I 561 W/m² 2,9 °C 19,6 °C 11,3 km/h (2 Bft)
03.04.2018 16:02 19,4 °C 34 % 1004,1 hPa 0,0 mm 6,6 km/h (2 Bft) W-SW 237 ° 1 min 0,000 mm 3,0 UV-I 480 W/m² 3,1 °C 19,4 °C 11,3 km/h (2 Bft)
03.04.2018 16:03 19,5 °C 34 % 1004,1 hPa 0,0 mm 5,7 km/h (1 Bft) SW 217 ° 1 min 0,000 mm 3,1 UV-I 534 W/m² 3,2 °C 19,5 °C 9,7 km/h (2 Bft)
03.04.2018 16:04 19,5 °C 35 % 1004,1 hPa 0,0 mm 5,3 km/h (1 Bft) SW 218 ° 1 min 0,000 mm 3,1 UV-I 487 W/m² 3,6 °C 19,5 °C 11,3 km/h (2 Bft)
03.04.2018 16:05 19,5 °C 33 % 1004,1 hPa 0,0 mm 4,0 km/h (1 Bft) SW 233 ° 1 min 0,000 mm 3,2 UV-I 573 W/m² 2,8 °C 19,5 °C 6,4 km/h (2 Bft)
03.04.2018 16:06 19,5 °C 34 % 1004,1 hPa 0,0 mm 5,9 km/h (2 Bft) SW 226 ° 1 min 0,000 mm 3,1 UV-I 557 W/m² 3,2 °C 19,5 °C 11,3 km/h (2 Bft)
03.04.2018 16:07 19,5 °C 34 % 1004,1 hPa 0,0 mm 6,2 km/h (2 Bft) SW 236 ° 1 min 0,000 mm 2,6 UV-I 557 W/m² 3,2 °C 19,5 °C 11,3 km/h (2 Bft)
03.04.2018 16:08 19,4 °C 33 % 1004,1 hPa 0,0 mm 4,6 km/h (1 Bft) S 186 ° 1 min 0,000 mm 2,5 UV-I 316 W/m² 2,7 °C 19,4 °C 9,7 km/h (2 Bft)
03.04.2018 16:09 19,3 °C 34 % 1004,1 hPa 0,0 mm 4,8 km/h (1 Bft) W-SW 237 ° 0 min 0,000 mm 2,1 UV-I 274 W/m² 3,0 °C 19,3 °C 8,0 km/h (2 Bft)
03.04.2018 16:10 19,2 °C 33 % 1004,1 hPa 0,0 mm 3,0 km/h (1 Bft) SW 227 ° 0 min 0,000 mm 2,0 UV-I 253 W/m² 2,5 °C 19,2 °C 4,8 km/h (1 Bft)
03.04.2018 16:11 19,1 °C 32 % 1004,1 hPa 0,0 mm 0,4 km/h (0 Bft) SW 227 ° 0 min 0,000 mm 2,0 UV-I 248 W/m² 2,0 °C 19,1 °C 1,6 km/h (1 Bft)
03.04.2018 16:12 19,0 °C 34 % 1004,1 hPa 0,0 mm 2,2 km/h (1 Bft) W 266 ° 0 min 0,000 mm 2,0 UV-I 278 W/m² 2,8 °C 19,0 °C 6,4 km/h (2 Bft)
03.04.2018 16:13 18,9 °C 35 % 1004,1 hPa 0,0 mm 2,4 km/h (1 Bft) SW 228 ° 0 min 0,000 mm 1,9 UV-I 248 W/m² 3,1 °C 18,9 °C 4,8 km/h (1 Bft)
03.04.2018 16:14 18,9 °C 33 % 1004,1 hPa 0,0 mm 0,7 km/h (0 Bft) SW 228 ° 0 min 0,000 mm 1,9 UV-I 243 W/m² 2,3 °C 18,9 °C 3,2 km/h (1 Bft)
03.04.2018 16:15 18,8 °C 35 % 1004,1 hPa 0,0 mm 1,9 km/h (1 Bft) SW 230 ° 0 min 0,000 mm 1,9 UV-I 237 W/m² 3,0 °C 18,8 °C 3,2 km/h (1 Bft)
03.04.2018 16:16 18,8 °C 35 % 1004,1 hPa 0,0 mm 1,9 km/h (1 Bft) SW 236 ° 0 min 0,000 mm 1,8 UV-I 236 W/m² 3,0 °C 18,8 °C 3,2 km/h (1 Bft)
03.04.2018 16:17 18,8 °C 36 % 1004,1 hPa 0,0 mm 2,9 km/h (1 Bft) SW 236 ° 0 min 0,000 mm 1,8 UV-I 236 W/m² 3,4 °C 18,8 °C 3,2 km/h (1 Bft)
03.04.2018 16:18 18,8 °C 35 % 1004,1 hPa 0,0 mm 3,0 km/h (1 Bft) SW 223 ° 0 min 0,000 mm 1,8 UV-I 234 W/m² 3,0 °C 18,8 °C 6,4 km/h (2 Bft)
03.04.2018 16:19 18,8 °C 32 % 1004,1 hPa 0,0 mm 1,3 km/h (1 Bft) SW 223 ° 0 min 0,000 mm 1,8 UV-I 229 W/m² 1,8 °C 18,8 °C 3,2 km/h (1 Bft)
03.04.2018 16:20 18,8 °C 33 % 1004,1 hPa 0,0 mm 0,3 km/h (0 Bft) SW 223 ° 0 min 0,000 mm 1,7 UV-I 229 W/m² 2,2 °C 18,8 °C 3,2 km/h (1 Bft)
03.04.2018 16:21 18,8 °C 34 % 1004,0 hPa 0,0 mm 0,9 km/h (0 Bft) SW 223 ° 0 min 0,000 mm 1,7 UV-I 227 W/m² 2,6 °C 18,8 °C 3,2 km/h (1 Bft)
03.04.2018 16:22 18,7 °C 38 % 1004,0 hPa 0,0 mm 0,0 km/h (0 Bft) SW 223 ° 0 min 0,000 mm 1,7 UV-I 225 W/m² 4,1 °C 18,7 °C 0,0 km/h (0 Bft)
03.04.2018 16:23 18,7 °C 35 % 1004,0 hPa 0,0 mm 0,5 km/h (0 Bft) SW 223 ° 0 min 0,000 mm 1,6 UV-I 225 W/m² 2,9 °C 18,7 °C 3,2 km/h (1 Bft)
03.04.2018 16:24 18,7 °C 35 % 1004,0 hPa 0,0 mm 1,9 km/h (1 Bft) SW 223 ° 0 min 0,000 mm 1,6 UV-I 225 W/m² 2,9 °C 18,7 °C 3,2 km/h (1 Bft)
03.04.2018 16:25 18,7 °C 35 % 1004,0 hPa 0,0 mm 0,9 km/h (0 Bft) SW 223 ° 0 min 0,000 mm 1,6 UV-I 227 W/m² 2,9 °C 18,7 °C 3,2 km/h (1 Bft)
03.04.2018 16:26 18,7 °C 38 % 1004,0 hPa 0,0 mm 1,4 km/h (1 Bft) O-SO 113 ° 0 min 0,000 mm 1,6 UV-I 230 W/m² 4,1 °C 18,7 °C 4,8 km/h (1 Bft)
03.04.2018 16:27 18,7 °C 40 % 1003,9 hPa 0,0 mm 0,9 km/h (0 Bft) O-SO 114 ° 0 min 0,000 mm 1,6 UV-I 232 W/m² 4,8 °C 18,7 °C 4,8 km/h (1 Bft)
03.04.2018 16:28 18,7 °C 34 % 1004,0 hPa 0,0 mm 1,3 km/h (1 Bft) W 265 ° 0 min 0,000 mm 1,6 UV-I 230 W/m² 2,5 °C 18,7 °C 3,2 km/h (1 Bft)
03.04.2018 16:29 18,7 °C 37 % 1004,0 hPa 0,0 mm 1,0 km/h (0 Bft) S-SW 207 ° 0 min 0,000 mm 1,6 UV-I 230 W/m² 3,7 °C 18,7 °C 3,2 km/h (1 Bft)
03.04.2018 16:30 18,7 °C 39 % 1004,0 hPa 0,0 mm 1,7 km/h (1 Bft) S-SW 207 ° 0 min 0,000 mm 1,6 UV-I 230 W/m² 4,5 °C 18,7 °C 3,2 km/h (1 Bft)
03.04.2018 16:31 18,7 °C 40 % 1004,0 hPa 0,0 mm 2,3 km/h (1 Bft) W-SW 252 ° 0 min 0,000 mm 1,6 UV-I 230 W/m² 4,8 °C 18,7 °C 3,2 km/h (1 Bft)
03.04.2018 16:32 18,7 °C 37 % 1003,9 hPa 0,0 mm 4,7 km/h (1 Bft) W 277 ° 0 min 0,000 mm 1,6 UV-I 230 W/m² 3,7 °C 18,7 °C 6,4 km/h (2 Bft)
03.04.2018 16:33 18,7 °C 37 % 1003,9 hPa 0,0 mm 3,5 km/h (1 Bft) W-SW 257 ° 0 min 0,000 mm 1,6 UV-I 229 W/m² 3,7 °C 18,7 °C 6,4 km/h (2 Bft)
03.04.2018 16:34 18,7 °C 40 % 1004,0 hPa 0,0 mm 2,0 km/h (1 Bft) W-SW 257 ° 0 min 0,000 mm 1,6 UV-I 227 W/m² 4,8 °C 18,7 °C 3,2 km/h (1 Bft)
03.04.2018 16:35 18,7 °C 40 % 1004,0 hPa 0,0 mm 1,3 km/h (1 Bft) W-NW 302 ° 0 min 0,000 mm 1,6 UV-I 227 W/m² 4,8 °C 18,7 °C 3,2 km/h (1 Bft)
03.04.2018 16:36 18,7 °C 37 % 1003,9 hPa 0,0 mm 0,3 km/h (0 Bft) W-NW 302 ° 0 min 0,000 mm 1,6 UV-I 227 W/m² 3,7 °C 18,7 °C 1,6 km/h (1 Bft)
03.04.2018 16:37 18,6 °C 41 % 1003,9 hPa 0,0 mm 2,9 km/h (1 Bft) O-NO 76 ° 0 min 0,000 mm 1,6 UV-I 229 W/m² 5,1 °C 18,6 °C 6,4 km/h (2 Bft)
03.04.2018 16:38 18,6 °C 39 % 1003,9 hPa 0,0 mm 4,2 km/h (1 Bft) SO 131 ° 0 min 0,000 mm 1,6 UV-I 234 W/m² 4,4 °C 18,6 °C 6,4 km/h (2 Bft)
03.04.2018 16:39 18,5 °C 40 % 1003,9 hPa 0,0 mm 2,6 km/h (1 Bft) O-SO 108 ° 0 min 0,000 mm 1,6 UV-I 243 W/m² 4,6 °C 18,5 °C 8,0 km/h (2 Bft)
03.04.2018 16:40 18,5 °C 38 % 1003,9 hPa 0,0 mm 1,2 km/h (1 Bft) O-SO 108 ° 0 min 0,000 mm 1,7 UV-I 246 W/m² 3,9 °C 18,5 °C 3,2 km/h (1 Bft)
03.04.2018 16:41 18,5 °C 39 % 1003,9 hPa 0,0 mm 2,0 km/h (1 Bft) N 9 ° 0 min 0,000 mm 1,7 UV-I 246 W/m² 4,3 °C 18,5 °C 4,8 km/h (1 Bft)
03.04.2018 16:42 18,6 °C 39 % 1003,8 hPa 0,0 mm 3,1 km/h (1 Bft) N-NO 16 ° 0 min 0,000 mm 1,7 UV-I 244 W/m² 4,4 °C 18,6 °C 4,8 km/h (1 Bft)
03.04.2018 16:43 18,6 °C 38 % 1003,9 hPa 0,0 mm 1,5 km/h (1 Bft) N 5 ° 0 min 0,000 mm 1,7 UV-I 250 W/m² 4,0 °C 18,6 °C 3,2 km/h (1 Bft)
03.04.2018 16:44 18,6 °C 39 % 1003,9 hPa 0,0 mm 3,8 km/h (1 Bft) N 5 ° 0 min 0,000 mm 1,7 UV-I 244 W/m² 4,4 °C 18,6 °C 6,4 km/h (2 Bft)
03.04.2018 16:45 18,6 °C 38 % 1003,9 hPa 0,0 mm 3,4 km/h (1 Bft) NO 34 ° 0 min 0,000 mm 1,7 UV-I 244 W/m² 4,0 °C 18,6 °C 4,8 km/h (1 Bft)
03.04.2018 16:46 18,6 °C 37 % 1003,8 hPa 0,0 mm 3,4 km/h (1 Bft) N 355 ° 0 min 0,000 mm 1,7 UV-I 239 W/m² 3,6 °C 18,6 °C 6,4 km/h (2 Bft)
03.04.2018 16:47 18,7 °C 39 % 1003,8 hPa 0,0 mm 3,1 km/h (1 Bft) O 80 ° 0 min 0,000 mm 1,7 UV-I 257 W/m² 4,5 °C 18,7 °C 4,8 km/h (1 Bft)
03.04.2018 16:48 18,6 °C 43 % 1003,8 hPa 0,0 mm 3,1 km/h (1 Bft) O 79 ° 0 min 0,000 mm 1,7 UV-I 243 W/m² 5,8 °C 18,6 °C 4,8 km/h (1 Bft)
03.04.2018 16:49 18,5 °C 43 % 1003,8 hPa 0,0 mm 3,3 km/h (1 Bft) O-NO 65 ° 0 min 0,000 mm 1,7 UV-I 248 W/m² 5,7 °C 18,5 °C 4,8 km/h (1 Bft)
03.04.2018 16:50 18,4 °C 40 % 1003,9 hPa 0,0 mm 2,9 km/h (1 Bft) N-NO 25 ° 0 min 0,000 mm 1,7 UV-I 244 W/m² 4,6 °C 18,4 °C 6,4 km/h (2 Bft)
03.04.2018 16:51 18,4 °C 41 % 1003,8 hPa 0,0 mm 0,5 km/h (0 Bft) N-NO 25 ° 0 min 0,000 mm 1,7 UV-I 241 W/m² 4,9 °C 18,4 °C 1,6 km/h (1 Bft)
03.04.2018 16:52 18,4 °C 38 % 1003,9 hPa 0,0 mm 0,7 km/h (0 Bft) N 11 ° 0 min 0,000 mm 1,7 UV-I 241 W/m² 3,8 °C 18,4 °C 3,2 km/h (1 Bft)
03.04.2018 16:53 18,4 °C 42 % 1003,9 hPa 0,0 mm 0,4 km/h (0 Bft) N 11 ° 0 min 0,000 mm 1,7 UV-I 234 W/m² 5,3 °C 18,4 °C 1,6 km/h (1 Bft)
03.04.2018 16:54 18,5 °C 42 % 1003,9 hPa 0,0 mm 0,2 km/h (0 Bft) N 11 ° 0 min 0,000 mm 1,6 UV-I 223 W/m² 5,3 °C 18,5 °C 1,6 km/h (1 Bft)
03.04.2018 16:55 18,5 °C 39 % 1003,9 hPa 0,0 mm 0,6 km/h (0 Bft) NO 34 ° 0 min 0,000 mm 1,6 UV-I 206 W/m² 4,3 °C 18,5 °C 1,6 km/h (1 Bft)
03.04.2018 16:56 18,6 °C 38 % 1003,9 hPa 0,0 mm 0,1 km/h (0 Bft) NO 34 ° 0 min 0,000 mm 1,5 UV-I 200 W/m² 4,0 °C 18,6 °C 1,6 km/h (1 Bft)
03.04.2018 16:57 18,4 °C 42 % 1003,9 hPa 0,0 mm 0,0 km/h (0 Bft) NO 34 ° 0 min 0,000 mm 1,6 UV-I 199 W/m² 5,3 °C 18,4 °C 0,0 km/h (0 Bft)
03.04.2018 16:58 18,3 °C 42 % 1003,9 hPa 0,0 mm 1,9 km/h (1 Bft) N-NO 33 ° 0 min 0,000 mm 1,5 UV-I 199 W/m² 5,2 °C 18,3 °C 3,2 km/h (1 Bft)
03.04.2018 16:59 18,2 °C 41 % 1003,9 hPa 0,0 mm 1,3 km/h (1 Bft) O 88 ° 0 min 0,000 mm 1,5 UV-I 192 W/m² 4,7 °C 18,2 °C 3,2 km/h (1 Bft)
03.04.2018 17:00 18,2 °C 41 % 1003,9 hPa 0,0 mm 0,0 km/h (0 Bft) O 88 ° 0 min 0,178 mm 1,5 UV-I 179 W/m² 4,7 °C 18,2 °C 0,0 km/h (0 Bft)
03.04.2018 17:01 18,2 °C 45 % 1003,9 hPa 0,0 mm 2,1 km/h (1 Bft) O-SO 111 ° 0 min 0,000 mm 1,4 UV-I 171 W/m² 6,1 °C 18,2 °C 4,8 km/h (1 Bft)
03.04.2018 17:02 18,2 °C 43 % 1003,9 hPa 0,0 mm 1,7 km/h (1 Bft) SO 139 ° 0 min 0,000 mm 1,4 UV-I 167 W/m² 5,4 °C 18,2 °C 4,8 km/h (1 Bft)
03.04.2018 17:03 18,1 °C 42 % 1003,9 hPa 0,0 mm 0,9 km/h (0 Bft) O-SO 117 ° 0 min 0,000 mm 1,3 UV-I 162 W/m² 5,0 °C 18,1 °C 3,2 km/h (1 Bft)
03.04.2018 17:04 18,1 °C 41 % 1003,8 hPa 0,0 mm 1,3 km/h (1 Bft) O-SO 121 ° 0 min 0,000 mm 1,3 UV-I 156 W/m² 4,6 °C 18,1 °C 3,2 km/h (1 Bft)
03.04.2018 17:05 18,1 °C 41 % 1003,9 hPa 0,0 mm 1,6 km/h (1 Bft) O-SO 122 ° 0 min 0,000 mm 1,3 UV-I 153 W/m² 4,6 °C 18,1 °C 3,2 km/h (1 Bft)
03.04.2018 17:06 18,0 °C 39 % 1003,9 hPa 0,0 mm 0,0 km/h (0 Bft) O-SO 122 ° 0 min 0,000 mm 1,3 UV-I 156 W/m² 3,8 °C 18,0 °C 0,0 km/h (0 Bft)
03.04.2018 17:07 17,9 °C 43 % 1003,9 hPa 0,0 mm 0,0 km/h (0 Bft) O-SO 122 ° 0 min 0,000 mm 1,3 UV-I 158 W/m² 5,1 °C 17,9 °C 0,0 km/h (0 Bft)
03.04.2018 17:08 17,9 °C 41 % 1003,8 hPa 0,0 mm 0,8 km/h (0 Bft) O-SO 122 ° 0 min 0,000 mm 1,3 UV-I 165 W/m² 4,5 °C 17,9 °C 3,2 km/h (1 Bft)
03.04.2018 17:09 17,8 °C 41 % 1003,8 hPa 0,0 mm 1,7 km/h (1 Bft) O-NO 60 ° 0 min 0,000 mm 1,3 UV-I 176 W/m² 4,4 °C 17,8 °C 4,8 km/h (1 Bft)
03.04.2018 17:10 17,8 °C 40 % 1003,8 hPa 0,0 mm 1,5 km/h (1 Bft) O-SO 115 ° 0 min 0,000 mm 1,4 UV-I 193 W/m² 4,0 °C 17,8 °C 3,2 km/h (1 Bft)
03.04.2018 17:11 17,8 °C 41 % 1003,8 hPa 0,0 mm 1,4 km/h (1 Bft) S-SW 202 ° 0 min 0,000 mm 1,4 UV-I 213 W/m² 4,4 °C 17,8 °C 3,2 km/h (1 Bft)
03.04.2018 17:12 17,9 °C 40 % 1003,8 hPa 0,0 mm 1,3 km/h (1 Bft) O-SO 110 ° 0 min 0,000 mm 1,5 UV-I 253 W/m² 4,1 °C 17,9 °C 4,8 km/h (1 Bft)
03.04.2018 17:13 17,9 °C 41 % 1003,8 hPa 0,0 mm 2,5 km/h (1 Bft) SO 129 ° 0 min 0,000 mm 1,6 UV-I 257 W/m² 4,5 °C 17,9 °C 3,2 km/h (1 Bft)
03.04.2018 17:14 18,1 °C 38 % 1003,8 hPa 0,0 mm 3,5 km/h (1 Bft) O 89 ° 0 min 0,000 mm 1,6 UV-I 250 W/m² 3,6 °C 18,1 °C 6,4 km/h (2 Bft)
03.04.2018 17:15 18,2 °C 40 % 1003,8 hPa 0,0 mm 1,6 km/h (1 Bft) O 88 ° 0 min 0,000 mm 1,6 UV-I 262 W/m² 4,4 °C 18,2 °C 3,2 km/h (1 Bft)
03.04.2018 17:16 18,3 °C 39 % 1003,8 hPa 0,0 mm 0,8 km/h (0 Bft) O 88 ° 0 min 0,000 mm 1,6 UV-I 243 W/m² 4,1 °C 18,3 °C 3,2 km/h (1 Bft)
03.04.2018 17:17 18,4 °C 39 % 1003,8 hPa 0,0 mm 0,0 km/h (0 Bft) O 88 ° 0 min 0,000 mm 1,5 UV-I 251 W/m² 4,2 °C 18,4 °C 0,0 km/h (0 Bft)
03.04.2018 17:18 18,5 °C 38 % 1003,8 hPa 0,0 mm 0,5 km/h (0 Bft) O 84 ° 0 min 0,000 mm 1,5 UV-I 183 W/m² 3,9 °C 18,5 °C 3,2 km/h (1 Bft)
03.04.2018 17:19 18,6 °C 37 % 1003,8 hPa 0,0 mm 1,9 km/h (1 Bft) O 82 ° 0 min 0,000 mm 1,3 UV-I 169 W/m² 3,6 °C 18,6 °C 4,8 km/h (1 Bft)
03.04.2018 17:20 18,6 °C 40 % 1003,8 hPa 0,0 mm 0,0 km/h (0 Bft) O 82 ° 0 min 0,000 mm 1,3 UV-I 183 W/m² 4,7 °C 18,6 °C 0,0 km/h (0 Bft)
03.04.2018 17:21 18,6 °C 38 % 1003,8 hPa 0,0 mm 0,0 km/h (0 Bft) O 82 ° 0 min 0,000 mm 1,3 UV-I 181 W/m² 4,0 °C 18,6 °C 0,0 km/h (0 Bft)
03.04.2018 17:22 18,6 °C 40 % 1003,8 hPa 0,0 mm 0,0 km/h (0 Bft) O 82 ° 0 min 0,000 mm 1,3 UV-I 193 W/m² 4,7 °C 18,6 °C 0,0 km/h (0 Bft)
03.04.2018 17:23 18,6 °C 40 % 1003,8 hPa 0,0 mm 1,9 km/h (1 Bft) O-NO 59 ° 0 min 0,000 mm 1,3 UV-I 174 W/m² 4,7 °C 18,6 °C 6,4 km/h (2 Bft)
03.04.2018 17:24 18,4 °C 42 % 1003,8 hPa 0,0 mm 1,7 km/h (1 Bft) O-NO 59 ° 0 min 0,000 mm 1,2 UV-I 158 W/m² 5,3 °C 18,4 °C 4,8 km/h (1 Bft)
03.04.2018 17:25 18,4 °C 39 % 1003,8 hPa 0,0 mm 4,3 km/h (1 Bft) SW 219 ° 0 min 0,000 mm 1,2 UV-I 167 W/m² 4,2 °C 18,4 °C 6,4 km/h (2 Bft)
03.04.2018 17:26 18,4 °C 38 % 1003,8 hPa 0,0 mm 2,0 km/h (1 Bft) SW 222 ° 0 min 0,000 mm 1,2 UV-I 181 W/m² 3,8 °C 18,4 °C 3,2 km/h (1 Bft)
03.04.2018 17:27 18,4 °C 38 % 1003,8 hPa 0,0 mm 1,3 km/h (1 Bft) SW 222 ° 0 min 0,000 mm 1,3 UV-I 223 W/m² 3,8 °C 18,4 °C 3,2 km/h (1 Bft)
03.04.2018 17:28 18,4 °C 40 % 1003,7 hPa 0,0 mm 0,3 km/h (0 Bft) SW 222 ° 0 min 0,000 mm 1,3 UV-I 206 W/m² 4,6 °C 18,4 °C 1,6 km/h (1 Bft)
03.04.2018 17:29 18,3 °C 38 % 1003,7 hPa 0,0 mm 1,7 km/h (1 Bft) W-SW 244 ° 0 min 0,000 mm 1,3 UV-I 202 W/m² 3,7 °C 18,3 °C 3,2 km/h (1 Bft)
03.04.2018 17:30 18,3 °C 46 % 1003,7 hPa 0,0 mm 1,6 km/h (1 Bft) W-SW 254 ° 0 min 0,000 mm 1,3 UV-I 204 W/m² 6,5 °C 18,3 °C 3,2 km/h (1 Bft)
03.04.2018 17:31 18,3 °C 38 % 1003,7 hPa 0,0 mm 1,7 km/h (1 Bft) W-NW 290 ° 0 min 0,000 mm 1,3 UV-I 207 W/m² 3,7 °C 18,3 °C 3,2 km/h (1 Bft)
03.04.2018 17:32 18,2 °C 44 % 1003,7 hPa 0,0 mm 0,2 km/h (0 Bft) W-NW 303 ° 0 min 0,000 mm 1,2 UV-I 193 W/m² 5,7 °C 18,2 °C 1,6 km/h (1 Bft)
03.04.2018 17:33 18,3 °C 42 % 1003,7 hPa 0,0 mm 0,8 km/h (0 Bft) N 5 ° 0 min 0,000 mm 1,2 UV-I 183 W/m² 5,2 °C 18,3 °C 3,2 km/h (1 Bft)
03.04.2018 17:34 18,3 °C 39 % 1003,6 hPa 0,0 mm 0,8 km/h (0 Bft) N 5 ° 0 min 0,000 mm 1,3 UV-I 183 W/m² 4,1 °C 18,3 °C 1,6 km/h (1 Bft)
03.04.2018 17:35 18,3 °C 42 % 1003,6 hPa 0,0 mm 0,4 km/h (0 Bft) N 5 ° 0 min 0,000 mm 1,3 UV-I 193 W/m² 5,2 °C 18,3 °C 3,2 km/h (1 Bft)
03.04.2018 17:36 18,4 °C 39 % 1003,6 hPa 0,0 mm 0,4 km/h (0 Bft) N 5 ° 0 min 0,000 mm 1,3 UV-I 230 W/m² 4,2 °C 18,4 °C 1,6 km/h (1 Bft)
03.04.2018 17:37 18,4 °C 42 % 1003,6 hPa 0,0 mm 0,6 km/h (0 Bft) N-NW 344 ° 0 min 0,000 mm 1,3 UV-I 250 W/m² 5,3 °C 18,4 °C 3,2 km/h (1 Bft)
03.04.2018 17:38 18,6 °C 38 % 1003,7 hPa 0,0 mm 2,0 km/h (1 Bft) W-NW 303 ° 0 min 0,000 mm 1,3 UV-I 230 W/m² 4,0 °C 18,6 °C 3,2 km/h (1 Bft)
03.04.2018 17:39 18,6 °C 42 % 1003,6 hPa 0,0 mm 0,2 km/h (0 Bft) W-NW 303 ° 0 min 0,000 mm 1,2 UV-I 211 W/m² 5,4 °C 18,6 °C 1,6 km/h (1 Bft)
03.04.2018 17:40 18,6 °C 43 % 1003,6 hPa 0,0 mm 0,0 km/h (0 Bft) W-NW 303 ° 0 min 0,000 mm 1,2 UV-I 169 W/m² 5,8 °C 18,6 °C 0,0 km/h (0 Bft)
03.04.2018 17:41 18,6 °C 39 % 1003,7 hPa 0,0 mm 0,2 km/h (0 Bft) W-NW 303 ° 0 min 0,000 mm 1,1 UV-I 114 W/m² 4,4 °C 18,6 °C 1,6 km/h (1 Bft)
03.04.2018 17:42 18,7 °C 37 % 1003,7 hPa 0,0 mm 0,8 km/h (0 Bft) W-NW 303 ° 0 min 0,000 mm 1,1 UV-I 111 W/m² 3,7 °C 18,7 °C 3,2 km/h (1 Bft)
03.04.2018 17:43 18,7 °C 37 % 1003,7 hPa 0,0 mm 2,1 km/h (1 Bft) SW 227 ° 0 min 0,000 mm 1,0 UV-I 107 W/m² 3,7 °C 18,7 °C 4,8 km/h (1 Bft)
03.04.2018 17:44 18,7 °C 35 % 1003,7 hPa 0,0 mm 0,5 km/h (0 Bft) SW 227 ° 0 min 0,000 mm 1,0 UV-I 107 W/m² 2,9 °C 18,7 °C 3,2 km/h (1 Bft)
03.04.2018 17:45 18,7 °C 38 % 1003,7 hPa 0,0 mm 2,4 km/h (1 Bft) S-SW 193 ° 0 min 0,000 mm 1,0 UV-I 107 W/m² 4,1 °C 18,7 °C 6,4 km/h (2 Bft)
03.04.2018 17:46 18,7 °C 38 % 1003,6 hPa 0,0 mm 2,1 km/h (1 Bft) O-SO 113 ° 0 min 0,000 mm 1,0 UV-I 109 W/m² 4,1 °C 18,7 °C 4,8 km/h (1 Bft)
03.04.2018 17:47 18,6 °C 39 % 1003,6 hPa 0,0 mm 1,1 km/h (1 Bft) O-SO 112 ° 0 min 0,000 mm 1,0 UV-I 111 W/m² 4,4 °C 18,6 °C 3,2 km/h (1 Bft)
03.04.2018 17:48 18,6 °C 37 % 1003,7 hPa 0,0 mm 0,0 km/h (0 Bft) O-SO 112 ° 0 min 0,000 mm 1,0 UV-I 109 W/m² 3,6 °C 18,6 °C 0,0 km/h (0 Bft)
03.04.2018 17:49 18,6 °C 38 % 1003,6 hPa 0,0 mm 1,3 km/h (1 Bft) N-NO 15 ° 0 min 0,000 mm 1,0 UV-I 111 W/m² 4,0 °C 18,6 °C 4,8 km/h (1 Bft)
03.04.2018 17:50 18,6 °C 37 % 1003,6 hPa 0,0 mm 0,9 km/h (0 Bft) O-NO 74 ° 0 min 0,000 mm 1,0 UV-I 111 W/m² 3,6 °C 18,6 °C 3,2 km/h (1 Bft)
03.04.2018 17:51 18,4 °C 42 % 1003,6 hPa 0,0 mm 0,0 km/h (0 Bft) O-NO 74 ° 0 min 0,000 mm 1,0 UV-I 111 W/m² 5,3 °C 18,4 °C 0,0 km/h (0 Bft)
03.04.2018 17:52 18,3 °C 41 % 1003,7 hPa 0,0 mm 2,5 km/h (1 Bft) O-NO 75 ° 0 min 0,000 mm 1,0 UV-I 130 W/m² 4,8 °C 18,3 °C 4,8 km/h (1 Bft)
03.04.2018 17:53 18,3 °C 41 % 1003,6 hPa 0,0 mm 3,2 km/h (1 Bft) O-SO 121 ° 0 min 0,000 mm 1,0 UV-I 155 W/m² 4,8 °C 18,3 °C 4,8 km/h (1 Bft)
03.04.2018 17:54 18,3 °C 41 % 1003,6 hPa 0,0 mm 2,0 km/h (1 Bft) O-SO 121 ° 0 min 0,000 mm 1,0 UV-I 120 W/m² 4,8 °C 18,3 °C 3,2 km/h (1 Bft)
03.04.2018 17:55 18,3 °C 40 % 1003,7 hPa 0,0 mm 0,0 km/h (0 Bft) O-SO 121 ° 0 min 0,000 mm 0,9 UV-I 83 W/m² 4,5 °C 18,3 °C 0,0 km/h (0 Bft)
03.04.2018 17:56 18,3 °C 39 % 1003,7 hPa 0,0 mm 0,1 km/h (0 Bft) O-SO 121 ° 0 min 0,000 mm 0,9 UV-I 76 W/m² 4,1 °C 18,3 °C 1,6 km/h (1 Bft)
03.04.2018 17:57 18,3 °C 45 % 1003,7 hPa 0,0 mm 0,0 km/h (0 Bft) O-SO 121 ° 0 min 0,000 mm 0,9 UV-I 70 W/m² 6,2 °C 18,3 °C 0,0 km/h (0 Bft)
03.04.2018 17:58 18,2 °C 45 % 1003,7 hPa 0,0 mm 0,0 km/h (0 Bft) O-SO 121 ° 0 min 0,000 mm 0,8 UV-I 69 W/m² 6,1 °C 18,2 °C 0,0 km/h (0 Bft)
03.04.2018 17:59 18,1 °C 39 % 1003,7 hPa 0,0 mm 0,9 km/h (0 Bft) O-SO 122 ° 0 min 0,000 mm 0,8 UV-I 74 W/m² 3,9 °C 18,1 °C 3,2 km/h (1 Bft)
03.04.2018 18:00 18,1 °C 42 % 1003,7 hPa 0,0 mm 0,0 km/h (0 Bft) O-SO 122 ° 0 min 0,000 mm 0,8 UV-I 88 W/m² 5,0 °C 18,1 °C 0,0 km/h (0 Bft)
03.04.2018 18:01 18,0 °C 39 % 1003,6 hPa 0,0 mm 0,0 km/h (0 Bft) O-SO 122 ° 0 min 0,101 mm 0,8 UV-I 77 W/m² 3,8 °C 18,0 °C 0,0 km/h (0 Bft)
03.04.2018 18:02 17,9 °C 42 % 1003,6 hPa 0,0 mm 2,1 km/h (1 Bft) N-NO 18 ° 0 min 0,000 mm 0,8 UV-I 72 W/m² 4,8 °C 17,9 °C 6,4 km/h (2 Bft)
03.04.2018 18:03 17,8 °C 39 % 1003,6 hPa 0,0 mm 2,0 km/h (1 Bft) N-NO 16 ° 0 min 0,000 mm 0,8 UV-I 67 W/m² 3,7 °C 17,8 °C 4,8 km/h (1 Bft)
03.04.2018 18:04 17,8 °C 38 % 1003,6 hPa 0,0 mm 1,5 km/h (1 Bft) N-NO 17 ° 0 min 0,000 mm 0,7 UV-I 65 W/m² 3,3 °C 17,8 °C 4,8 km/h (1 Bft)
03.04.2018 18:05 17,9 °C 37 % 1003,6 hPa 0,0 mm 5,8 km/h (2 Bft) S-SW 202 ° 0 min 0,000 mm 0,7 UV-I 67 W/m² 3,0 °C 17,9 °C 12,9 km/h (3 Bft)
03.04.2018 18:06 17,9 °C 40 % 1003,6 hPa 0,0 mm 3,0 km/h (1 Bft) S-SW 201 ° 0 min 0,000 mm 0,7 UV-I 65 W/m² 4,1 °C 17,9 °C 4,8 km/h (1 Bft)
03.04.2018 18:07 17,9 °C 38 % 1003,6 hPa 0,0 mm 0,9 km/h (0 Bft) S-SW 204 ° 0 min 0,000 mm 0,7 UV-I 67 W/m² 3,4 °C 17,9 °C 3,2 km/h (1 Bft)
03.04.2018 18:08 17,9 °C 38 % 1003,6 hPa 0,0 mm 2,5 km/h (1 Bft) SW 217 ° 0 min 0,000 mm 0,7 UV-I 70 W/m² 3,4 °C 17,9 °C 4,8 km/h (1 Bft)
03.04.2018 18:09 17,8 °C 44 % 1003,6 hPa 0,0 mm 4,2 km/h (1 Bft) S-SW 198 ° 0 min 0,000 mm 0,7 UV-I 74 W/m² 5,4 °C 17,8 °C 9,7 km/h (2 Bft)
03.04.2018 18:10 17,7 °C 44 % 1003,6 hPa 0,0 mm 3,1 km/h (1 Bft) W-SW 256 ° 0 min 0,000 mm 0,7 UV-I 77 W/m² 5,3 °C 17,7 °C 6,4 km/h (2 Bft)
03.04.2018 18:11 17,6 °C 44 % 1003,6 hPa 0,0 mm 1,6 km/h (1 Bft) W-SW 258 ° 0 min 0,000 mm 0,7 UV-I 88 W/m² 5,2 °C 17,6 °C 3,2 km/h (1 Bft)
03.04.2018 18:12 17,7 °C 39 % 1003,6 hPa 0,0 mm 4,4 km/h (1 Bft) S-SW 207 ° 0 min 0,000 mm 0,7 UV-I 91 W/m² 3,6 °C 17,7 °C 9,7 km/h (2 Bft)
03.04.2018 18:13 17,7 °C 38 % 1003,6 hPa 0,0 mm 4,8 km/h (1 Bft) W-SW 242 ° 0 min 0,000 mm 0,7 UV-I 90 W/m² 3,2 °C 17,7 °C 6,4 km/h (2 Bft)
03.04.2018 18:14 17,7 °C 38 % 1003,6 hPa 0,0 mm 3,8 km/h (1 Bft) SW 215 ° 0 min 0,000 mm 0,7 UV-I 91 W/m² 3,2 °C 17,7 °C 6,4 km/h (2 Bft)
03.04.2018 18:15 17,8 °C 40 % 1003,6 hPa 0,0 mm 2,7 km/h (1 Bft) SW 217 ° 0 min 0,000 mm 0,7 UV-I 93 W/m² 4,0 °C 17,8 °C 4,8 km/h (1 Bft)
03.04.2018 18:16 17,8 °C 41 % 1003,6 hPa 0,0 mm 1,2 km/h (1 Bft) SW 217 ° 0 min 0,000 mm 0,7 UV-I 95 W/m² 4,4 °C 17,8 °C 3,2 km/h (1 Bft)
03.04.2018 18:17 17,7 °C 43 % 1003,6 hPa 0,0 mm 2,5 km/h (1 Bft) SW 225 ° 0 min 0,000 mm 0,7 UV-I 95 W/m² 5,0 °C 17,7 °C 4,8 km/h (1 Bft)
03.04.2018 18:18 17,8 °C 38 % 1003,6 hPa 0,0 mm 2,3 km/h (1 Bft) SW 226 ° 0 min 0,000 mm 0,7 UV-I 91 W/m² 3,3 °C 17,8 °C 4,8 km/h (1 Bft)
03.04.2018 18:19 17,8 °C 37 % 1003,7 hPa 0,0 mm 4,0 km/h (1 Bft) W-SW 253 ° 0 min 0,000 mm 0,7 UV-I 90 W/m² 2,9 °C 17,8 °C 8,0 km/h (2 Bft)
03.04.2018 18:20 17,8 °C 38 % 1003,7 hPa 0,0 mm 3,0 km/h (1 Bft) SW 231 ° 0 min 0,000 mm 0,7 UV-I 88 W/m² 3,3 °C 17,8 °C 6,4 km/h (2 Bft)
03.04.2018 18:21 17,9 °C 38 % 1003,7 hPa 0,0 mm 2,1 km/h (1 Bft) SW 231 ° 0 min 0,000 mm 0,7 UV-I 86 W/m² 3,4 °C 17,9 °C 4,8 km/h (1 Bft)
03.04.2018 18:22 17,8 °C 40 % 1003,6 hPa 0,0 mm 0,1 km/h (0 Bft) SW 231 ° 0 min 0,000 mm 0,7 UV-I 84 W/m² 4,0 °C 17,8 °C 1,6 km/h (1 Bft)
03.04.2018 18:23 17,7 °C 40 % 1003,6 hPa 0,0 mm 0,0 km/h (0 Bft) SW 231 ° 0 min 0,000 mm 0,7 UV-I 81 W/m² 3,9 °C 17,7 °C 0,0 km/h (0 Bft)
03.04.2018 18:24 17,6 °C 42 % 1003,6 hPa 0,0 mm 0,2 km/h (0 Bft) SW 231 ° 0 min 0,000 mm 0,6 UV-I 84 W/m² 4,5 °C 17,6 °C 3,2 km/h (1 Bft)
03.04.2018 18:25 17,4 °C 42 % 1003,7 hPa 0,0 mm 1,2 km/h (1 Bft) SW 233 ° 0 min 0,000 mm 0,6 UV-I 83 W/m² 4,4 °C 17,4 °C 3,2 km/h (1 Bft)
03.04.2018 18:26 17,3 °C 39 % 1003,7 hPa 0,0 mm 1,7 km/h (1 Bft) SW 233 ° 0 min 0,000 mm 0,6 UV-I 79 W/m² 3,2 °C 17,3 °C 3,2 km/h (1 Bft)
03.04.2018 18:27 17,3 °C 40 % 1003,6 hPa 0,0 mm 2,4 km/h (1 Bft) W-SW 249 ° 0 min 0,000 mm 0,6 UV-I 77 W/m² 3,6 °C 17,3 °C 6,4 km/h (2 Bft)
03.04.2018 18:28 17,3 °C 39 % 1003,6 hPa 0,0 mm 3,7 km/h (1 Bft) W-SW 251 ° 0 min 0,000 mm 0,6 UV-I 81 W/m² 3,2 °C 17,3 °C 6,4 km/h (2 Bft)
03.04.2018 18:29 17,2 °C 40 % 1003,6 hPa 0,0 mm 2,8 km/h (1 Bft) W-SW 253 ° 0 min 0,000 mm 0,6 UV-I 90 W/m² 3,5 °C 17,2 °C 6,4 km/h (2 Bft)
03.04.2018 18:30 17,2 °C 39 % 1003,6 hPa 0,0 mm 2,8 km/h (1 Bft) SW 228 ° 0 min 0,000 mm 0,5 UV-I 76 W/m² 3,1 °C 17,2 °C 4,8 km/h (1 Bft)
03.04.2018 18:31 17,2 °C 38 % 1003,6 hPa 0,0 mm 1,8 km/h (1 Bft) SW 228 ° 0 min 0,000 mm 0,5 UV-I 74 W/m² 2,8 °C 17,2 °C 3,2 km/h (1 Bft)
03.04.2018 18:32 17,2 °C 39 % 1003,6 hPa 0,0 mm 1,1 km/h (1 Bft) SW 228 ° 0 min 0,000 mm 0,5 UV-I 74 W/m² 3,1 °C 17,2 °C 1,6 km/h (1 Bft)
03.04.2018 18:33 17,2 °C 38 % 1003,6 hPa 0,0 mm 0,1 km/h (0 Bft) SW 228 ° 0 min 0,000 mm 0,5 UV-I 70 W/m² 2,8 °C 17,2 °C 1,6 km/h (1 Bft)
03.04.2018 18:34 17,2 °C 39 % 1003,7 hPa 0,0 mm 3,7 km/h (1 Bft) SW 228 ° 0 min 0,000 mm 0,5 UV-I 67 W/m² 3,1 °C 17,2 °C 4,8 km/h (1 Bft)
03.04.2018 18:35 17,1 °C 40 % 1003,7 hPa 0,0 mm 1,4 km/h (1 Bft) SW 223 ° 0 min 0,000 mm 0,5 UV-I 67 W/m² 3,4 °C 17,1 °C 4,8 km/h (1 Bft)
03.04.2018 18:36 16,9 °C 43 % 1003,6 hPa 0,0 mm 0,0 km/h (0 Bft) SW 223 ° 0 min 0,000 mm 0,5 UV-I 67 W/m² 4,2 °C 16,9 °C 0,0 km/h (0 Bft)
03.04.2018 18:37 16,9 °C 41 % 1003,7 hPa 0,0 mm 0,8 km/h (0 Bft) SW 223 ° 0 min 0,000 mm 0,5 UV-I 67 W/m² 3,6 °C 16,9 °C 3,2 km/h (1 Bft)
03.04.2018 18:38 16,7 °C 46 % 1003,7 hPa 0,0 mm 0,0 km/h (0 Bft) SW 223 ° 0 min 0,000 mm 0,5 UV-I 67 W/m² 5,0 °C 16,7 °C 0,0 km/h (0 Bft)
03.04.2018 18:39 16,5 °C 44 % 1003,7 hPa 0,0 mm 0,4 km/h (0 Bft) SW 223 ° 0 min 0,000 mm 0,5 UV-I 69 W/m² 4,2 °C 16,5 °C 1,6 km/h (1 Bft)
03.04.2018 18:40 16,4 °C 44 % 1003,7 hPa 0,0 mm 0,0 km/h (0 Bft) SW 223 ° 0 min 0,000 mm 0,0 UV-I 72 W/m² 4,1 °C 16,4 °C 0,0 km/h (0 Bft)
03.04.2018 18:41 16,3 °C 45 % 1003,7 hPa 0,0 mm 0,0 km/h (0 Bft) SW 223 ° 0 min 0,000 mm 0,0 UV-I 72 W/m² 4,3 °C 16,3 °C 0,0 km/h (0 Bft)
03.04.2018 18:42 16,2 °C 46 % 1003,7 hPa 0,0 mm 0,0 km/h (0 Bft) SW 223 ° 0 min 0,000 mm 0,0 UV-I 69 W/m² 4,6 °C 16,2 °C 0,0 km/h (0 Bft)
03.04.2018 18:43 16,2 °C 46 % 1003,7 hPa 0,0 mm 0,0 km/h (0 Bft) SW 223 ° 0 min 0,000 mm 0,0 UV-I 67 W/m² 4,6 °C 16,2 °C 0,0 km/h (0 Bft)
03.04.2018 18:44 16,2 °C 44 % 1003,7 hPa 0,0 mm 0,0 km/h (0 Bft) SW 223 ° 0 min 0,000 mm 0,0 UV-I 65 W/m² 3,9 °C 16,2 °C 0,0 km/h (0 Bft)
03.04.2018 18:45 16,2 °C 44 % 1003,8 hPa 0,0 mm 0,0 km/h (0 Bft) SW 223 ° 0 min 0,000 mm 0,0 UV-I 65 W/m² 3,9 °C 16,2 °C 0,0 km/h (0 Bft)
03.04.2018 18:46 16,2 °C 45 % 1003,8 hPa 0,0 mm 0,0 km/h (0 Bft) SW 223 ° 0 min 0,000 mm 0,0 UV-I 63 W/m² 4,3 °C 16,2 °C 0,0 km/h (0 Bft)
03.04.2018 18:47 16,2 °C 44 % 1003,7 hPa 0,0 mm 0,0 km/h (0 Bft) SW 223 ° 0 min 0,000 mm 0,0 UV-I 63 W/m² 3,9 °C 16,2 °C 0,0 km/h (0 Bft)
03.04.2018 18:48 16,2 °C 48 % 1003,8 hPa 0,0 mm 0,3 km/h (0 Bft) SW 223 ° 0 min 0,000 mm 0,0 UV-I 63 W/m² 5,2 °C 16,2 °C 1,6 km/h (1 Bft)
03.04.2018 18:49 16,1 °C 46 % 1003,8 hPa 0,0 mm 0,2 km/h (0 Bft) SW 223 ° 0 min 0,000 mm 0,0 UV-I 62 W/m² 4,5 °C 16,1 °C 1,6 km/h (1 Bft)
03.04.2018 18:50 16,1 °C 45 % 1003,8 hPa 0,0 mm 0,0 km/h (0 Bft) SW 223 ° 0 min 0,000 mm 0,0 UV-I 62 W/m² 4,2 °C 16,1 °C 0,0 km/h (0 Bft)
03.04.2018 18:51 16,1 °C 45 % 1003,8 hPa 0,0 mm 0,0 km/h (0 Bft) SW 223 ° 0 min 0,000 mm 0,0 UV-I 58 W/m² 4,2 °C 16,1 °C 0,0 km/h (0 Bft)
03.04.2018 18:52 15,9 °C 48 % 1003,8 hPa 0,0 mm 0,0 km/h (0 Bft) SW 223 ° 0 min 0,000 mm 0,0 UV-I 56 W/m² 4,9 °C 15,9 °C 0,0 km/h (0 Bft)
03.04.2018 18:53 15,8 °C 46 % 1003,9 hPa 0,0 mm 0,0 km/h (0 Bft) SW 223 ° 0 min 0,000 mm 0,0 UV-I 56 W/m² 4,2 °C 15,8 °C 0,0 km/h (0 Bft)
03.04.2018 18:54 15,7 °C 48 % 1003,9 hPa 0,0 mm 0,6 km/h (0 Bft) SW 223 ° 0 min 0,000 mm 0,0 UV-I 54 W/m² 4,7 °C 15,7 °C 3,2 km/h (1 Bft)
03.04.2018 18:55 15,7 °C 47 % 1003,9 hPa 0,0 mm 0,3 km/h (0 Bft) SW 223 ° 0 min 0,000 mm 0,0 UV-I 53 W/m² 4,4 °C 15,7 °C 1,6 km/h (1 Bft)
03.04.2018 18:56 15,6 °C 46 % 1003,9 hPa 0,0 mm 0,0 km/h (0 Bft) SW 223 ° 0 min 0,000 mm 0,0 UV-I 51 W/m² 4,0 °C 15,6 °C 0,0 km/h (0 Bft)
03.04.2018 18:57 15,6 °C 47 % 1004,0 hPa 0,0 mm 0,0 km/h (0 Bft) SW 223 ° 0 min 0,000 mm 0,0 UV-I 49 W/m² 4,3 °C 15,6 °C 0,0 km/h (0 Bft)
03.04.2018 18:58 15,4 °C 50 % 1004,0 hPa 0,0 mm 0,0 km/h (0 Bft) SW 223 ° 0 min 0,000 mm 0,0 UV-I 46 W/m² 5,0 °C 15,4 °C 0,0 km/h (0 Bft)
03.04.2018 18:59 15,2 °C 49 % 1003,9 hPa 0,0 mm 0,8 km/h (0 Bft) W-SW 240 ° 0 min 0,000 mm 0,0 UV-I 44 W/m² 4,6 °C 15,2 °C 3,2 km/h (1 Bft)
03.04.2018 19:00 15,0 °C 49 % 1004,0 hPa 0,0 mm 0,0 km/h (0 Bft) W-SW 240 ° 0 min 0,000 mm 0,0 UV-I 42 W/m² 4,4 °C 15,0 °C 0,0 km/h (0 Bft)
03.04.2018 19:01 14,9 °C 49 % 1004,0 hPa 0,0 mm 0,0 km/h (0 Bft) W-SW 240 ° 0 min 0,051 mm 0,0 UV-I 40 W/m² 4,3 °C 14,9 °C 0,0 km/h (0 Bft)
03.04.2018 19:02 14,9 °C 49 % 1004,0 hPa 0,0 mm 0,6 km/h (0 Bft) W-SW 240 ° 0 min 0,000 mm 0,0 UV-I 40 W/m² 4,3 °C 14,9 °C 3,2 km/h (1 Bft)
03.04.2018 19:03 15,0 °C 46 % 1004,0 hPa 0,0 mm 1,5 km/h (1 Bft) W-SW 240 ° 0 min 0,000 mm 0,0 UV-I 39 W/m² 3,5 °C 15,0 °C 3,2 km/h (1 Bft)
03.04.2018 19:04 15,1 °C 47 % 1004,0 hPa 0,0 mm 0,0 km/h (0 Bft) W-SW 240 ° 0 min 0,000 mm 0,0 UV-I 37 W/m² 3,9 °C 15,1 °C 0,0 km/h (0 Bft)
03.04.2018 19:05 15,1 °C 46 % 1004,0 hPa 0,0 mm 0,0 km/h (0 Bft) W-SW 240 ° 0 min 0,000 mm 0,0 UV-I 37 W/m² 3,6 °C 15,1 °C 0,0 km/h (0 Bft)
03.04.2018 19:06 15,1 °C 47 % 1004,0 hPa 0,0 mm 0,0 km/h (0 Bft) W-SW 240 ° 0 min 0,000 mm 0,0 UV-I 37 W/m² 3,9 °C 15,1 °C 0,0 km/h (0 Bft)
03.04.2018 19:07 15,1 °C 47 % 1004,0 hPa 0,0 mm 0,0 km/h (0 Bft) W-SW 240 ° 0 min 0,000 mm 0,0 UV-I 37 W/m² 3,9 °C 15,1 °C 0,0 km/h (0 Bft)
03.04.2018 19:08 15,0 °C 47 % 1004,0 hPa 0,0 mm 0,0 km/h (0 Bft) W-SW 240 ° 0 min 0,000 mm 0,0 UV-I 35 W/m² 3,8 °C 15,0 °C 0,0 km/h (0 Bft)
03.04.2018 19:09 14,9 °C 48 % 1004,0 hPa 0,0 mm 0,0 km/h (0 Bft) W-SW 240 ° 0 min 0,000 mm 0,0 UV-I 35 W/m² 4,0 °C 14,9 °C 0,0 km/h (0 Bft)
03.04.2018 19:10 14,9 °C 47 % 1004,0 hPa 0,0 mm 0,3 km/h (0 Bft) W-SW 240 ° 0 min 0,000 mm 0,0 UV-I 35 W/m² 3,7 °C 14,9 °C 1,6 km/h (1 Bft)
03.04.2018 19:11 14,9 °C 48 % 1004,0 hPa 0,0 mm 0,7 km/h (0 Bft) W-SW 240 ° 0 min 0,000 mm 0,0 UV-I 35 W/m² 4,0 °C 14,9 °C 1,6 km/h (1 Bft)
03.04.2018 19:12 14,9 °C 47 % 1004,0 hPa 0,0 mm 0,0 km/h (0 Bft) W-SW 240 ° 0 min 0,000 mm 0,0 UV-I 35 W/m² 3,7 °C 14,9 °C 0,0 km/h (0 Bft)
03.04.2018 19:13 14,8 °C 50 % 1004,0 hPa 0,0 mm 0,2 km/h (0 Bft) W-SW 240 ° 0 min 0,000 mm 0,0 UV-I 35 W/m² 4,5 °C 14,8 °C 1,6 km/h (1 Bft)
03.04.2018 19:14 14,7 °C 51 % 1004,1 hPa 0,0 mm 0,0 km/h (0 Bft) W-SW 240 ° 0 min 0,000 mm 0,0 UV-I 33 W/m² 4,7 °C 14,7 °C 0,0 km/h (0 Bft)
03.04.2018 19:15 14,5 °C 49 % 1004,1 hPa 0,0 mm 0,0 km/h (0 Bft) W-SW 240 ° 0 min 0,000 mm 0,0 UV-I 32 W/m² 3,9 °C 14,5 °C 0,0 km/h (0 Bft)
03.04.2018 19:16 14,4 °C 50 % 1004,1 hPa 0,0 mm 0,0 km/h (0 Bft) W-SW 240 ° 0 min 0,000 mm 0,0 UV-I 32 W/m² 4,1 °C 14,4 °C 0,0 km/h (0 Bft)
03.04.2018 19:17 14,4 °C 47 % 1004,1 hPa 0,0 mm 0,0 km/h (0 Bft) W-SW 240 ° 0 min 0,000 mm 0,0 UV-I 30 W/m² 3,2 °C 14,4 °C 0,0 km/h (0 Bft)
03.04.2018 19:18 14,2 °C 50 % 1004,1 hPa 0,0 mm 0,0 km/h (0 Bft) W-SW 240 ° 0 min 0,000 mm 0,0 UV-I 30 W/m² 3,9 °C 14,2 °C 0,0 km/h (0 Bft)
03.04.2018 19:19 14,1 °C 50 % 1004,1 hPa 0,0 mm 0,0 km/h (0 Bft) W-SW 240 ° 0 min 0,000 mm 0,0 UV-I 28 W/m² 3,8 °C 14,1 °C 0,0 km/h (0 Bft)
03.04.2018 19:20 14,1 °C 52 % 1004,0 hPa 0,0 mm 0,0 km/h (0 Bft) W-SW 240 ° 0 min 0,000 mm 0,0 UV-I 28 W/m² 4,4 °C 14,1 °C 0,0 km/h (0 Bft)
03.04.2018 19:21 14,0 °C 50 % 1004,0 hPa 0,0 mm 0,0 km/h (0 Bft) W-SW 240 ° 0 min 0,000 mm 0,0 UV-I 26 W/m² 3,7 °C 14,0 °C 0,0 km/h (0 Bft)
03.04.2018 19:22 13,9 °C 51 % 1004,0 hPa 0,0 mm 0,7 km/h (0 Bft) W-SW 240 ° 0 min 0,000 mm 0,0 UV-I 25 W/m² 3,9 °C 13,9 °C 3,2 km/h (1 Bft)
03.04.2018 19:23 13,9 °C 52 % 1004,0 hPa 0,0 mm 3,2 km/h (1 Bft) N 360 ° 0 min 0,000 mm 0,0 UV-I 25 W/m² 4,2 °C 13,9 °C 6,4 km/h (2 Bft)
03.04.2018 19:24 13,9 °C 50 % 1004,0 hPa 0,0 mm 1,0 km/h (0 Bft) N 360 ° 0 min 0,000 mm 0,0 UV-I 23 W/m² 3,7 °C 13,9 °C 4,8 km/h (1 Bft)
03.04.2018 19:25 13,9 °C 50 % 1004,0 hPa 0,0 mm 0,0 km/h (0 Bft) N 360 ° 0 min 0,000 mm 0,0 UV-I 23 W/m² 3,7 °C 13,9 °C 0,0 km/h (0 Bft)
03.04.2018 19:26 13,9 °C 50 % 1004,0 hPa 0,0 mm 0,0 km/h (0 Bft) N 360 ° 0 min 0,000 mm 0,0 UV-I 21 W/m² 3,7 °C 13,9 °C 0,0 km/h (0 Bft)
03.04.2018 19:27 14,0 °C 49 % 1004,0 hPa 0,0 mm 0,1 km/h (0 Bft) N 360 ° 0 min 0,000 mm 0,0 UV-I 21 W/m² 3,5 °C 14,0 °C 1,6 km/h (1 Bft)
03.04.2018 19:28 13,9 °C 50 % 1004,0 hPa 0,0 mm 0,0 km/h (0 Bft) N 360 ° 0 min 0,000 mm 0,0 UV-I 21 W/m² 3,7 °C 13,9 °C 0,0 km/h (0 Bft)
03.04.2018 19:29 13,9 °C 50 % 1004,0 hPa 0,0 mm 0,0 km/h (0 Bft) N 360 ° 0 min 0,000 mm 0,0 UV-I 19 W/m² 3,7 °C 13,9 °C 0,0 km/h (0 Bft)
03.04.2018 19:30 13,8 °C 49 % 1004,0 hPa 0,0 mm 0,0 km/h (0 Bft) N 360 ° 0 min 0,000 mm 0,0 UV-I 19 W/m² 3,3 °C 13,8 °C 0,0 km/h (0 Bft)
03.04.2018 19:31 13,9 °C 49 % 1004,0 hPa 0,0 mm 0,0 km/h (0 Bft) N 360 ° 0 min 0,000 mm 0,0 UV-I 18 W/m² 3,4 °C 13,9 °C 0,0 km/h (0 Bft)
03.04.2018 19:32 13,8 °C 50 % 1004,0 hPa 0,0 mm 0,0 km/h (0 Bft) N 360 ° 0 min 0,000 mm 0,0 UV-I 18 W/m² 3,6 °C 13,8 °C 0,0 km/h (0 Bft)
03.04.2018 19:33 13,9 °C 49 % 1004,1 hPa 0,0 mm 0,0 km/h (0 Bft) N 360 ° 0 min 0,000 mm 0,0 UV-I 16 W/m² 3,4 °C 13,9 °C 0,0 km/h (0 Bft)
03.04.2018 19:34 13,8 °C 50 % 1004,0 hPa 0,0 mm 0,0 km/h (0 Bft) N 360 ° 0 min 0,000 mm 0,0 UV-I 16 W/m² 3,6 °C 13,8 °C 0,0 km/h (0 Bft)
03.04.2018 19:35 13,9 °C 49 % 1004,0 hPa 0,0 mm 0,0 km/h (0 Bft) N 360 ° 0 min 0,000 mm 0,0 UV-I 14 W/m² 3,4 °C 13,9 °C 0,0 km/h (0 Bft)
03.04.2018 19:36 13,8 °C 50 % 1004,1 hPa 0,0 mm 0,0 km/h (0 Bft) N 360 ° 0 min 0,000 mm 0,0 UV-I 14 W/m² 3,6 °C 13,8 °C 0,0 km/h (0 Bft)
03.04.2018 19:37 13,8 °C 50 % 1004,1 hPa 0,0 mm 0,0 km/h (0 Bft) N 360 ° 0 min 0,000 mm 0,0 UV-I 12 W/m² 3,6 °C 13,8 °C 0,0 km/h (0 Bft)
03.04.2018 19:38 13,8 °C 50 % 1004,1 hPa 0,0 mm 0,6 km/h (0 Bft) N 360 ° 0 min 0,000 mm 0,0 UV-I 11 W/m² 3,6 °C 13,8 °C 3,2 km/h (1 Bft)
03.04.2018 19:39 13,7 °C 50 % 1004,1 hPa 0,0 mm 0,0 km/h (0 Bft) N 360 ° 0 min 0,000 mm 0,0 UV-I 9 W/m² 3,5 °C 13,7 °C 0,0 km/h (0 Bft)
03.04.2018 19:40 13,7 °C 50 % 1004,1 hPa 0,0 mm 0,6 km/h (0 Bft) N-NW 335 ° 0 min 0,000 mm 0,0 UV-I 9 W/m² 3,5 °C 13,7 °C 3,2 km/h (1 Bft)
03.04.2018 19:41 13,6 °C 50 % 1004,1 hPa 0,0 mm 0,3 km/h (0 Bft) N-NW 335 ° 0 min 0,000 mm 0,0 UV-I 7 W/m² 3,4 °C 13,6 °C 1,6 km/h (1 Bft)
03.04.2018 19:42 13,6 °C 50 % 1004,1 hPa 0,0 mm 0,0 km/h (0 Bft) N-NW 335 ° 0 min 0,000 mm 0,0 UV-I 7 W/m² 3,4 °C 13,6 °C 0,0 km/h (0 Bft)
03.04.2018 19:43 13,6 °C 49 % 1004,1 hPa 0,0 mm 0,0 km/h (0 Bft) N-NW 335 ° 0 min 0,000 mm 0,0 UV-I 5 W/m² 3,1 °C 13,6 °C 0,0 km/h (0 Bft)
03.04.2018 19:44 13,6 °C 50 % 1004,1 hPa 0,0 mm 0,8 km/h (0 Bft) N-NW 335 ° 0 min 0,000 mm 0,0 UV-I 5 W/m² 3,4 °C 13,6 °C 3,2 km/h (1 Bft)
03.04.2018 19:45 13,5 °C 50 % 1004,1 hPa 0,0 mm 1,2 km/h (1 Bft) N-NW 335 ° 0 min 0,000 mm 0,0 UV-I 0 W/m² 3,3 °C 13,5 °C 1,6 km/h (1 Bft)
03.04.2018 19:46 13,4 °C 51 % 1004,1 hPa 0,0 mm 0,9 km/h (0 Bft) N-NW 336 ° 0 min 0,000 mm 0,0 UV-I 0 W/m² 3,5 °C 13,4 °C 3,2 km/h (1 Bft)
03.04.2018 19:47 13,4 °C 50 % 1004,2 hPa 0,0 mm 2,5 km/h (1 Bft) N-NW 334 ° 0 min 0,000 mm 0,0 UV-I 0 W/m² 3,2 °C 13,4 °C 3,2 km/h (1 Bft)
03.04.2018 19:48 13,5 °C 49 % 1004,2 hPa 0,0 mm 1,7 km/h (1 Bft) W-NW 300 ° 0 min 0,000 mm 0,0 UV-I 0 W/m² 3,0 °C 13,5 °C 4,8 km/h (1 Bft)
03.04.2018 19:49 13,4 °C 51 % 1004,1 hPa 0,0 mm 0,2 km/h (0 Bft) W-NW 300 ° 0 min 0,000 mm 0,0 UV-I 0 W/m² 3,5 °C 13,4 °C 1,6 km/h (1 Bft)
03.04.2018 19:50 13,4 °C 50 % 1004,1 hPa 0,0 mm 0,2 km/h (0 Bft) W-NW 300 ° 0 min 0,000 mm 0,0 UV-I 0 W/m² 3,2 °C 13,4 °C 1,6 km/h (1 Bft)
03.04.2018 19:51 13,4 °C 50 % 1004,1 hPa 0,0 mm 0,0 km/h (0 Bft) W-NW 300 ° 0 min 0,000 mm 0,0 UV-I 0 W/m² 3,2 °C 13,4 °C 0,0 km/h (0 Bft)
03.04.2018 19:52 13,4 °C 50 % 1004,1 hPa 0,0 mm 0,0 km/h (0 Bft) W-NW 300 ° 0 min 0,000 mm 0,0 UV-I 0 W/m² 3,2 °C 13,4 °C 0,0 km/h (0 Bft)
03.04.2018 19:53 13,4 °C 50 % 1004,2 hPa 0,0 mm 0,5 km/h (0 Bft) W-NW 300 ° 0 min 0,000 mm 0,0 UV-I 0 W/m² 3,2 °C 13,4 °C 1,6 km/h (1 Bft)
03.04.2018 19:54 13,4 °C 49 % 1004,2 hPa 0,0 mm 0,8 km/h (0 Bft) W-NW 300 ° 0 min 0,000 mm 0,0 UV-I 0 W/m² 2,9 °C 13,4 °C 3,2 km/h (1 Bft)
03.04.2018 19:55 13,5 °C 49 % 1004,2 hPa 0,0 mm 0,7 km/h (0 Bft) W-NW 300 ° 0 min 0,000 mm 0,0 UV-I 0 W/m² 3,0 °C 13,5 °C 1,6 km/h (1 Bft)
03.04.2018 19:56 13,6 °C 48 % 1004,2 hPa 0,0 mm 1,5 km/h (1 Bft) W-NW 300 ° 0 min 0,000 mm 0,0 UV-I 0 W/m² 2,8 °C 13,6 °C 3,2 km/h (1 Bft)
03.04.2018 19:57 13,6 °C 49 % 1004,3 hPa 0,0 mm 1,9 km/h (1 Bft) W-NW 300 ° 0 min 0,000 mm 0,0 UV-I 0 W/m² 3,1 °C 13,6 °C 3,2 km/h (1 Bft)
03.04.2018 19:58 13,6 °C 48 % 1004,3 hPa 0,0 mm 0,4 km/h (0 Bft) W-NW 300 ° 0 min 0,000 mm 0,0 UV-I 0 W/m² 2,8 °C 13,6 °C 1,6 km/h (1 Bft)
03.04.2018 19:59 13,6 °C 49 % 1004,3 hPa 0,0 mm 0,0 km/h (0 Bft) W-NW 301 ° 0 min 0,000 mm 0,0 UV-I 0 W/m² 3,1 °C 13,6 °C 0,0 km/h (0 Bft)
03.04.2018 20:00 13,6 °C 48 % 1004,3 hPa 0,0 mm 0,0 km/h (0 Bft) W-NW 300 ° 0 min 0,025 mm 0,0 UV-I 0 W/m² 2,8 °C 13,6 °C 0,0 km/h (0 Bft)
03.04.2018 20:01 13,6 °C 49 % 1004,3 hPa 0,0 mm 1,8 km/h (1 Bft) W-NW 300 ° 0 min 0,000 mm 0,0 UV-I 0 W/m² 3,1 °C 13,6 °C 3,2 km/h (1 Bft)
03.04.2018 20:02 13,6 °C 48 % 1004,3 hPa 0,0 mm 1,1 km/h (1 Bft) W-NW 300 ° 0 min 0,000 mm 0,0 UV-I 0 W/m² 2,8 °C 13,6 °C 1,6 km/h (1 Bft)
03.04.2018 20:03 13,7 °C 48 % 1004,4 hPa 0,0 mm 2,1 km/h (1 Bft) W-NW 300 ° 0 min 0,000 mm 0,0 UV-I 0 W/m² 2,9 °C 13,7 °C 3,2 km/h (1 Bft)
03.04.2018 20:04 13,7 °C 49 % 1004,3 hPa 0,0 mm 1,9 km/h (1 Bft) W-NW 299 ° 0 min 0,000 mm 0,0 UV-I 0 W/m² 3,2 °C 13,7 °C 3,2 km/h (1 Bft)
03.04.2018 20:05 13,7 °C 49 % 1004,3 hPa 0,0 mm 3,9 km/h (1 Bft) S-SW 194 ° 0 min 0,000 mm 0,0 UV-I 0 W/m² 3,2 °C 13,7 °C 4,8 km/h (1 Bft)
03.04.2018 20:06 13,7 °C 50 % 1004,3 hPa 0,0 mm 3,9 km/h (1 Bft) S 172 ° 0 min 0,000 mm 0,0 UV-I 0 W/m² 3,5 °C 13,7 °C 4,8 km/h (1 Bft)
03.04.2018 20:07 13,6 °C 50 % 1004,4 hPa 0,0 mm 3,4 km/h (1 Bft) S 172 ° 0 min 0,000 mm 0,0 UV-I 0 W/m² 3,4 °C 13,6 °C 4,8 km/h (1 Bft)
03.04.2018 20:08 13,7 °C 49 % 1004,4 hPa 0,0 mm 3,2 km/h (1 Bft) S 174 ° 0 min 0,000 mm 0,0 UV-I 0 W/m² 3,2 °C 13,7 °C 9,7 km/h (2 Bft)
03.04.2018 20:09 13,8 °C 48 % 1004,4 hPa 0,0 mm 1,9 km/h (1 Bft) S 174 ° 0 min 0,000 mm 0,0 UV-I 0 W/m² 3,0 °C 13,8 °C 9,7 km/h (2 Bft)
03.04.2018 20:10 13,7 °C 52 % 1004,4 hPa 0,0 mm 0,9 km/h (0 Bft) S 174 ° 0 min 0,000 mm 0,0 UV-I 0 W/m² 4,0 °C 13,7 °C 3,2 km/h (1 Bft)
03.04.2018 20:11 13,6 °C 50 % 1004,5 hPa 0,0 mm 0,1 km/h (0 Bft) S 174 ° 0 min 0,000 mm 0,0 UV-I 0 W/m² 3,4 °C 13,6 °C 1,6 km/h (1 Bft)
03.04.2018 20:12 13,5 °C 51 % 1004,5 hPa 0,0 mm 0,9 km/h (0 Bft) S 174 ° 0 min 0,000 mm 0,0 UV-I 0 W/m² 3,6 °C 13,5 °C 1,6 km/h (1 Bft)
03.04.2018 20:13 13,5 °C 51 % 1004,4 hPa 0,0 mm 3,0 km/h (1 Bft) S 174 ° 0 min 0,000 mm 0,0 UV-I 0 W/m² 3,6 °C 13,5 °C 3,2 km/h (1 Bft)
03.04.2018 20:14 13,4 °C 52 % 1004,5 hPa 0,0 mm 3,0 km/h (1 Bft) S 174 ° 0 min 0,000 mm 0,0 UV-I 0 W/m² 3,7 °C 13,4 °C 3,2 km/h (1 Bft)
03.04.2018 20:15 13,5 °C 51 % 1004,5 hPa 0,0 mm 2,7 km/h (1 Bft) S 174 ° 0 min 0,000 mm 0,0 UV-I 0 W/m² 3,6 °C 13,5 °C 3,2 km/h (1 Bft)
03.04.2018 20:16 13,6 °C 49 % 1004,5 hPa 0,0 mm 1,3 km/h (1 Bft) S 174 ° 0 min 0,000 mm 0,0 UV-I 0 W/m² 3,1 °C 13,6 °C 3,2 km/h (1 Bft)
03.04.2018 20:17 13,6 °C 49 % 1004,6 hPa 0,0 mm 0,7 km/h (0 Bft) S 174 ° 0 min 0,000 mm 0,0 UV-I 0 W/m² 3,1 °C 13,6 °C 3,2 km/h (1 Bft)
03.04.2018 20:18 13,7 °C 49 % 1004,6 hPa 0,0 mm 1,2 km/h (1 Bft) S 174 ° 0 min 0,000 mm 0,0 UV-I 0 W/m² 3,2 °C 13,7 °C 3,2 km/h (1 Bft)
03.04.2018 20:19 13,7 °C 49 % 1004,6 hPa 0,0 mm 0,0 km/h (0 Bft) S 174 ° 0 min 0,000 mm 0,0 UV-I 0 W/m² 3,2 °C 13,7 °C 0,0 km/h (0 Bft)
03.04.2018 20:20 13,6 °C 52 % 1004,6 hPa 0,0 mm 0,4 km/h (0 Bft) S 174 ° 0 min 0,000 mm 0,0 UV-I 0 W/m² 3,9 °C 13,6 °C 1,6 km/h (1 Bft)
03.04.2018 20:21 13,4 °C 53 % 1004,7 hPa 0,0 mm 1,3 km/h (1 Bft) S 174 ° 0 min 0,000 mm 0,0 UV-I 0 W/m² 4,0 °C 13,4 °C 1,6 km/h (1 Bft)
03.04.2018 20:22 13,6 °C 49 % 1004,7 hPa 0,0 mm 0,8 km/h (0 Bft) S 174 ° 0 min 0,000 mm 0,0 UV-I 0 W/m² 3,1 °C 13,6 °C 1,6 km/h (1 Bft)
03.04.2018 20:23 13,6 °C 49 % 1004,7 hPa 0,0 mm 1,0 km/h (0 Bft) S 174 ° 0 min 0,000 mm 0,0 UV-I 0 W/m² 3,1 °C 13,6 °C 1,6 km/h (1 Bft)
03.04.2018 20:24 13,7 °C 49 % 1004,7 hPa 0,0 mm 3,0 km/h (1 Bft) S 174 ° 0 min 0,000 mm 0,0 UV-I 0 W/m² 3,2 °C 13,7 °C 3,2 km/h (1 Bft)
03.04.2018 20:25 13,7 °C 49 % 1004,7 hPa 0,0 mm 1,5 km/h (1 Bft) S 174 ° 0 min 0,000 mm 0,0 UV-I 0 W/m² 3,2 °C 13,7 °C 3,2 km/h (1 Bft)
03.04.2018 20:26 13,7 °C 50 % 1004,7 hPa 0,0 mm 3,5 km/h (1 Bft) S 174 ° 0 min 0,000 mm 0,0 UV-I 0 W/m² 3,5 °C 13,7 °C 4,8 km/h (1 Bft)
03.04.2018 20:27 13,7 °C 50 % 1004,6 hPa 0,0 mm 4,4 km/h (1 Bft) S 174 ° 0 min 0,000 mm 0,0 UV-I 0 W/m² 3,5 °C 13,7 °C 4,8 km/h (1 Bft)
03.04.2018 20:28 13,7 °C 51 % 1004,7 hPa 0,0 mm 5,9 km/h (2 Bft) S 174 ° 0 min 0,000 mm 0,0 UV-I 0 W/m² 3,8 °C 13,7 °C 8,0 km/h (2 Bft)
03.04.2018 20:29 13,6 °C 51 % 1004,7 hPa 0,0 mm 5,6 km/h (1 Bft) S 174 ° 0 min 0,000 mm 0,0 UV-I 0 W/m² 3,7 °C 13,6 °C 8,0 km/h (2 Bft)
03.04.2018 20:30 13,6 °C 51 % 1004,7 hPa 0,0 mm 3,5 km/h (1 Bft) S 174 ° 0 min 0,000 mm 0,0 UV-I 0 W/m² 3,7 °C 13,6 °C 4,8 km/h (1 Bft)
03.04.2018 20:31 13,4 °C 53 % 1004,7 hPa 0,0 mm 0,7 km/h (0 Bft) S 174 ° 0 min 0,000 mm 0,0 UV-I 0 W/m² 4,0 °C 13,4 °C 1,6 km/h (1 Bft)
03.04.2018 20:32 13,4 °C 52 % 1004,7 hPa 0,0 mm 1,2 km/h (1 Bft) S 174 ° 0 min 0,000 mm 0,0 UV-I 0 W/m² 3,7 °C 13,4 °C 3,2 km/h (1 Bft)
03.04.2018 20:33 13,3 °C 52 % 1004,6 hPa 0,0 mm 0,3 km/h (0 Bft) S 174 ° 0 min 0,000 mm 0,0 UV-I 0 W/m² 3,7 °C 13,3 °C 1,6 km/h (1 Bft)
03.04.2018 20:34 13,4 °C 51 % 1004,6 hPa 0,0 mm 0,8 km/h (0 Bft) S 174 ° 0 min 0,000 mm 0,0 UV-I 0 W/m² 3,5 °C 13,4 °C 1,6 km/h (1 Bft)
03.04.2018 20:35 13,4 °C 49 % 1004,7 hPa 0,0 mm 0,4 km/h (0 Bft) S 174 ° 0 min 0,000 mm 0,0 UV-I 0 W/m² 2,9 °C 13,4 °C 1,6 km/h (1 Bft)
03.04.2018 20:36 13,6 °C 50 % 1004,7 hPa 0,0 mm 0,3 km/h (0 Bft) S 174 ° 0 min 0,000 mm 0,0 UV-I 0 W/m² 3,4 °C 13,6 °C 1,6 km/h (1 Bft)
03.04.2018 20:37 13,6 °C 51 % 1004,7 hPa 0,0 mm 3,9 km/h (1 Bft) S 174 ° 0 min 0,000 mm 0,0 UV-I 0 W/m² 3,7 °C 13,6 °C 8,0 km/h (2 Bft)
03.04.2018 20:38 13,5 °C 53 % 1004,8 hPa 0,0 mm 8,2 km/h (2 Bft) S-SW 203 ° 0 min 0,000 mm 0,0 UV-I 0 W/m² 4,1 °C 13,5 °C 9,7 km/h (2 Bft)
03.04.2018 20:39 13,3 °C 53 % 1004,8 hPa 0,0 mm 7,4 km/h (2 Bft) S 185 ° 0 min 0,000 mm 0,0 UV-I 0 W/m² 3,9 °C 13,3 °C 9,7 km/h (2 Bft)
03.04.2018 20:40 13,1 °C 55 % 1004,8 hPa 0,0 mm 7,4 km/h (2 Bft) S 185 ° 0 min 0,000 mm 0,0 UV-I 0 W/m² 4,3 °C 13,1 °C 8,0 km/h (2 Bft)
03.04.2018 20:41 12,9 °C 55 % 1004,9 hPa 0,0 mm 5,6 km/h (1 Bft) S 185 ° 0 min 0,000 mm 0,0 UV-I 0 W/m² 4,1 °C 12,9 °C 8,0 km/h (2 Bft)
03.04.2018 20:42 12,8 °C 54 % 1004,9 hPa 0,0 mm 4,8 km/h (1 Bft) S 184 ° 0 min 0,000 mm 0,0 UV-I 0 W/m² 3,7 °C 12,8 °C 6,4 km/h (2 Bft)
03.04.2018 20:43 12,7 °C 54 % 1004,8 hPa 0,0 mm 4,8 km/h (1 Bft) S 184 ° 0 min 0,000 mm 0,0 UV-I 0 W/m² 3,6 °C 12,7 °C 6,4 km/h (2 Bft)
03.04.2018 20:44 12,6 °C 54 % 1004,9 hPa 0,0 mm 3,7 km/h (1 Bft) S 184 ° 0 min 0,000 mm 0,0 UV-I 0 W/m² 3,5 °C 12,6 °C 4,8 km/h (1 Bft)
03.04.2018 20:45 12,7 °C 52 % 1004,9 hPa 0,0 mm 3,7 km/h (1 Bft) S 184 ° 0 min 0,000 mm 0,0 UV-I 0 W/m² 3,1 °C 12,7 °C 4,8 km/h (1 Bft)
03.04.2018 20:46 12,8 °C 52 % 1004,9 hPa 0,0 mm 3,5 km/h (1 Bft) S 184 ° 0 min 0,000 mm 0,0 UV-I 0 W/m² 3,2 °C 12,8 °C 4,8 km/h (1 Bft)
03.04.2018 20:47 12,8 °C 53 % 1004,9 hPa 0,0 mm 2,0 km/h (1 Bft) S 184 ° 0 min 0,000 mm 0,0 UV-I 0 W/m² 3,5 °C 12,8 °C 4,8 km/h (1 Bft)
03.04.2018 20:48 12,9 °C 52 % 1004,9 hPa 0,0 mm 4,4 km/h (1 Bft) S 184 ° 0 min 0,000 mm 0,0 UV-I 0 W/m² 3,3 °C 12,9 °C 4,8 km/h (1 Bft)
03.04.2018 20:49 12,9 °C 53 % 1004,9 hPa 0,0 mm 4,1 km/h (1 Bft) S 184 ° 0 min 0,000 mm 0,0 UV-I 0 W/m² 3,6 °C 12,9 °C 6,4 km/h (2 Bft)
03.04.2018 20:50 13,0 °C 53 % 1004,9 hPa 0,0 mm 2,7 km/h (1 Bft) S 184 ° 0 min 0,000 mm 0,0 UV-I 0 W/m² 3,6 °C 13,0 °C 4,8 km/h (1 Bft)
03.04.2018 20:51 13,1 °C 53 % 1005,0 hPa 0,0 mm 3,0 km/h (1 Bft) S 184 ° 0 min 0,000 mm 0,0 UV-I 0 W/m² 3,7 °C 13,1 °C 3,2 km/h (1 Bft)
03.04.2018 20:52 13,1 °C 53 % 1005,0 hPa 0,0 mm 4,0 km/h (1 Bft) S 184 ° 0 min 0,000 mm 0,0 UV-I 0 W/m² 3,7 °C 13,1 °C 4,8 km/h (1 Bft)
03.04.2018 20:53 13,0 °C 53 % 1005,0 hPa 0,0 mm 5,8 km/h (2 Bft) S 184 ° 0 min 0,000 mm 0,0 UV-I 0 W/m² 3,6 °C 13,0 °C 6,4 km/h (2 Bft)
03.04.2018 20:54 12,9 °C 53 % 1005,1 hPa 0,0 mm 4,0 km/h (1 Bft) S 184 ° 0 min 0,000 mm 0,0 UV-I 0 W/m² 3,6 °C 12,9 °C 4,8 km/h (1 Bft)
03.04.2018 20:55 12,8 °C 54 % 1005,1 hPa 0,0 mm 4,2 km/h (1 Bft) S 184 ° 0 min 0,000 mm 0,0 UV-I 0 W/m² 3,7 °C 12,8 °C 6,4 km/h (2 Bft)
03.04.2018 20:56 12,7 °C 54 % 1005,2 hPa 0,0 mm 2,3 km/h (1 Bft) S 184 ° 0 min 0,000 mm 0,0 UV-I 0 W/m² 3,6 °C 12,7 °C 4,8 km/h (1 Bft)
03.04.2018 20:57 12,6 °C 55 % 1005,0 hPa 0,0 mm 2,0 km/h (1 Bft) S 184 ° 0 min 0,000 mm 0,0 UV-I 0 W/m² 3,8 °C 12,6 °C 4,8 km/h (1 Bft)
03.04.2018 20:58 12,5 °C 56 % 1005,1 hPa 0,0 mm 3,1 km/h (1 Bft) S 184 ° 0 min 0,000 mm 0,0 UV-I 0 W/m² 4,0 °C 12,5 °C 4,8 km/h (1 Bft)
03.04.2018 20:59 12,4 °C 57 % 1005,1 hPa 0,0 mm 3,0 km/h (1 Bft) S 184 ° 0 min 0,000 mm 0,0 UV-I 0 W/m² 4,1 °C 12,4 °C 4,8 km/h (1 Bft)
03.04.2018 21:00 12,3 °C 55 % 1005,1 hPa 0,0 mm 3,2 km/h (1 Bft) S 184 ° 0 min 0,000 mm 0,0 UV-I 0 W/m² 3,5 °C 12,3 °C 4,8 km/h (1 Bft)
03.04.2018 21:01 12,3 °C 55 % 1005,1 hPa 0,0 mm 3,2 km/h (1 Bft) S 184 ° 0 min 0,026 mm 0,0 UV-I 0 W/m² 3,5 °C 12,3 °C 4,8 km/h (1 Bft)
03.04.2018 21:02 12,3 °C 54 % 1005,2 hPa 0,0 mm 3,2 km/h (1 Bft) S 184 ° 0 min 0,000 mm 0,0 UV-I 0 W/m² 3,3 °C 12,3 °C 4,8 km/h (1 Bft)
03.04.2018 21:03 12,3 °C 54 % 1005,2 hPa 0,0 mm 2,3 km/h (1 Bft) S 184 ° 0 min 0,000 mm 0,0 UV-I 0 W/m² 3,3 °C 12,3 °C 4,8 km/h (1 Bft)
03.04.2018 21:04 12,3 °C 55 % 1005,2 hPa 0,0 mm 2,4 km/h (1 Bft) S 184 ° 0 min 0,000 mm 0,0 UV-I 0 W/m² 3,5 °C 12,3 °C 3,2 km/h (1 Bft)
03.04.2018 21:05 12,3 °C 55 % 1005,2 hPa 0,0 mm 2,9 km/h (1 Bft) S 184 ° 0 min 0,000 mm 0,0 UV-I 0 W/m² 3,5 °C 12,3 °C 4,8 km/h (1 Bft)
03.04.2018 21:06 12,2 °C 54 % 1005,2 hPa 0,0 mm 2,5 km/h (1 Bft) S 184 ° 0 min 0,000 mm 0,0 UV-I 0 W/m² 3,2 °C 12,2 °C 4,8 km/h (1 Bft)
03.04.2018 21:07 12,1 °C 57 % 1005,2 hPa 0,0 mm 2,0 km/h (1 Bft) S 184 ° 0 min 0,000 mm 0,0 UV-I 0 W/m² 3,8 °C 12,1 °C 3,2 km/h (1 Bft)
03.04.2018 21:08 11,9 °C 57 % 1005,2 hPa 0,0 mm 2,3 km/h (1 Bft) S 184 ° 0 min 0,000 mm 0,0 UV-I 0 W/m² 3,7 °C 11,9 °C 3,2 km/h (1 Bft)
03.04.2018 21:09 11,8 °C 55 % 1005,2 hPa 0,0 mm 0,5 km/h (0 Bft) S 184 ° 0 min 0,000 mm 0,0 UV-I 0 W/m² 3,1 °C 11,8 °C 1,6 km/h (1 Bft)
03.04.2018 21:10 11,7 °C 58 % 1005,2 hPa 0,0 mm 2,2 km/h (1 Bft) S 184 ° 0 min 0,000 mm 0,0 UV-I 0 W/m² 3,7 °C 11,7 °C 4,8 km/h (1 Bft)
03.04.2018 21:11 11,5 °C 59 % 1005,2 hPa 0,0 mm 3,8 km/h (1 Bft) S 184 ° 0 min 0,000 mm 0,0 UV-I 0 W/m² 3,8 °C 11,5 °C 4,8 km/h (1 Bft)
03.04.2018 21:12 11,3 °C 59 % 1005,2 hPa 0,0 mm 4,6 km/h (1 Bft) S 184 ° 0 min 0,000 mm 0,0 UV-I 0 W/m² 3,6 °C 11,3 °C 4,8 km/h (1 Bft)
03.04.2018 21:13 11,3 °C 57 % 1005,2 hPa 0,0 mm 3,6 km/h (1 Bft) S 184 ° 0 min 0,000 mm 0,0 UV-I 0 W/m² 3,1 °C 11,3 °C 4,8 km/h (1 Bft)
03.04.2018 21:14 11,4 °C 56 % 1005,2 hPa 0,0 mm 2,8 km/h (1 Bft) S 184 ° 0 min 0,000 mm 0,0 UV-I 0 W/m² 2,9 °C 11,4 °C 4,8 km/h (1 Bft)
03.04.2018 21:15 11,6 °C 56 % 1005,2 hPa 0,0 mm 2,5 km/h (1 Bft) S 184 ° 0 min 0,000 mm 0,0 UV-I 0 W/m² 3,1 °C 11,6 °C 3,2 km/h (1 Bft)
03.04.2018 21:16 11,7 °C 56 % 1005,2 hPa 0,0 mm 2,2 km/h (1 Bft) S 184 ° 0 min 0,000 mm 0,0 UV-I 0 W/m² 3,2 °C 11,7 °C 3,2 km/h (1 Bft)
03.04.2018 21:17 11,7 °C 56 % 1005,2 hPa 0,0 mm 1,7 km/h (1 Bft) S 184 ° 0 min 0,000 mm 0,0 UV-I 0 W/m² 3,2 °C 11,7 °C 3,2 km/h (1 Bft)
03.04.2018 21:18 11,8 °C 55 % 1005,2 hPa 0,0 mm 0,0 km/h (0 Bft) S 184 ° 0 min 0,000 mm 0,0 UV-I 0 W/m² 3,1 °C 11,8 °C 0,0 km/h (0 Bft)
03.04.2018 21:19 11,8 °C 55 % 1005,2 hPa 0,0 mm 0,0 km/h (0 Bft) S 184 ° 0 min 0,000 mm 0,0 UV-I 0 W/m² 3,1 °C 11,8 °C 0,0 km/h (0 Bft)
03.04.2018 21:20 11,9 °C 55 % 1005,2 hPa 0,0 mm 1,4 km/h (1 Bft) S 184 ° 0 min 0,000 mm 0,0 UV-I 0 W/m² 3,2 °C 11,9 °C 4,8 km/h (1 Bft)
03.04.2018 21:21 11,8 °C 54 % 1005,2 hPa 0,0 mm 0,4 km/h (0 Bft) S 184 ° 0 min 0,000 mm 0,0 UV-I 0 W/m² 2,8 °C 11,8 °C 1,6 km/h (1 Bft)
03.04.2018 21:22 11,7 °C 56 % 1005,2 hPa 0,0 mm 0,1 km/h (0 Bft) S 184 ° 0 min 0,000 mm 0,0 UV-I 0 W/m² 3,2 °C 11,7 °C 1,6 km/h (1 Bft)
03.04.2018 21:23 11,6 °C 56 % 1005,2 hPa 0,0 mm 0,0 km/h (0 Bft) S 184 ° 0 min 0,000 mm 0,0 UV-I 0 W/m² 3,1 °C 11,6 °C 0,0 km/h (0 Bft)
03.04.2018 21:24 11,6 °C 56 % 1005,1 hPa 0,0 mm 0,3 km/h (0 Bft) S 184 ° 0 min 0,000 mm 0,0 UV-I 0 W/m² 3,1 °C 11,6 °C 1,6 km/h (1 Bft)
03.04.2018 21:25 11,5 °C 57 % 1005,2 hPa 0,0 mm 0,3 km/h (0 Bft) S 184 ° 0 min 0,000 mm 0,0 UV-I 0 W/m² 3,3 °C 11,5 °C 1,6 km/h (1 Bft)
03.04.2018 21:26 11,4 °C 57 % 1005,2 hPa 0,0 mm 0,1 km/h (0 Bft) S 184 ° 0 min 0,000 mm 0,0 UV-I 0 W/m² 3,2 °C 11,4 °C 1,6 km/h (1 Bft)
03.04.2018 21:27 11,4 °C 59 % 1005,2 hPa 0,0 mm 0,0 km/h (0 Bft) S 184 ° 0 min 0,000 mm 0,0 UV-I 0 W/m² 3,7 °C 11,4 °C 0,0 km/h (0 Bft)
03.04.2018 21:28 11,2 °C 61 % 1005,2 hPa 0,0 mm 0,0 km/h (0 Bft) S 184 ° 0 min 0,000 mm 0,0 UV-I 0 W/m² 4,0 °C 11,2 °C 0,0 km/h (0 Bft)
03.04.2018 21:29 10,9 °C 62 % 1005,1 hPa 0,0 mm 0,0 km/h (0 Bft) S 184 ° 0 min 0,000 mm 0,0 UV-I 0 W/m² 3,9 °C 10,9 °C 0,0 km/h (0 Bft)
03.04.2018 21:30 10,7 °C 63 % 1005,2 hPa 0,0 mm 0,0 km/h (0 Bft) S 184 ° 0 min 0,000 mm 0,0 UV-I 0 W/m² 3,9 °C 10,7 °C 0,0 km/h (0 Bft)
03.04.2018 21:31 10,7 °C 63 % 1005,2 hPa 0,0 mm 0,0 km/h (0 Bft) S 184 ° 0 min 0,000 mm 0,0 UV-I 0 W/m² 3,9 °C 10,7 °C 0,0 km/h (0 Bft)
03.04.2018 21:32 10,6 °C 63 % 1005,2 hPa 0,0 mm 0,0 km/h (0 Bft) S 184 ° 0 min 0,000 mm 0,0 UV-I 0 W/m² 3,9 °C 10,6 °C 0,0 km/h (0 Bft)
03.04.2018 21:33 10,6 °C 61 % 1005,3 hPa 0,0 mm 0,0 km/h (0 Bft) S 184 ° 0 min 0,000 mm 0,0 UV-I 0 W/m² 3,4 °C 10,6 °C 0,0 km/h (0 Bft)
03.04.2018 21:34 10,6 °C 61 % 1005,3 hPa 0,0 mm 0,0 km/h (0 Bft) S 184 ° 0 min 0,000 mm 0,0 UV-I 0 W/m² 3,4 °C 10,6 °C 0,0 km/h (0 Bft)
03.04.2018 21:35 10,7 °C 61 % 1005,3 hPa 0,0 mm 0,0 km/h (0 Bft) S 184 ° 0 min 0,000 mm 0,0 UV-I 0 W/m² 3,5 °C 10,7 °C 0,0 km/h (0 Bft)
03.04.2018 21:36 10,8 °C 59 % 1005,3 hPa 0,0 mm 0,3 km/h (0 Bft) S 184 ° 0 min 0,000 mm 0,0 UV-I 0 W/m² 3,1 °C 10,8 °C 1,6 km/h (1 Bft)
03.04.2018 21:37 11,0 °C 58 % 1005,3 hPa 0,0 mm 1,4 km/h (1 Bft) S 184 ° 0 min 0,000 mm 0,0 UV-I 0 W/m² 3,1 °C 11,0 °C 3,2 km/h (1 Bft)
03.04.2018 21:38 11,3 °C 56 % 1005,3 hPa 0,0 mm 0,5 km/h (0 Bft) S 184 ° 0 min 0,000 mm 0,0 UV-I 0 W/m² 2,8 °C 11,3 °C 1,6 km/h (1 Bft)
03.04.2018 21:39 11,3 °C 57 % 1005,3 hPa 0,0 mm 0,0 km/h (0 Bft) S 184 ° 0 min 0,000 mm 0,0 UV-I 0 W/m² 3,1 °C 11,3 °C 0,0 km/h (0 Bft)
03.04.2018 21:40 11,2 °C 59 % 1005,3 hPa 0,0 mm 0,0 km/h (0 Bft) S 184 ° 0 min 0,000 mm 0,0 UV-I 0 W/m² 3,5 °C 11,2 °C 0,0 km/h (0 Bft)
03.04.2018 21:41 11,0 °C 61 % 1005,3 hPa 0,0 mm 0,0 km/h (0 Bft) S 184 ° 0 min 0,000 mm 0,0 UV-I 0 W/m² 3,8 °C 11,0 °C 0,0 km/h (0 Bft)
03.04.2018 21:42 10,8 °C 61 % 1005,3 hPa 0,0 mm 0,0 km/h (0 Bft) S 184 ° 0 min 0,000 mm 0,0 UV-I 0 W/m² 3,6 °C 10,8 °C 0,0 km/h (0 Bft)
03.04.2018 21:43 10,7 °C 61 % 1005,3 hPa 0,0 mm 0,0 km/h (0 Bft) S 184 ° 0 min 0,000 mm 0,0 UV-I 0 W/m² 3,5 °C 10,7 °C 0,0 km/h (0 Bft)
03.04.2018 21:44 10,6 °C 62 % 1005,3 hPa 0,0 mm 0,0 km/h (0 Bft) S 184 ° 0 min 0,000 mm 0,0 UV-I 0 W/m² 3,6 °C 10,6 °C 0,0 km/h (0 Bft)
03.04.2018 21:45 10,6 °C 61 % 1005,3 hPa 0,0 mm 0,0 km/h (0 Bft) S 184 ° 0 min 0,000 mm 0,0 UV-I 0 W/m² 3,4 °C 10,6 °C 0,0 km/h (0 Bft)
03.04.2018 21:46 10,8 °C 60 % 1005,4 hPa 0,0 mm 0,0 km/h (0 Bft) S 184 ° 0 min 0,000 mm 0,0 UV-I 0 W/m² 3,4 °C 10,8 °C 0,0 km/h (0 Bft)
03.04.2018 21:47 10,8 °C 60 % 1005,3 hPa 0,0 mm 0,0 km/h (0 Bft) S 184 ° 0 min 0,000 mm 0,0 UV-I 0 W/m² 3,4 °C 10,8 °C 0,0 km/h (0 Bft)
03.04.2018 21:48 10,8 °C 61 % 1005,3 hPa 0,0 mm 0,0 km/h (0 Bft) S 184 ° 0 min 0,000 mm 0,0 UV-I 0 W/m² 3,6 °C 10,8 °C 0,0 km/h (0 Bft)
03.04.2018 21:49 10,7 °C 61 % 1005,3 hPa 0,0 mm 0,0 km/h (0 Bft) S 184 ° 0 min 0,000 mm 0,0 UV-I 0 W/m² 3,5 °C 10,7 °C 0,0 km/h (0 Bft)
03.04.2018 21:50 10,6 °C 62 % 1005,3 hPa 0,0 mm 0,0 km/h (0 Bft) S 184 ° 0 min 0,000 mm 0,0 UV-I 0 W/m² 3,6 °C 10,6 °C 0,0 km/h (0 Bft)
03.04.2018 21:51 10,7 °C 59 % 1005,3 hPa 0,0 mm 0,0 km/h (0 Bft) S 184 ° 0 min 0,000 mm 0,0 UV-I 0 W/m² 3,0 °C 10,7 °C 0,0 km/h (0 Bft)
03.04.2018 21:52 10,8 °C 59 % 1005,3 hPa 0,0 mm 0,0 km/h (0 Bft) S 184 ° 0 min 0,000 mm 0,0 UV-I 0 W/m² 3,1 °C 10,8 °C 0,0 km/h (0 Bft)
03.04.2018 21:53 10,9 °C 58 % 1005,2 hPa 0,0 mm 0,0 km/h (0 Bft) S 184 ° 0 min 0,000 mm 0,0 UV-I 0 W/m² 3,0 °C 10,9 °C 0,0 km/h (0 Bft)
03.04.2018 21:54 11,1 °C 58 % 1005,2 hPa 0,0 mm 0,0 km/h (0 Bft) S 184 ° 0 min 0,000 mm 0,0 UV-I 0 W/m² 3,2 °C 11,1 °C 0,0 km/h (0 Bft)
03.04.2018 21:55 11,1 °C 58 % 1005,2 hPa 0,0 mm 0,0 km/h (0 Bft) S 184 ° 0 min 0,000 mm 0,0 UV-I 0 W/m² 3,2 °C 11,1 °C 0,0 km/h (0 Bft)
03.04.2018 21:56 10,9 °C 60 % 1005,3 hPa 0,0 mm 0,0 km/h (0 Bft) S 184 ° 0 min 0,000 mm 0,0 UV-I 0 W/m² 3,4 °C 10,9 °C 0,0 km/h (0 Bft)
03.04.2018 21:57 10,7 °C 59 % 1005,3 hPa 0,0 mm 0,0 km/h (0 Bft) S 184 ° 0 min 0,000 mm 0,0 UV-I 0 W/m² 3,0 °C 10,7 °C 0,0 km/h (0 Bft)
03.04.2018 21:58 10,8 °C 58 % 1005,3 hPa 0,0 mm 0,0 km/h (0 Bft) S 184 ° 0 min 0,000 mm 0,0 UV-I 0 W/m² 2,9 °C 10,8 °C 0,0 km/h (0 Bft)
03.04.2018 21:59 10,8 °C 58 % 1005,3 hPa 0,0 mm 0,0 km/h (0 Bft) S 184 ° 0 min 0,000 mm 0,0 UV-I 0 W/m² 2,9 °C 10,8 °C 0,0 km/h (0 Bft)
03.04.2018 22:00 10,7 °C 61 % 1005,3 hPa 0,0 mm 0,0 km/h (0 Bft) S 184 ° 0 min 0,000 mm 0,0 UV-I 0 W/m² 3,5 °C 10,7 °C 0,0 km/h (0 Bft)
03.04.2018 22:01 10,6 °C 61 % 1005,3 hPa 0,0 mm 0,0 km/h (0 Bft) S 184 ° 0 min 0,025 mm 0,0 UV-I 0 W/m² 3,4 °C 10,6 °C 0,0 km/h (0 Bft)
03.04.2018 22:02 10,4 °C 61 % 1005,3 hPa 0,0 mm 0,0 km/h (0 Bft) S 184 ° 0 min 0,000 mm 0,0 UV-I 0 W/m² 3,2 °C 10,4 °C 0,0 km/h (0 Bft)
03.04.2018 22:03 10,3 °C 62 % 1005,4 hPa 0,0 mm 0,0 km/h (0 Bft) S 184 ° 0 min 0,000 mm 0,0 UV-I 0 W/m² 3,3 °C 10,3 °C 0,0 km/h (0 Bft)
03.04.2018 22:04 10,2 °C 63 % 1005,3 hPa 0,0 mm 0,0 km/h (0 Bft) S 184 ° 0 min 0,000 mm 0,0 UV-I 0 W/m² 3,5 °C 10,2 °C 0,0 km/h (0 Bft)
03.04.2018 22:05 10,1 °C 64 % 1005,3 hPa 0,0 mm 0,0 km/h (0 Bft) S 184 ° 0 min 0,000 mm 0,0 UV-I 0 W/m² 3,6 °C 10,1 °C 0,0 km/h (0 Bft)
03.04.2018 22:06 9,9 °C 65 % 1005,3 hPa 0,0 mm 0,0 km/h (0 Bft) S 184 ° 0 min 0,000 mm 0,0 UV-I 0 W/m² 3,6 °C 9,9 °C 0,0 km/h (0 Bft)
03.04.2018 22:07 9,9 °C 65 % 1005,3 hPa 0,0 mm 0,0 km/h (0 Bft) S 184 ° 0 min 0,000 mm 0,0 UV-I 0 W/m² 3,6 °C 9,9 °C 0,0 km/h (0 Bft)
03.04.2018 22:08 9,8 °C 65 % 1005,3 hPa 0,0 mm 0,0 km/h (0 Bft) S 184 ° 0 min 0,000 mm 0,0 UV-I 0 W/m² 3,5 °C 9,8 °C 0,0 km/h (0 Bft)
03.04.2018 22:09 9,7 °C 65 % 1005,3 hPa 0,0 mm 0,0 km/h (0 Bft) S 184 ° 0 min 0,000 mm 0,0 UV-I 0 W/m² 3,4 °C 9,7 °C 0,0 km/h (0 Bft)
03.04.2018 22:10 9,7 °C 65 % 1005,2 hPa 0,0 mm 0,0 km/h (0 Bft) S 184 ° 0 min 0,000 mm 0,0 UV-I 0 W/m² 3,4 °C 9,7 °C 0,0 km/h (0 Bft)
03.04.2018 22:11 9,7 °C 65 % 1005,2 hPa 0,0 mm 0,0 km/h (0 Bft) S 184 ° 0 min 0,000 mm 0,0 UV-I 0 W/m² 3,4 °C 9,7 °C 0,0 km/h (0 Bft)
03.04.2018 22:12 9,7 °C 64 % 1005,2 hPa 0,0 mm 0,0 km/h (0 Bft) S 184 ° 0 min 0,000 mm 0,0 UV-I 0 W/m² 3,2 °C 9,7 °C 0,0 km/h (0 Bft)
03.04.2018 22:13 9,7 °C 63 % 1005,2 hPa 0,0 mm 0,0 km/h (0 Bft) S 184 ° 0 min 0,000 mm 0,0 UV-I 0 W/m² 3,0 °C 9,7 °C 0,0 km/h (0 Bft)
03.04.2018 22:14 9,7 °C 63 % 1005,2 hPa 0,0 mm 0,0 km/h (0 Bft) S 184 ° 0 min 0,000 mm 0,0 UV-I 0 W/m² 3,0 °C 9,7 °C 0,0 km/h (0 Bft)
03.04.2018 22:15 9,8 °C 64 % 1005,3 hPa 0,0 mm 0,0 km/h (0 Bft) S 184 ° 0 min 0,000 mm 0,0 UV-I 0 W/m² 3,3 °C 9,8 °C 0,0 km/h (0 Bft)
03.04.2018 22:16 9,8 °C 63 % 1005,2 hPa 0,0 mm 0,0 km/h (0 Bft) S 184 ° 0 min 0,000 mm 0,0 UV-I 0 W/m² 3,1 °C 9,8 °C 0,0 km/h (0 Bft)
03.04.2018 22:17 9,8 °C 63 % 1005,2 hPa 0,0 mm 0,0 km/h (0 Bft) S 184 ° 0 min 0,000 mm 0,0 UV-I 0 W/m² 3,1 °C 9,8 °C 0,0 km/h (0 Bft)
03.04.2018 22:18 9,9 °C 62 % 1005,2 hPa 0,0 mm 0,0 km/h (0 Bft) S 184 ° 0 min 0,000 mm 0,0 UV-I 0 W/m² 3,0 °C 9,9 °C 0,0 km/h (0 Bft)
03.04.2018 22:19 10,0 °C 63 % 1005,1 hPa 0,0 mm 0,0 km/h (0 Bft) S 184 ° 0 min 0,000 mm 0,0 UV-I 0 W/m² 3,3 °C 10,0 °C 0,0 km/h (0 Bft)
03.04.2018 22:20 10,2 °C 60 % 1005,2 hPa 0,0 mm 0,7 km/h (0 Bft) S 184 ° 0 min 0,000 mm 0,0 UV-I 0 W/m² 2,8 °C 10,2 °C 1,6 km/h (1 Bft)
03.04.2018 22:21 10,4 °C 58 % 1005,2 hPa 0,0 mm 0,4 km/h (0 Bft) S 184 ° 0 min 0,000 mm 0,0 UV-I 0 W/m² 2,5 °C 10,4 °C 1,6 km/h (1 Bft)
03.04.2018 22:22 10,7 °C 58 % 1005,1 hPa 0,0 mm 0,6 km/h (0 Bft) S 184 ° 0 min 0,000 mm 0,0 UV-I 0 W/m² 2,8 °C 10,7 °C 1,6 km/h (1 Bft)
03.04.2018 22:23 10,9 °C 58 % 1005,1 hPa 0,0 mm 0,0 km/h (0 Bft) S 184 ° 0 min 0,000 mm 0,0 UV-I 0 W/m² 3,0 °C 10,9 °C 0,0 km/h (0 Bft)
03.04.2018 22:24 11,1 °C 56 % 1005,1 hPa 0,0 mm 0,0 km/h (0 Bft) S 184 ° 0 min 0,000 mm 0,0 UV-I 0 W/m² 2,7 °C 11,1 °C 0,0 km/h (0 Bft)
03.04.2018 22:25 11,2 °C 57 % 1005,1 hPa 0,0 mm 0,0 km/h (0 Bft) S 184 ° 0 min 0,000 mm 0,0 UV-I 0 W/m² 3,0 °C 11,2 °C 0,0 km/h (0 Bft)
03.04.2018 22:26 11,3 °C 57 % 1005,1 hPa 0,0 mm 0,0 km/h (0 Bft) S 184 ° 0 min 0,000 mm 0,0 UV-I 0 W/m² 3,1 °C 11,3 °C 0,0 km/h (0 Bft)
03.04.2018 22:27 11,3 °C 55 % 1005,1 hPa 0,0 mm 0,0 km/h (0 Bft) S 184 ° 0 min 0,000 mm 0,0 UV-I 0 W/m² 2,6 °C 11,3 °C 0,0 km/h (0 Bft)
03.04.2018 22:28 11,3 °C 54 % 1005,0 hPa 0,0 mm 0,0 km/h (0 Bft) S 184 ° 0 min 0,000 mm 0,0 UV-I 0 W/m² 2,3 °C 11,3 °C 0,0 km/h (0 Bft)
03.04.2018 22:29 11,3 °C 56 % 1005,0 hPa 0,0 mm 0,0 km/h (0 Bft) S 184 ° 0 min 0,000 mm 0,0 UV-I 0 W/m² 2,8 °C 11,3 °C 0,0 km/h (0 Bft)
03.04.2018 22:30 10,9 °C 59 % 1005,1 hPa 0,0 mm 0,0 km/h (0 Bft) S 184 ° 0 min 0,000 mm 0,0 UV-I 0 W/m² 3,2 °C 10,9 °C 0,0 km/h (0 Bft)
03.04.2018 22:31 10,9 °C 56 % 1005,0 hPa 0,0 mm 0,9 km/h (0 Bft) S 184 ° 0 min 0,000 mm 0,0 UV-I 0 W/m² 2,5 °C 10,9 °C 3,2 km/h (1 Bft)
03.04.2018 22:32 10,9 °C 58 % 1005,0 hPa 0,0 mm 1,3 km/h (1 Bft) S 184 ° 0 min 0,000 mm 0,0 UV-I 0 W/m² 3,0 °C 10,9 °C 1,6 km/h (1 Bft)
03.04.2018 22:33 10,8 °C 57 % 1005,0 hPa 0,0 mm 0,9 km/h (0 Bft) S 184 ° 0 min 0,000 mm 0,0 UV-I 0 W/m² 2,6 °C 10,8 °C 1,6 km/h (1 Bft)
03.04.2018 22:34 10,9 °C 56 % 1005,0 hPa 0,0 mm 0,5 km/h (0 Bft) S 184 ° 0 min 0,000 mm 0,0 UV-I 0 W/m² 2,5 °C 10,9 °C 1,6 km/h (1 Bft)
03.04.2018 22:35 11,0 °C 56 % 1005,0 hPa 0,0 mm 0,1 km/h (0 Bft) S 184 ° 0 min 0,000 mm 0,0 UV-I 0 W/m² 2,6 °C 11,0 °C 1,6 km/h (1 Bft)
03.04.2018 22:36 11,1 °C 56 % 1005,0 hPa 0,0 mm 1,1 km/h (1 Bft) S 184 ° 0 min 0,000 mm 0,0 UV-I 0 W/m² 2,7 °C 11,1 °C 1,6 km/h (1 Bft)
03.04.2018 22:37 11,1 °C 55 % 1005,0 hPa 0,0 mm 4,0 km/h (1 Bft) S 184 ° 0 min 0,000 mm 0,0 UV-I 0 W/m² 2,4 °C 11,1 °C 4,8 km/h (1 Bft)
03.04.2018 22:38 11,1 °C 57 % 1005,1 hPa 0,0 mm 4,4 km/h (1 Bft) S 184 ° 0 min 0,000 mm 0,0 UV-I 0 W/m² 2,9 °C 11,1 °C 6,4 km/h (2 Bft)
03.04.2018 22:39 11,1 °C 56 % 1005,0 hPa 0,0 mm 1,7 km/h (1 Bft) S 184 ° 0 min 0,000 mm 0,0 UV-I 0 W/m² 2,7 °C 11,1 °C 3,2 km/h (1 Bft)
03.04.2018 22:40 11,1 °C 55 % 1005,1 hPa 0,0 mm 2,8 km/h (1 Bft) S 184 ° 0 min 0,000 mm 0,0 UV-I 0 W/m² 2,4 °C 11,1 °C 4,8 km/h (1 Bft)
03.04.2018 22:41 11,2 °C 55 % 1005,0 hPa 0,0 mm 1,3 km/h (1 Bft) S 184 ° 0 min 0,000 mm 0,0 UV-I 0 W/m² 2,5 °C 11,2 °C 3,2 km/h (1 Bft)
03.04.2018 22:42 11,2 °C 55 % 1005,0 hPa 0,0 mm 1,6 km/h (1 Bft) S 184 ° 0 min 0,000 mm 0,0 UV-I 0 W/m² 2,5 °C 11,2 °C 3,2 km/h (1 Bft)
03.04.2018 22:43 11,2 °C 55 % 1005,0 hPa 0,0 mm 3,3 km/h (1 Bft) S 184 ° 0 min 0,000 mm 0,0 UV-I 0 W/m² 2,5 °C 11,2 °C 4,8 km/h (1 Bft)
03.04.2018 22:44 11,2 °C 55 % 1005,0 hPa 0,0 mm 4,0 km/h (1 Bft) S 184 ° 0 min 0,000 mm 0,0 UV-I 0 W/m² 2,5 °C 11,2 °C 4,8 km/h (1 Bft)
03.04.2018 22:45 11,2 °C 55 % 1005,0 hPa 0,0 mm 3,7 km/h (1 Bft) S 184 ° 0 min 0,000 mm 0,0 UV-I 0 W/m² 2,5 °C 11,2 °C 4,8 km/h (1 Bft)
03.04.2018 22:46 11,2 °C 56 % 1005,0 hPa 0,0 mm 4,1 km/h (1 Bft) S 184 ° 0 min 0,000 mm 0,0 UV-I 0 W/m² 2,8 °C 11,2 °C 4,8 km/h (1 Bft)
03.04.2018 22:47 11,1 °C 56 % 1005,0 hPa 0,0 mm 3,6 km/h (1 Bft) S 184 ° 0 min 0,000 mm 0,0 UV-I 0 W/m² 2,7 °C 11,1 °C 4,8 km/h (1 Bft)
03.04.2018 22:48 11,1 °C 56 % 1005,0 hPa 0,0 mm 2,3 km/h (1 Bft) S 184 ° 0 min 0,000 mm 0,0 UV-I 0 W/m² 2,7 °C 11,1 °C 3,2 km/h (1 Bft)
03.04.2018 22:49 11,0 °C 56 % 1005,0 hPa 0,0 mm 3,7 km/h (1 Bft) S 184 ° 0 min 0,000 mm 0,0 UV-I 0 W/m² 2,6 °C 11,0 °C 4,8 km/h (1 Bft)
03.04.2018 22:50 11,0 °C 56 % 1005,0 hPa 0,0 mm 3,2 km/h (1 Bft) S 184 ° 0 min 0,000 mm 0,0 UV-I 0 W/m² 2,6 °C 11,0 °C 3,2 km/h (1 Bft)
03.04.2018 22:51 10,9 °C 56 % 1005,0 hPa 0,0 mm 3,0 km/h (1 Bft) S 184 ° 0 min 0,000 mm 0,0 UV-I 0 W/m² 2,5 °C 10,9 °C 3,2 km/h (1 Bft)
03.04.2018 22:52 10,9 °C 56 % 1005,0 hPa 0,0 mm 1,7 km/h (1 Bft) S 184 ° 0 min 0,000 mm 0,0 UV-I 0 W/m² 2,5 °C 10,9 °C 3,2 km/h (1 Bft)
03.04.2018 22:53 10,9 °C 56 % 1005,0 hPa 0,0 mm 2,0 km/h (1 Bft) S 184 ° 0 min 0,000 mm 0,0 UV-I 0 W/m² 2,5 °C 10,9 °C 3,2 km/h (1 Bft)
03.04.2018 22:54 10,9 °C 56 % 1005,0 hPa 0,0 mm 2,2 km/h (1 Bft) S 184 ° 0 min 0,000 mm 0,0 UV-I 0 W/m² 2,5 °C 10,9 °C 3,2 km/h (1 Bft)
03.04.2018 22:55 10,8 °C 56 % 1005,0 hPa 0,0 mm 1,7 km/h (1 Bft) S 184 ° 0 min 0,000 mm 0,0 UV-I 0 W/m² 2,4 °C 10,8 °C 3,2 km/h (1 Bft)
03.04.2018 22:56 10,8 °C 57 % 1005,0 hPa 0,0 mm 2,1 km/h (1 Bft) S 184 ° 0 min 0,000 mm 0,0 UV-I 0 W/m² 2,6 °C 10,8 °C 3,2 km/h (1 Bft)
03.04.2018 22:57 10,8 °C 56 % 1005,0 hPa 0,0 mm 0,9 km/h (0 Bft) S 184 ° 0 min 0,000 mm 0,0 UV-I 0 W/m² 2,4 °C 10,8 °C 1,6 km/h (1 Bft)
03.04.2018 22:58 10,8 °C 57 % 1005,0 hPa 0,0 mm 0,0 km/h (0 Bft) S 184 ° 0 min 0,000 mm 0,0 UV-I 0 W/m² 2,6 °C 10,8 °C 0,0 km/h (0 Bft)
03.04.2018 22:59 10,7 °C 58 % 1004,9 hPa 0,0 mm 0,0 km/h (0 Bft) S 184 ° 0 min 0,000 mm 0,0 UV-I 0 W/m² 2,8 °C 10,7 °C 0,0 km/h (0 Bft)
03.04.2018 23:00 10,5 °C 58 % 1005,0 hPa 0,0 mm 0,0 km/h (0 Bft) S 184 ° 0 min 0,000 mm 0,0 UV-I 0 W/m² 2,6 °C 10,5 °C 0,0 km/h (0 Bft)
03.04.2018 23:01 10,2 °C 63 % 1005,0 hPa 0,0 mm 0,0 km/h (0 Bft) S 184 ° 0 min 0,026 mm 0,0 UV-I 0 W/m² 3,5 °C 10,2 °C 0,0 km/h (0 Bft)
03.04.2018 23:02 9,8 °C 65 % 1004,9 hPa 0,0 mm 0,0 km/h (0 Bft) S 184 ° 0 min 0,000 mm 0,0 UV-I 0 W/m² 3,5 °C 9,8 °C 0,0 km/h (0 Bft)
03.04.2018 23:03 9,4 °C 66 % 1005,0 hPa 0,0 mm 0,0 km/h (0 Bft) S 184 ° 0 min 0,000 mm 0,0 UV-I 0 W/m² 3,4 °C 9,4 °C 0,0 km/h (0 Bft)
03.04.2018 23:04 9,2 °C 67 % 1004,9 hPa 0,0 mm 0,0 km/h (0 Bft) S 184 ° 0 min 0,000 mm 0,0 UV-I 0 W/m² 3,4 °C 9,2 °C 0,0 km/h (0 Bft)
03.04.2018 23:05 9,0 °C 67 % 1004,9 hPa 0,0 mm 0,0 km/h (0 Bft) S 184 ° 0 min 0,000 mm 0,0 UV-I 0 W/m² 3,2 °C 9,0 °C 0,0 km/h (0 Bft)
03.04.2018 23:06 9,0 °C 66 % 1004,9 hPa 0,0 mm 0,0 km/h (0 Bft) S 184 ° 0 min 0,000 mm 0,0 UV-I 0 W/m² 3,0 °C 9,0 °C 0,0 km/h (0 Bft)
03.04.2018 23:07 8,9 °C 67 % 1004,9 hPa 0,0 mm 0,0 km/h (0 Bft) S 184 ° 0 min 0,000 mm 0,0 UV-I 0 W/m² 3,1 °C 8,9 °C 0,0 km/h (0 Bft)
03.04.2018 23:08 9,0 °C 65 % 1004,9 hPa 0,0 mm 0,0 km/h (0 Bft) S 184 ° 0 min 0,000 mm 0,0 UV-I 0 W/m² 2,8 °C 9,0 °C 0,0 km/h (0 Bft)
03.04.2018 23:09 9,1 °C 63 % 1004,9 hPa 0,0 mm 0,8 km/h (0 Bft) S 184 ° 0 min 0,000 mm 0,0 UV-I 0 W/m² 2,4 °C 9,1 °C 1,6 km/h (1 Bft)
03.04.2018 23:10 9,4 °C 63 % 1004,9 hPa 0,0 mm 0,3 km/h (0 Bft) S 184 ° 0 min 0,000 mm 0,0 UV-I 0 W/m² 2,7 °C 9,4 °C 1,6 km/h (1 Bft)
03.04.2018 23:11 9,7 °C 61 % 1004,8 hPa 0,0 mm 0,1 km/h (0 Bft) S 184 ° 0 min 0,000 mm 0,0 UV-I 0 W/m² 2,5 °C 9,7 °C 1,6 km/h (1 Bft)
03.04.2018 23:12 9,8 °C 60 % 1004,8 hPa 0,0 mm 0,0 km/h (0 Bft) S 184 ° 0 min 0,000 mm 0,0 UV-I 0 W/m² 2,4 °C 9,8 °C 0,0 km/h (0 Bft)
03.04.2018 23:13 9,7 °C 64 % 1004,8 hPa 0,0 mm 0,0 km/h (0 Bft) S 184 ° 0 min 0,000 mm 0,0 UV-I 0 W/m² 3,2 °C 9,7 °C 0,0 km/h (0 Bft)
03.04.2018 23:14 9,5 °C 66 % 1004,9 hPa 0,0 mm 0,0 km/h (0 Bft) S 184 ° 0 min 0,000 mm 0,0 UV-I 0 W/m² 3,5 °C 9,5 °C 0,0 km/h (0 Bft)
03.04.2018 23:15 9,3 °C 67 % 1004,8 hPa 0,0 mm 0,0 km/h (0 Bft) S 184 ° 0 min 0,000 mm 0,0 UV-I 0 W/m² 3,5 °C 9,3 °C 0,0 km/h (0 Bft)
03.04.2018 23:16 9,1 °C 67 % 1004,9 hPa 0,0 mm 0,0 km/h (0 Bft) S 184 ° 0 min 0,000 mm 0,0 UV-I 0 W/m² 3,3 °C 9,1 °C 0,0 km/h (0 Bft)
03.04.2018 23:17 9,0 °C 68 % 1004,9 hPa 0,0 mm 0,0 km/h (0 Bft) S 184 ° 0 min 0,000 mm 0,0 UV-I 0 W/m² 3,4 °C 9,0 °C 0,0 km/h (0 Bft)
03.04.2018 23:18 8,9 °C 67 % 1004,9 hPa 0,0 mm 0,0 km/h (0 Bft) S 184 ° 0 min 0,000 mm 0,0 UV-I 0 W/m² 3,1 °C 8,9 °C 0,0 km/h (0 Bft)
03.04.2018 23:19 8,8 °C 69 % 1004,9 hPa 0,0 mm 0,0 km/h (0 Bft) S 184 ° 0 min 0,000 mm 0,0 UV-I 0 W/m² 3,4 °C 8,8 °C 0,0 km/h (0 Bft)
03.04.2018 23:20 8,8 °C 68 % 1004,9 hPa 0,0 mm 0,0 km/h (0 Bft) S 184 ° 0 min 0,000 mm 0,0 UV-I 0 W/m² 3,2 °C 8,8 °C 0,0 km/h (0 Bft)
03.04.2018 23:21 8,7 °C 68 % 1004,9 hPa 0,0 mm 0,0 km/h (0 Bft) S 184 ° 0 min 0,000 mm 0,0 UV-I 0 W/m² 3,1 °C 8,7 °C 0,0 km/h (0 Bft)
03.04.2018 23:22 8,7 °C 68 % 1004,9 hPa 0,0 mm 0,0 km/h (0 Bft) S 184 ° 0 min 0,000 mm 0,0 UV-I 0 W/m² 3,1 °C 8,7 °C 0,0 km/h (0 Bft)
03.04.2018 23:23 8,7 °C 68 % 1004,8 hPa 0,0 mm 0,0 km/h (0 Bft) S 184 ° 0 min 0,000 mm 0,0 UV-I 0 W/m² 3,1 °C 8,7 °C 0,0 km/h (0 Bft)
03.04.2018 23:24 8,8 °C 67 % 1004,9 hPa 0,0 mm 0,0 km/h (0 Bft) S 184 ° 0 min 0,000 mm 0,0 UV-I 0 W/m² 3,0 °C 8,8 °C 0,0 km/h (0 Bft)
03.04.2018 23:25 8,9 °C 66 % 1004,9 hPa 0,0 mm 0,0 km/h (0 Bft) S 184 ° 0 min 0,000 mm 0,0 UV-I 0 W/m² 2,9 °C 8,9 °C 0,0 km/h (0 Bft)
03.04.2018 23:26 9,1 °C 65 % 1004,8 hPa 0,0 mm 1,3 km/h (1 Bft) S 184 ° 0 min 0,000 mm 0,0 UV-I 0 W/m² 2,9 °C 9,1 °C 3,2 km/h (1 Bft)
03.04.2018 23:27 9,3 °C 65 % 1004,9 hPa 0,0 mm 2,5 km/h (1 Bft) S 184 ° 0 min 0,000 mm 0,0 UV-I 0 W/m² 3,1 °C 9,3 °C 3,2 km/h (1 Bft)
03.04.2018 23:28 9,4 °C 65 % 1004,8 hPa 0,0 mm 1,7 km/h (1 Bft) S 184 ° 0 min 0,000 mm 0,0 UV-I 0 W/m² 3,2 °C 9,4 °C 3,2 km/h (1 Bft)
03.04.2018 23:29 9,4 °C 64 % 1004,8 hPa 0,0 mm 0,0 km/h (0 Bft) S 184 ° 0 min 0,000 mm 0,0 UV-I 0 W/m² 2,9 °C 9,4 °C 0,0 km/h (0 Bft)
03.04.2018 23:30 9,4 °C 65 % 1004,8 hPa 0,0 mm 0,0 km/h (0 Bft) S 184 ° 0 min 0,000 mm 0,0 UV-I 0 W/m² 3,2 °C 9,4 °C 0,0 km/h (0 Bft)
03.04.2018 23:31 9,2 °C 65 % 1004,8 hPa 0,0 mm 1,2 km/h (1 Bft) S 184 ° 0 min 0,000 mm 0,0 UV-I 0 W/m² 3,0 °C 9,2 °C 3,2 km/h (1 Bft)
03.04.2018 23:32 9,2 °C 65 % 1004,8 hPa 0,0 mm 0,0 km/h (0 Bft) S 184 ° 0 min 0,000 mm 0,0 UV-I 0 W/m² 3,0 °C 9,2 °C 0,0 km/h (0 Bft)
03.04.2018 23:33 9,3 °C 64 % 1004,8 hPa 0,0 mm 1,4 km/h (1 Bft) S 184 ° 0 min 0,000 mm 0,0 UV-I 0 W/m² 2,8 °C 9,3 °C 3,2 km/h (1 Bft)
03.04.2018 23:34 9,4 °C 64 % 1004,8 hPa 0,0 mm 0,0 km/h (0 Bft) S 184 ° 0 min 0,000 mm 0,0 UV-I 0 W/m² 2,9 °C 9,4 °C 0,0 km/h (0 Bft)
03.04.2018 23:35 9,4 °C 64 % 1004,8 hPa 0,0 mm 0,0 km/h (0 Bft) S 184 ° 0 min 0,000 mm 0,0 UV-I 0 W/m² 2,9 °C 9,4 °C 0,0 km/h (0 Bft)
03.04.2018 23:36 9,4 °C 64 % 1004,7 hPa 0,0 mm 2,7 km/h (1 Bft) S 184 ° 0 min 0,000 mm 0,0 UV-I 0 W/m² 2,9 °C 9,4 °C 4,8 km/h (1 Bft)
03.04.2018 23:37 9,3 °C 65 % 1004,7 hPa 0,0 mm 2,6 km/h (1 Bft) S 184 ° 0 min 0,000 mm 0,0 UV-I 0 W/m² 3,1 °C 9,3 °C 4,8 km/h (1 Bft)
03.04.2018 23:38 9,1 °C 67 % 1004,7 hPa 0,0 mm 0,0 km/h (0 Bft) S 184 ° 0 min 0,000 mm 0,0 UV-I 0 W/m² 3,3 °C 9,1 °C 0,0 km/h (0 Bft)
03.04.2018 23:39 8,8 °C 68 % 1004,6 hPa 0,0 mm 0,0 km/h (0 Bft) S 184 ° 0 min 0,000 mm 0,0 UV-I 0 W/m² 3,2 °C 8,8 °C 0,0 km/h (0 Bft)
03.04.2018 23:40 8,7 °C 69 % 1004,6 hPa 0,0 mm 0,0 km/h (0 Bft) S 184 ° 0 min 0,000 mm 0,0 UV-I 0 W/m² 3,3 °C 8,7 °C 0,0 km/h (0 Bft)
03.04.2018 23:41 8,7 °C 66 % 1004,6 hPa 0,0 mm 0,0 km/h (0 Bft) S 184 ° 0 min 0,000 mm 0,0 UV-I 0 W/m² 2,7 °C 8,7 °C 0,0 km/h (0 Bft)
03.04.2018 23:42 8,7 °C 68 % 1004,7 hPa 0,0 mm 0,0 km/h (0 Bft) S 184 ° 0 min 0,000 mm 0,0 UV-I 0 W/m² 3,1 °C 8,7 °C 0,0 km/h (0 Bft)
03.04.2018 23:43 8,6 °C 67 % 1004,6 hPa 0,0 mm 0,0 km/h (0 Bft) S 184 ° 0 min 0,000 mm 0,0 UV-I 0 W/m² 2,8 °C 8,6 °C 0,0 km/h (0 Bft)
03.04.2018 23:44 8,6 °C 68 % 1004,6 hPa 0,0 mm 0,0 km/h (0 Bft) S 184 ° 0 min 0,000 mm 0,0 UV-I 0 W/m² 3,0 °C 8,6 °C 0,0 km/h (0 Bft)
03.04.2018 23:45 8,5 °C 69 % 1004,6 hPa 0,0 mm 0,0 km/h (0 Bft) S 184 ° 0 min 0,000 mm 0,0 UV-I 0 W/m² 3,1 °C 8,5 °C 0,0 km/h (0 Bft)
03.04.2018 23:46 8,4 °C 69 % 1004,6 hPa 0,0 mm 0,0 km/h (0 Bft) S 184 ° 0 min 0,000 mm 0,0 UV-I 0 W/m² 3,0 °C 8,4 °C 0,0 km/h (0 Bft)
03.04.2018 23:47 8,6 °C 69 % 1004,5 hPa 0,0 mm 0,0 km/h (0 Bft) S 184 ° 0 min 0,000 mm 0,0 UV-I 0 W/m² 3,2 °C 8,6 °C 0,0 km/h (0 Bft)
03.04.2018 23:48 8,8 °C 66 % 1004,5 hPa 0,0 mm 0,0 km/h (0 Bft) S 184 ° 0 min 0,000 mm 0,0 UV-I 0 W/m² 2,8 °C 8,8 °C 0,0 km/h (0 Bft)
03.04.2018 23:49 8,9 °C 67 % 1004,5 hPa 0,0 mm 0,0 km/h (0 Bft) S 184 ° 0 min 0,000 mm 0,0 UV-I 0 W/m² 3,1 °C 8,9 °C 0,0 km/h (0 Bft)
03.04.2018 23:50 9,1 °C 66 % 1004,5 hPa 0,0 mm 0,0 km/h (0 Bft) S 184 ° 0 min 0,000 mm 0,0 UV-I 0 W/m² 3,1 °C 9,1 °C 0,0 km/h (0 Bft)
03.04.2018 23:51 9,1 °C 67 % 1004,5 hPa 0,0 mm 0,0 km/h (0 Bft) S 184 ° 0 min 0,000 mm 0,0 UV-I 0 W/m² 3,3 °C 9,1 °C 0,0 km/h (0 Bft)
03.04.2018 23:52 8,9 °C 67 % 1004,5 hPa 0,0 mm 0,0 km/h (0 Bft) S 184 ° 0 min 0,000 mm 0,0 UV-I 0 W/m² 3,1 °C 8,9 °C 0,0 km/h (0 Bft)
03.04.2018 23:53 8,7 °C 69 % 1004,5 hPa 0,0 mm 0,0 km/h (0 Bft) S 184 ° 0 min 0,000 mm 0,0 UV-I 0 W/m² 3,3 °C 8,7 °C 0,0 km/h (0 Bft)
03.04.2018 23:54 8,4 °C 70 % 1004,5 hPa 0,0 mm 0,0 km/h (0 Bft) S 184 ° 0 min 0,000 mm 0,0 UV-I 0 W/m² 3,3 °C 8,4 °C 0,0 km/h (0 Bft)
03.04.2018 23:55 8,2 °C 71 % 1004,5 hPa 0,0 mm 0,0 km/h (0 Bft) S 184 ° 0 min 0,000 mm 0,0 UV-I 0 W/m² 3,3 °C 8,2 °C 0,0 km/h (0 Bft)
03.04.2018 23:56 7,9 °C 72 % 1004,4 hPa 0,0 mm 0,0 km/h (0 Bft) S 184 ° 0 min 0,000 mm 0,0 UV-I 0 W/m² 3,2 °C 7,9 °C 0,0 km/h (0 Bft)
03.04.2018 23:57 7,8 °C 72 % 1004,5 hPa 0,0 mm 0,0 km/h (0 Bft) S 184 ° 0 min 0,000 mm 0,0 UV-I 0 W/m² 3,1 °C 7,8 °C 0,0 km/h (0 Bft)
03.04.2018 23:58 7,7 °C 73 % 1004,6 hPa 0,0 mm 0,0 km/h (0 Bft) S 184 ° 0 min 0,000 mm 0,0 UV-I 0 W/m² 3,2 °C 7,7 °C 0,0 km/h (0 Bft)
03.04.2018 23:59 7,7 °C 73 % 1004,6 hPa 0,0 mm 0,0 km/h (0 Bft) S 184 ° 0 min 0,000 mm 0,0 UV-I 0 W/m² 3,2 °C 7,7 °C 0,0 km/h (0 Bft)
_ Min-Zeit 00:10 14:39 18:36 - 23:59 - - - - - - 02:15 00:09 23:59
Minimum _ 4,6 °C 30 % 1003,6 hPa - 0,0 km/h (0 Bft) - - - - - - 0,0 °C 3,7 °C 0,0 km/h (0 Bft)
_ Max-Zeit 15:58 07:33 04:10 23:59 04:00 - - 16:08 14:01 13:18 13:18 17:30 15:58 04:09
Maximum _ 19,8 °C 79 % 1008,1 hPa 0,0 mm 15,7 km/h
W-NW (3 Bft)
- - 1 min 0,407 mm 6,1 UV-I 963 W/m² 6,5 °C 19,8 °C 24,1 km/h
W (4 Bft)
Durchschnitt _ 12,7 °C 52 % 1005,8 hPa #0,0 mm 2,3 km/h (1 Bft) S - #6:25 h #2,896 mm 2,6 UV-I 170 W/m² 2,6 °C 12,7 °C 4,4 km/h (1 Bft)